<?xml version='1.0' encoding='UTF-8'?><gpx version="1.1" creator="JPX - https://github.com/jenetics/jpx" xmlns="http://www.topografix.com/GPX/1/1"><trk><trkseg><trkpt lat="43.9536584" lon="10.3188081"><ele>189.0</ele><time>2026-05-01T10:44:23.807Z</time></trkpt><trkpt lat="43.9536994" lon="10.3188767"><ele>189.0</ele><time>2026-05-01T10:44:25.807Z</time></trkpt><trkpt lat="43.9536806" lon="10.3189799"><ele>189.0</ele><time>2026-05-01T10:44:32.808Z</time></trkpt><trkpt lat="43.953697" lon="10.3190704"><ele>189.0</ele><time>2026-05-01T10:44:42.834Z</time></trkpt><trkpt lat="43.9537572" lon="10.319117"><ele>189.0</ele><time>2026-05-01T10:44:47.742Z</time></trkpt><trkpt lat="43.9538145" lon="10.3191551"><ele>189.0</ele><time>2026-05-01T10:44:53.812Z</time></trkpt><trkpt lat="43.9538319" lon="10.3192441"><ele>189.0</ele><time>2026-05-01T10:45:01.776Z</time></trkpt><trkpt lat="43.9538783" lon="10.3193076"><ele>185.0</ele><time>2026-05-01T10:45:06.763Z</time></trkpt><trkpt lat="43.9538784" lon="10.319447"><ele>181.0</ele><time>2026-05-01T10:45:11.802Z</time></trkpt><trkpt lat="43.9538464" lon="10.3195281"><ele>177.0</ele><time>2026-05-01T10:45:12.81Z</time></trkpt><trkpt lat="43.9538301" lon="10.3196278"><ele>173.0</ele><time>2026-05-01T10:45:18.814Z</time></trkpt><trkpt lat="43.9538512" lon="10.3197267"><ele>169.0</ele><time>2026-05-01T10:45:23.777Z</time></trkpt><trkpt lat="43.9538641" lon="10.3198225"><ele>165.0</ele><time>2026-05-01T10:45:29.805Z</time></trkpt><trkpt lat="43.9538881" lon="10.3199184"><ele>166.57142857142858</ele><time>2026-05-01T10:45:35.758Z</time></trkpt><trkpt lat="43.9539244" lon="10.3199906"><ele>168.14285714285714</ele><time>2026-05-01T10:45:41.829Z</time></trkpt><trkpt lat="43.9539705" lon="10.3200607"><ele>169.71428571428572</ele><time>2026-05-01T10:45:46.801Z</time></trkpt><trkpt lat="43.954025" lon="10.3201158"><ele>171.28571428571428</ele><time>2026-05-01T10:45:50.806Z</time></trkpt><trkpt lat="43.9540934" lon="10.3201646"><ele>172.85714285714286</ele><time>2026-05-01T10:45:54.807Z</time></trkpt><trkpt lat="43.9541492" lon="10.3202094"><ele>174.42857142857144</ele><time>2026-05-01T10:45:59.72Z</time></trkpt><trkpt lat="43.954189" lon="10.3202873"><ele>176.0</ele><time>2026-05-01T10:46:05.821Z</time></trkpt><trkpt lat="43.9542101" lon="10.3203767"><ele>176.0</ele><time>2026-05-01T10:46:10.807Z</time></trkpt><trkpt lat="43.9542398" lon="10.3204592"><ele>176.0</ele><time>2026-05-01T10:46:15.822Z</time></trkpt><trkpt lat="43.9542666" lon="10.3205508"><ele>176.0</ele><time>2026-05-01T10:46:20.811Z</time></trkpt><trkpt lat="43.9542638" lon="10.320655"><ele>176.0</ele><time>2026-05-01T10:46:25.805Z</time></trkpt><trkpt lat="43.9542279" lon="10.3207271"><ele>176.0</ele><time>2026-05-01T10:46:30.808Z</time></trkpt><trkpt lat="43.9541724" lon="10.3207913"><ele>176.0</ele><time>2026-05-01T10:46:36.802Z</time></trkpt><trkpt lat="43.9541175" lon="10.3208538"><ele>176.0</ele><time>2026-05-01T10:46:42.802Z</time></trkpt><trkpt lat="43.9540762" lon="10.3209373"><ele>170.28571428571428</ele><time>2026-05-01T10:46:49.805Z</time></trkpt><trkpt lat="43.9540737" lon="10.3210263"><ele>164.57142857142856</ele><time>2026-05-01T10:46:54.815Z</time></trkpt><trkpt lat="43.9540979" lon="10.321122"><ele>158.85714285714283</ele><time>2026-05-01T10:47:00.812Z</time></trkpt><trkpt lat="43.9541321" lon="10.3212027"><ele>153.14285714285714</ele><time>2026-05-01T10:47:05.81Z</time></trkpt><trkpt lat="43.9541671" lon="10.3212798"><ele>147.42857142857142</ele><time>2026-05-01T10:47:10.811Z</time></trkpt><trkpt lat="43.9541908" lon="10.3213714"><ele>141.7142857142857</ele><time>2026-05-01T10:47:15.813Z</time></trkpt><trkpt lat="43.9542136" lon="10.3214624"><ele>136.0</ele><time>2026-05-01T10:47:20.803Z</time></trkpt><trkpt lat="43.9542318" lon="10.3215572"><ele>135.99999999999997</ele><time>2026-05-01T10:47:25.812Z</time></trkpt><trkpt lat="43.9541818" lon="10.3216214"><ele>136.0</ele><time>2026-05-01T10:47:31.739Z</time></trkpt><trkpt lat="43.9541332" lon="10.3216825"><ele>136.0</ele><time>2026-05-01T10:47:37.813Z</time></trkpt><trkpt lat="43.9541609" lon="10.321768"><ele>136.0</ele><time>2026-05-01T10:47:43.719Z</time></trkpt><trkpt lat="43.9541968" lon="10.3218563"><ele>136.0</ele><time>2026-05-01T10:47:49.806Z</time></trkpt><trkpt lat="43.9542371" lon="10.321941"><ele>135.99999999999997</ele><time>2026-05-01T10:47:55.808Z</time></trkpt><trkpt lat="43.9542643" lon="10.3220325"><ele>136.0</ele><time>2026-05-01T10:48:02.81Z</time></trkpt><trkpt lat="43.9543163" lon="10.3221035"><ele>135.99999999999997</ele><time>2026-05-01T10:48:08.81Z</time></trkpt><trkpt lat="43.9543728" lon="10.322143"><ele>136.0</ele><time>2026-05-01T10:48:14.804Z</time></trkpt><trkpt lat="43.9544363" lon="10.3221228"><ele>136.0</ele><time>2026-05-01T10:48:20.823Z</time></trkpt><trkpt lat="43.9544872" lon="10.3220652"><ele>136.0</ele><time>2026-05-01T10:48:24.815Z</time></trkpt><trkpt lat="43.9545567" lon="10.3220333"><ele>136.0</ele><time>2026-05-01T10:48:30.814Z</time></trkpt><trkpt lat="43.9545893" lon="10.3219357"><ele>135.99999999999997</ele><time>2026-05-01T10:48:34.807Z</time></trkpt><trkpt lat="43.9546465" lon="10.3218819"><ele>136.0</ele><time>2026-05-01T10:48:40.811Z</time></trkpt><trkpt lat="43.9546995" lon="10.3218316"><ele>135.99999999999997</ele><time>2026-05-01T10:48:46.803Z</time></trkpt><trkpt lat="43.9547637" lon="10.3218383"><ele>136.0</ele><time>2026-05-01T10:48:53.811Z</time></trkpt><trkpt lat="43.9548325" lon="10.3218117"><ele>136.0</ele><time>2026-05-01T10:49:01.807Z</time></trkpt><trkpt lat="43.9548906" lon="10.3218633"><ele>136.0</ele><time>2026-05-01T10:49:06.808Z</time></trkpt><trkpt lat="43.9549356" lon="10.3219246"><ele>136.0</ele><time>2026-05-01T10:49:12.808Z</time></trkpt><trkpt lat="43.9549918" lon="10.3219654"><ele>135.99999999999997</ele><time>2026-05-01T10:49:18.808Z</time></trkpt><trkpt lat="43.9549397" lon="10.3220523"><ele>136.0</ele><time>2026-05-01T10:49:58.807Z</time></trkpt><trkpt lat="43.95488" lon="10.3220889"><ele>135.99999999999997</ele><time>2026-05-01T10:50:02.808Z</time></trkpt><trkpt lat="43.95482" lon="10.3221171"><ele>136.0</ele><time>2026-05-01T10:50:08.808Z</time></trkpt><trkpt lat="43.9548458" lon="10.3221998"><ele>136.0</ele><time>2026-05-01T10:50:15.808Z</time></trkpt><trkpt lat="43.9549072" lon="10.3222295"><ele>136.0</ele><time>2026-05-01T10:50:21.808Z</time></trkpt><trkpt lat="43.9549126" lon="10.3223198"><ele>136.0</ele><time>2026-05-01T10:50:30.808Z</time></trkpt><trkpt lat="43.9549732" lon="10.3223484"><ele>135.99999999999997</ele><time>2026-05-01T10:50:35.808Z</time></trkpt><trkpt lat="43.9550275" lon="10.3223927"><ele>136.0</ele><time>2026-05-01T10:51:02.808Z</time></trkpt><trkpt lat="43.9550976" lon="10.3224096"><ele>136.99999999999997</ele><time>2026-05-01T10:51:12.837Z</time></trkpt><trkpt lat="43.9551487" lon="10.3224695"><ele>138.0</ele><time>2026-05-01T10:51:18.808Z</time></trkpt><trkpt lat="43.9552156" lon="10.3225068"><ele>139.0</ele><time>2026-05-01T10:51:24.808Z</time></trkpt><trkpt lat="43.9552844" lon="10.3225225"><ele>140.0</ele><time>2026-05-01T10:51:32.808Z</time></trkpt><trkpt lat="43.9553262" lon="10.3226111"><ele>141.0</ele><time>2026-05-01T10:51:39.808Z</time></trkpt><trkpt lat="43.9553253" lon="10.3227022"><ele>141.99999999999997</ele><time>2026-05-01T10:51:45.808Z</time></trkpt><trkpt lat="43.9553056" lon="10.3227947"><ele>143.0</ele><time>2026-05-01T10:51:55.808Z</time></trkpt><trkpt lat="43.9552799" lon="10.3228786"><ele>142.99999999999997</ele><time>2026-05-01T10:52:01.738Z</time></trkpt><trkpt lat="43.9553286" lon="10.3229401"><ele>143.0</ele><time>2026-05-01T10:52:08.808Z</time></trkpt><trkpt lat="43.9553931" lon="10.3229649"><ele>143.0</ele><time>2026-05-01T10:52:15.808Z</time></trkpt><trkpt lat="43.9554547" lon="10.3230115"><ele>143.0</ele><time>2026-05-01T10:52:29.808Z</time></trkpt><trkpt lat="43.9554324" lon="10.3231025"><ele>143.0</ele><time>2026-05-01T10:53:18.808Z</time></trkpt><trkpt lat="43.9554784" lon="10.3231681"><ele>142.99999999999997</ele><time>2026-05-01T10:53:25.808Z</time></trkpt><trkpt lat="43.9555245" lon="10.3232319"><ele>143.0</ele><time>2026-05-01T10:53:31.808Z</time></trkpt><trkpt lat="43.9555956" lon="10.3232711"><ele>145.14285714285714</ele><time>2026-05-01T10:53:55.808Z</time></trkpt><trkpt lat="43.9556651" lon="10.3232929"><ele>147.28571428571428</ele><time>2026-05-01T10:54:00.808Z</time></trkpt><trkpt lat="43.9557266" lon="10.3232678"><ele>149.42857142857144</ele><time>2026-05-01T10:54:05.808Z</time></trkpt><trkpt lat="43.9557938" lon="10.3232711"><ele>151.57142857142856</ele><time>2026-05-01T10:54:12.808Z</time></trkpt><trkpt lat="43.9558061" lon="10.323358"><ele>153.71428571428572</ele><time>2026-05-01T10:54:17.808Z</time></trkpt><trkpt lat="43.9558273" lon="10.3234461"><ele>155.85714285714286</ele><time>2026-05-01T10:54:23.808Z</time></trkpt><trkpt lat="43.9558827" lon="10.3234944"><ele>158.0</ele><time>2026-05-01T10:54:29.808Z</time></trkpt><trkpt lat="43.9559348" lon="10.3235512"><ele>158.00000000000003</ele><time>2026-05-01T10:54:35.808Z</time></trkpt><trkpt lat="43.9560031" lon="10.323563"><ele>158.0</ele><time>2026-05-01T10:54:43.808Z</time></trkpt><trkpt lat="43.9559931" lon="10.3236524"><ele>158.0</ele><time>2026-05-01T10:54:49.807Z</time></trkpt><trkpt lat="43.9559865" lon="10.3237498"><ele>158.0</ele><time>2026-05-01T10:54:53.808Z</time></trkpt><trkpt lat="43.9560337" lon="10.3238211"><ele>158.0</ele><time>2026-05-01T10:55:01.808Z</time></trkpt><trkpt lat="43.9560746" lon="10.3238922"><ele>158.00000000000003</ele><time>2026-05-01T10:55:07.808Z</time></trkpt><trkpt lat="43.9561396" lon="10.3239197"><ele>158.0</ele><time>2026-05-01T10:55:13.807Z</time></trkpt><trkpt lat="43.9562036" lon="10.3239366"><ele>159.71428571428572</ele><time>2026-05-01T10:55:19.761Z</time></trkpt><trkpt lat="43.9562646" lon="10.3239593"><ele>161.42857142857144</ele><time>2026-05-01T10:55:25.808Z</time></trkpt><trkpt lat="43.956324" lon="10.3239926"><ele>163.14285714285717</ele><time>2026-05-01T10:55:31.808Z</time></trkpt><trkpt lat="43.9563864" lon="10.3240279"><ele>164.85714285714286</ele><time>2026-05-01T10:55:37.808Z</time></trkpt><trkpt lat="43.9564532" lon="10.3240575"><ele>166.57142857142856</ele><time>2026-05-01T10:55:43.808Z</time></trkpt><trkpt lat="43.9565112" lon="10.3240981"><ele>168.2857142857143</ele><time>2026-05-01T10:55:50.817Z</time></trkpt><trkpt lat="43.9565807" lon="10.3240898"><ele>170.0</ele><time>2026-05-01T10:55:57.729Z</time></trkpt><trkpt lat="43.9566455" lon="10.3241095"><ele>170.2857142857143</ele><time>2026-05-01T10:56:03.808Z</time></trkpt><trkpt lat="43.9567134" lon="10.3241034"><ele>170.57142857142856</ele><time>2026-05-01T10:56:09.808Z</time></trkpt><trkpt lat="43.9567824" lon="10.3241175"><ele>170.85714285714286</ele><time>2026-05-01T10:56:16.808Z</time></trkpt><trkpt lat="43.9568508" lon="10.3241284"><ele>171.14285714285717</ele><time>2026-05-01T10:56:25.814Z</time></trkpt><trkpt lat="43.9569096" lon="10.3240897"><ele>171.42857142857144</ele><time>2026-05-01T10:56:30.74Z</time></trkpt><trkpt lat="43.9569765" lon="10.3240755"><ele>171.71428571428572</ele><time>2026-05-01T10:56:36.808Z</time></trkpt><trkpt lat="43.9570456" lon="10.3240804"><ele>172.0</ele><time>2026-05-01T10:56:43.808Z</time></trkpt><trkpt lat="43.9571151" lon="10.3240715"><ele>172.00000000000003</ele><time>2026-05-01T10:56:49.808Z</time></trkpt><trkpt lat="43.9571805" lon="10.3240502"><ele>172.0</ele><time>2026-05-01T10:56:57.807Z</time></trkpt><trkpt lat="43.957235" lon="10.3239853"><ele>172.0</ele><time>2026-05-01T10:57:05.811Z</time></trkpt><trkpt lat="43.9572515" lon="10.3238985"><ele>172.0</ele><time>2026-05-01T10:57:11.808Z</time></trkpt><trkpt lat="43.9572862" lon="10.3238211"><ele>172.0</ele><time>2026-05-01T10:57:19.808Z</time></trkpt><trkpt lat="43.9572451" lon="10.3237541"><ele>172.00000000000003</ele><time>2026-05-01T10:57:25.808Z</time></trkpt><trkpt lat="43.9571924" lon="10.3236915"><ele>172.0</ele><time>2026-05-01T10:57:32.807Z</time></trkpt><trkpt lat="43.9571396" lon="10.3236384"><ele>172.00000000000003</ele><time>2026-05-01T10:57:39.808Z</time></trkpt><trkpt lat="43.9572131" lon="10.3236396"><ele>172.0</ele><time>2026-05-01T10:57:50.808Z</time></trkpt><trkpt lat="43.9572675" lon="10.3236983"><ele>172.0</ele><time>2026-05-01T10:57:58.808Z</time></trkpt><trkpt lat="43.957269" lon="10.3238009"><ele>172.0</ele><time>2026-05-01T10:58:09.808Z</time></trkpt><trkpt lat="43.9572546" lon="10.3238863"><ele>172.0</ele><time>2026-05-01T10:58:16.808Z</time></trkpt><trkpt lat="43.9572705" lon="10.3239738"><ele>172.00000000000003</ele><time>2026-05-01T10:58:27.808Z</time></trkpt><trkpt lat="43.9573562" lon="10.3239231"><ele>172.0</ele><time>2026-05-01T10:58:28.808Z</time></trkpt><trkpt lat="43.9574223" lon="10.3238816"><ele>172.00000000000003</ele><time>2026-05-01T10:58:29.808Z</time></trkpt><trkpt lat="43.9574656" lon="10.3239592"><ele>172.0</ele><time>2026-05-01T10:58:36.808Z</time></trkpt><trkpt lat="43.9574978" lon="10.3240386"><ele>172.0</ele><time>2026-05-01T10:58:49.808Z</time></trkpt><trkpt lat="43.9575672" lon="10.3240158"><ele>172.0</ele><time>2026-05-01T10:58:55.808Z</time></trkpt><trkpt lat="43.9576091" lon="10.3239498"><ele>172.0</ele><time>2026-05-01T10:59:04.807Z</time></trkpt><trkpt lat="43.9576591" lon="10.3238908"><ele>172.00000000000003</ele><time>2026-05-01T10:59:11.808Z</time></trkpt><trkpt lat="43.957729" lon="10.3238775"><ele>172.0</ele><time>2026-05-01T10:59:16.807Z</time></trkpt><trkpt lat="43.9577914" lon="10.3239218"><ele>178.42857142857144</ele><time>2026-05-01T10:59:23.764Z</time></trkpt><trkpt lat="43.9577804" lon="10.3240195"><ele>184.85714285714286</ele><time>2026-05-01T10:59:29.808Z</time></trkpt><trkpt lat="43.9577498" lon="10.3241077"><ele>191.28571428571428</ele><time>2026-05-01T10:59:37.809Z</time></trkpt><trkpt lat="43.9577507" lon="10.3242011"><ele>197.71428571428572</ele><time>2026-05-01T10:59:44.808Z</time></trkpt><trkpt lat="43.9577658" lon="10.3242936"><ele>204.14285714285714</ele><time>2026-05-01T10:59:51.759Z</time></trkpt><trkpt lat="43.9577927" lon="10.3243863"><ele>210.57142857142858</ele><time>2026-05-01T10:59:57.808Z</time></trkpt><trkpt lat="43.9578236" lon="10.3244791"><ele>217.0</ele><time>2026-05-01T11:00:03.808Z</time></trkpt><trkpt lat="43.9578666" lon="10.3245518"><ele>217.0</ele><time>2026-05-01T11:00:09.807Z</time></trkpt><trkpt lat="43.9578825" lon="10.3246608"><ele>217.0</ele><time>2026-05-01T11:01:51.808Z</time></trkpt><trkpt lat="43.9578949" lon="10.3247579"><ele>217.0</ele><time>2026-05-01T11:01:56.808Z</time></trkpt><trkpt lat="43.9579125" lon="10.3248479"><ele>217.0</ele><time>2026-05-01T11:02:02.808Z</time></trkpt><trkpt lat="43.9579394" lon="10.324928"><ele>217.0</ele><time>2026-05-01T11:02:10.807Z</time></trkpt><trkpt lat="43.9580045" lon="10.324927"><ele>217.0</ele><time>2026-05-01T11:02:41.8Z</time></trkpt><trkpt lat="43.9580769" lon="10.324924"><ele>217.0</ele><time>2026-05-01T11:02:47.807Z</time></trkpt><trkpt lat="43.9581325" lon="10.3249796"><ele>217.14285714285714</ele><time>2026-05-01T11:02:54.98Z</time></trkpt><trkpt lat="43.9581887" lon="10.3250318"><ele>217.28571428571428</ele><time>2026-05-01T11:03:05.808Z</time></trkpt><trkpt lat="43.9581824" lon="10.325184"><ele>217.42857142857144</ele><time>2026-05-01T11:03:44.813Z</time></trkpt><trkpt lat="43.9581906" lon="10.3252723"><ele>217.57142857142856</ele><time>2026-05-01T11:03:52.851Z</time></trkpt><trkpt lat="43.958215" lon="10.3253552"><ele>217.71428571428572</ele><time>2026-05-01T11:04:01.808Z</time></trkpt><trkpt lat="43.9582199" lon="10.3254437"><ele>217.85714285714286</ele><time>2026-05-01T11:04:11.808Z</time></trkpt><trkpt lat="43.9582213" lon="10.3255337"><ele>218.0</ele><time>2026-05-01T11:04:18.82Z</time></trkpt><trkpt lat="43.9582162" lon="10.3256273"><ele>217.14285714285714</ele><time>2026-05-01T11:04:29.808Z</time></trkpt><trkpt lat="43.9581999" lon="10.3257148"><ele>216.28571428571428</ele><time>2026-05-01T11:05:17.816Z</time></trkpt><trkpt lat="43.9582048" lon="10.325805"><ele>215.42857142857144</ele><time>2026-05-01T11:05:22.808Z</time></trkpt><trkpt lat="43.9582159" lon="10.3259032"><ele>214.57142857142856</ele><time>2026-05-01T11:05:29.808Z</time></trkpt><trkpt lat="43.9582381" lon="10.3259995"><ele>213.7142857142857</ele><time>2026-05-01T11:05:37.807Z</time></trkpt><trkpt lat="43.958251" lon="10.3260904"><ele>212.85714285714286</ele><time>2026-05-01T11:05:45.808Z</time></trkpt><trkpt lat="43.9582935" lon="10.3261626"><ele>212.0</ele><time>2026-05-01T11:05:53.808Z</time></trkpt><trkpt lat="43.9582898" lon="10.3262557"><ele>212.0</ele><time>2026-05-01T11:06:04.848Z</time></trkpt><trkpt lat="43.9583238" lon="10.3263385"><ele>212.0</ele><time>2026-05-01T11:06:33.806Z</time></trkpt><trkpt lat="43.9584049" lon="10.3263285"><ele>212.0</ele><time>2026-05-01T11:06:38.808Z</time></trkpt><trkpt lat="43.9584511" lon="10.3262627"><ele>212.0</ele><time>2026-05-01T11:06:42.808Z</time></trkpt><trkpt lat="43.9583838" lon="10.3262489"><ele>212.0</ele><time>2026-05-01T11:06:58.723Z</time></trkpt><trkpt lat="43.9584495" lon="10.3262192"><ele>212.0</ele><time>2026-05-01T11:07:15.808Z</time></trkpt><trkpt lat="43.9585134" lon="10.3261851"><ele>212.0</ele><time>2026-05-01T11:07:22.781Z</time></trkpt><trkpt lat="43.9584796" lon="10.326269"><ele>220.0</ele><time>2026-05-01T11:07:47.808Z</time></trkpt><trkpt lat="43.9585328" lon="10.3263311"><ele>228.0</ele><time>2026-05-01T11:08:27.807Z</time></trkpt><trkpt lat="43.9585549" lon="10.3264198"><ele>236.0</ele><time>2026-05-01T11:08:33.808Z</time></trkpt><trkpt lat="43.9585658" lon="10.326509"><ele>244.0</ele><time>2026-05-01T11:08:39.807Z</time></trkpt><trkpt lat="43.9586006" lon="10.3265966"><ele>252.0</ele><time>2026-05-01T11:08:48.81Z</time></trkpt><trkpt lat="43.9585979" lon="10.3264668"><ele>260.0</ele><time>2026-05-01T11:11:08.83Z</time></trkpt><trkpt lat="43.9586502" lon="10.3263909"><ele>268.0</ele><time>2026-05-01T11:11:29.808Z</time></trkpt><trkpt lat="43.9586693" lon="10.3263039"><ele>268.0</ele><time>2026-05-01T11:11:34.815Z</time></trkpt><trkpt lat="43.9586849" lon="10.3262003"><ele>268.0</ele><time>2026-05-01T11:11:41.808Z</time></trkpt><trkpt lat="43.9587036" lon="10.3260822"><ele>268.0</ele><time>2026-05-01T11:11:50.814Z</time></trkpt><trkpt lat="43.9587497" lon="10.326152"><ele>268.0</ele><time>2026-05-01T11:12:15.808Z</time></trkpt><trkpt lat="43.9587826" lon="10.3262354"><ele>268.0</ele><time>2026-05-01T11:12:25.808Z</time></trkpt><trkpt lat="43.9587656" lon="10.326334"><ele>268.0</ele><time>2026-05-01T11:12:51.808Z</time></trkpt><trkpt lat="43.9586988" lon="10.3263314"><ele>268.0</ele><time>2026-05-01T11:14:59.808Z</time></trkpt><trkpt lat="43.9587059" lon="10.3264206"><ele>268.0</ele><time>2026-05-01T11:15:19.808Z</time></trkpt><trkpt lat="43.9587267" lon="10.3263259"><ele>268.0</ele><time>2026-05-01T11:16:36.807Z</time></trkpt><trkpt lat="43.9587253" lon="10.326423"><ele>268.0</ele><time>2026-05-01T11:21:32.828Z</time></trkpt><trkpt lat="43.9587966" lon="10.3263868"><ele>268.0</ele><time>2026-05-01T11:21:38.833Z</time></trkpt><trkpt lat="43.9588006" lon="10.3262989"><ele>268.0</ele><time>2026-05-01T11:21:40.808Z</time></trkpt><trkpt lat="43.958731" lon="10.3263626"><ele>268.0</ele><time>2026-05-01T11:24:28.808Z</time></trkpt><trkpt lat="43.9587648" lon="10.3262795"><ele>268.0</ele><time>2026-05-01T11:44:10.808Z</time></trkpt><trkpt lat="43.9587337" lon="10.3263656"><ele>268.0</ele><time>2026-05-01T11:44:30.808Z</time></trkpt><trkpt lat="43.9586813" lon="10.3264164"><ele>268.0</ele><time>2026-05-01T11:44:41.808Z</time></trkpt><trkpt lat="43.9587435" lon="10.3263792"><ele>268.0</ele><time>2026-05-01T11:45:05.808Z</time></trkpt><trkpt lat="43.95868" lon="10.326409"><ele>268.0</ele><time>2026-05-01T11:45:20.808Z</time></trkpt><trkpt lat="43.9586452" lon="10.3263258"><ele>268.0</ele><time>2026-05-01T11:45:40.808Z</time></trkpt><trkpt lat="43.9587225" lon="10.3263278"><ele>268.0</ele><time>2026-05-01T11:45:43.808Z</time></trkpt><trkpt lat="43.9587845" lon="10.3263838"><ele>268.0</ele><time>2026-05-01T11:46:23.808Z</time></trkpt><trkpt lat="43.958754" lon="10.3263046"><ele>268.8571428571429</ele><time>2026-05-01T11:46:37.807Z</time></trkpt><trkpt lat="43.9587347" lon="10.3262087"><ele>269.7142857142857</ele><time>2026-05-01T11:46:41.808Z</time></trkpt><trkpt lat="43.9587513" lon="10.3261237"><ele>270.57142857142856</ele><time>2026-05-01T11:46:51.808Z</time></trkpt><trkpt lat="43.9588685" lon="10.3261127"><ele>271.42857142857144</ele><time>2026-05-01T11:47:11.808Z</time></trkpt><trkpt lat="43.9588434" lon="10.3261938"><ele>272.2857142857143</ele><time>2026-05-01T11:47:18.807Z</time></trkpt><trkpt lat="43.9588212" lon="10.3262799"><ele>273.14285714285717</ele><time>2026-05-01T11:47:27.808Z</time></trkpt><trkpt lat="43.9588745" lon="10.3262303"><ele>274.0</ele><time>2026-05-01T11:47:36.01Z</time></trkpt><trkpt lat="43.9589376" lon="10.3262014"><ele>274.00000000000006</ele><time>2026-05-01T11:47:51.807Z</time></trkpt><trkpt lat="43.9589957" lon="10.3261609"><ele>274.0</ele><time>2026-05-01T11:48:02.81Z</time></trkpt><trkpt lat="43.9589618" lon="10.326242"><ele>274.0</ele><time>2026-05-01T11:48:23.807Z</time></trkpt><trkpt lat="43.9589308" lon="10.3263187"><ele>274.0</ele><time>2026-05-01T11:48:41.808Z</time></trkpt><trkpt lat="43.9589485" lon="10.3264054"><ele>274.0</ele><time>2026-05-01T11:48:58.808Z</time></trkpt><trkpt lat="43.9590002" lon="10.3264566"><ele>274.00000000000006</ele><time>2026-05-01T11:49:32.808Z</time></trkpt><trkpt lat="43.9590294" lon="10.3265354"><ele>274.0</ele><time>2026-05-01T11:49:50.845Z</time></trkpt><trkpt lat="43.9590235" lon="10.3266233"><ele>273.14285714285717</ele><time>2026-05-01T11:50:04.842Z</time></trkpt><trkpt lat="43.9590246" lon="10.3267186"><ele>272.2857142857143</ele><time>2026-05-01T11:50:19.808Z</time></trkpt><trkpt lat="43.9590728" lon="10.3268356"><ele>271.42857142857144</ele><time>2026-05-01T11:50:39.808Z</time></trkpt><trkpt lat="43.9591221" lon="10.3268951"><ele>270.57142857142856</ele><time>2026-05-01T11:50:45.807Z</time></trkpt><trkpt lat="43.9591634" lon="10.3269788"><ele>269.7142857142857</ele><time>2026-05-01T11:50:54.808Z</time></trkpt><trkpt lat="43.959223" lon="10.3270141"><ele>268.8571428571429</ele><time>2026-05-01T11:50:59.808Z</time></trkpt><trkpt lat="43.9592296" lon="10.327105"><ele>268.0</ele><time>2026-05-01T11:51:47.807Z</time></trkpt><trkpt lat="43.9592243" lon="10.3272031"><ele>272.57142857142856</ele><time>2026-05-01T11:51:56.808Z</time></trkpt><trkpt lat="43.9592587" lon="10.3272767"><ele>277.1428571428571</ele><time>2026-05-01T11:52:02.808Z</time></trkpt><trkpt lat="43.9592827" lon="10.3273581"><ele>281.71428571428567</ele><time>2026-05-01T11:52:08.808Z</time></trkpt><trkpt lat="43.959341" lon="10.3274252"><ele>286.2857142857143</ele><time>2026-05-01T11:52:15.808Z</time></trkpt><trkpt lat="43.9594021" lon="10.3274674"><ele>290.85714285714283</ele><time>2026-05-01T11:52:22.808Z</time></trkpt><trkpt lat="43.9594488" lon="10.3275268"><ele>295.4285714285714</ele><time>2026-05-01T11:52:30.807Z</time></trkpt><trkpt lat="43.9595043" lon="10.3275731"><ele>300.0</ele><time>2026-05-01T11:52:37.808Z</time></trkpt><trkpt lat="43.9595671" lon="10.3275895"><ele>299.99999999999994</ele><time>2026-05-01T11:52:43.72Z</time></trkpt><trkpt lat="43.9596327" lon="10.3276047"><ele>300.0</ele><time>2026-05-01T11:52:50.807Z</time></trkpt><trkpt lat="43.9597017" lon="10.327609"><ele>300.0</ele><time>2026-05-01T11:52:57.808Z</time></trkpt><trkpt lat="43.9597716" lon="10.3276086"><ele>300.0</ele><time>2026-05-01T11:53:02.808Z</time></trkpt><trkpt lat="43.9598355" lon="10.3276428"><ele>300.0</ele><time>2026-05-01T11:53:09.808Z</time></trkpt><trkpt lat="43.9598909" lon="10.3276947"><ele>299.99999999999994</ele><time>2026-05-01T11:53:16.808Z</time></trkpt><trkpt lat="43.9599298" lon="10.3277672"><ele>300.0</ele><time>2026-05-01T11:53:23.808Z</time></trkpt><trkpt lat="43.9598977" lon="10.3278531"><ele>299.99999999999994</ele><time>2026-05-01T11:53:30.807Z</time></trkpt><trkpt lat="43.9598459" lon="10.3279109"><ele>300.0</ele><time>2026-05-01T11:53:36.808Z</time></trkpt><trkpt lat="43.9598555" lon="10.3280034"><ele>300.0</ele><time>2026-05-01T11:53:47.807Z</time></trkpt><trkpt lat="43.9599082" lon="10.3280521"><ele>300.0</ele><time>2026-05-01T11:53:53.807Z</time></trkpt><trkpt lat="43.9599682" lon="10.328101"><ele>300.0</ele><time>2026-05-01T11:54:01.808Z</time></trkpt><trkpt lat="43.960014" lon="10.3281708"><ele>299.99999999999994</ele><time>2026-05-01T11:54:09.808Z</time></trkpt><trkpt lat="43.9600533" lon="10.3282475"><ele>300.0</ele><time>2026-05-01T11:54:16.808Z</time></trkpt><trkpt lat="43.9600685" lon="10.3283538"><ele>302.85714285714283</ele><time>2026-05-01T11:54:25.318Z</time></trkpt><trkpt lat="43.9601177" lon="10.3284127"><ele>305.7142857142857</ele><time>2026-05-01T11:54:36.559Z</time></trkpt><trkpt lat="43.9601793" lon="10.328376"><ele>308.57142857142856</ele><time>2026-05-01T11:54:48.808Z</time></trkpt><trkpt lat="43.9602593" lon="10.3284078"><ele>311.42857142857144</ele><time>2026-05-01T11:55:07.808Z</time></trkpt><trkpt lat="43.9603199" lon="10.3284411"><ele>314.2857142857143</ele><time>2026-05-01T11:55:14.808Z</time></trkpt><trkpt lat="43.9603747" lon="10.3284889"><ele>317.1428571428571</ele><time>2026-05-01T11:55:21.807Z</time></trkpt><trkpt lat="43.9604337" lon="10.328524"><ele>320.0</ele><time>2026-05-01T11:55:30.818Z</time></trkpt><trkpt lat="43.9604554" lon="10.3286071"><ele>320.0</ele><time>2026-05-01T11:55:51.808Z</time></trkpt><trkpt lat="43.9604774" lon="10.3286926"><ele>320.0</ele><time>2026-05-01T11:56:01.808Z</time></trkpt><trkpt lat="43.9605335" lon="10.3287455"><ele>320.0</ele><time>2026-05-01T11:56:11.808Z</time></trkpt><trkpt lat="43.9605942" lon="10.3287724"><ele>320.0</ele><time>2026-05-01T11:56:20.808Z</time></trkpt><trkpt lat="43.9606576" lon="10.3287953"><ele>320.0</ele><time>2026-05-01T11:56:32.833Z</time></trkpt><trkpt lat="43.9607418" lon="10.3287972"><ele>320.0</ele><time>2026-05-01T11:56:56.807Z</time></trkpt><trkpt lat="43.9608016" lon="10.3288431"><ele>320.0</ele><time>2026-05-01T11:57:04.781Z</time></trkpt><trkpt lat="43.9608634" lon="10.32888"><ele>321.42857142857144</ele><time>2026-05-01T11:57:23.807Z</time></trkpt><trkpt lat="43.9609301" lon="10.328893"><ele>322.8571428571429</ele><time>2026-05-01T11:57:29.808Z</time></trkpt><trkpt lat="43.9609955" lon="10.3288888"><ele>324.28571428571433</ele><time>2026-05-01T11:57:39.808Z</time></trkpt><trkpt lat="43.9610447" lon="10.3289548"><ele>325.7142857142857</ele><time>2026-05-01T11:57:50.808Z</time></trkpt><trkpt lat="43.9611289" lon="10.3290262"><ele>327.14285714285717</ele><time>2026-05-01T11:58:40.879Z</time></trkpt><trkpt lat="43.9611808" lon="10.3291107"><ele>328.5714285714286</ele><time>2026-05-01T11:59:01.824Z</time></trkpt><trkpt lat="43.9612402" lon="10.3291596"><ele>330.0</ele><time>2026-05-01T11:59:08.837Z</time></trkpt><trkpt lat="43.9613231" lon="10.3291292"><ele>330.00000000000006</ele><time>2026-05-01T11:59:42.808Z</time></trkpt><trkpt lat="43.9613701" lon="10.3291896"><ele>330.0</ele><time>2026-05-01T12:00:12.807Z</time></trkpt><trkpt lat="43.9614394" lon="10.3292408"><ele>330.0</ele><time>2026-05-01T12:00:39.808Z</time></trkpt><trkpt lat="43.9614522" lon="10.3293285"><ele>330.0</ele><time>2026-05-01T12:00:44.808Z</time></trkpt><trkpt lat="43.9614878" lon="10.3294087"><ele>330.0</ele><time>2026-05-01T12:00:56.808Z</time></trkpt><trkpt lat="43.961527" lon="10.3294812"><ele>330.00000000000006</ele><time>2026-05-01T12:01:02.841Z</time></trkpt><trkpt lat="43.9615682" lon="10.3295548"><ele>330.0</ele><time>2026-05-01T12:01:10.808Z</time></trkpt><trkpt lat="43.9616191" lon="10.3296193"><ele>330.00000000000006</ele><time>2026-05-01T12:01:20.808Z</time></trkpt><trkpt lat="43.9616816" lon="10.3296303"><ele>330.0</ele><time>2026-05-01T12:01:37.808Z</time></trkpt><trkpt lat="43.9617023" lon="10.3295404"><ele>330.0</ele><time>2026-05-01T12:01:52.808Z</time></trkpt><trkpt lat="43.961761" lon="10.3294941"><ele>330.0</ele><time>2026-05-01T12:02:02.807Z</time></trkpt><trkpt lat="43.9617933" lon="10.3295711"><ele>330.0</ele><time>2026-05-01T12:02:25.807Z</time></trkpt><trkpt lat="43.9618513" lon="10.3296193"><ele>330.00000000000006</ele><time>2026-05-01T12:02:44.807Z</time></trkpt><trkpt lat="43.9618972" lon="10.3295565"><ele>330.0</ele><time>2026-05-01T12:03:01.808Z</time></trkpt><trkpt lat="43.9619077" lon="10.3294659"><ele>334.5714285714286</ele><time>2026-05-01T12:03:12.715Z</time></trkpt><trkpt lat="43.961931" lon="10.3293791"><ele>339.14285714285717</ele><time>2026-05-01T12:03:19.808Z</time></trkpt><trkpt lat="43.9619558" lon="10.3292891"><ele>343.7142857142857</ele><time>2026-05-01T12:03:32.78Z</time></trkpt><trkpt lat="43.9620181" lon="10.3292765"><ele>348.28571428571433</ele><time>2026-05-01T12:03:41.807Z</time></trkpt><trkpt lat="43.9620839" lon="10.3292624"><ele>352.85714285714283</ele><time>2026-05-01T12:03:53.808Z</time></trkpt><trkpt lat="43.962149" lon="10.3292435"><ele>357.42857142857144</ele><time>2026-05-01T12:04:02.919Z</time></trkpt><trkpt lat="43.9622134" lon="10.3292574"><ele>362.0</ele><time>2026-05-01T12:04:16.824Z</time></trkpt><trkpt lat="43.9622476" lon="10.3293376"><ele>362.0</ele><time>2026-05-01T12:04:31.808Z</time></trkpt><trkpt lat="43.9623027" lon="10.3293809"><ele>362.0</ele><time>2026-05-01T12:04:44.814Z</time></trkpt><trkpt lat="43.9623748" lon="10.3293916"><ele>362.0</ele><time>2026-05-01T12:04:57.809Z</time></trkpt><trkpt lat="43.9623374" lon="10.3292472"><ele>362.0</ele><time>2026-05-01T12:05:15.808Z</time></trkpt><trkpt lat="43.9623682" lon="10.329164"><ele>362.0</ele><time>2026-05-01T12:05:46.808Z</time></trkpt><trkpt lat="43.9624213" lon="10.3292128"><ele>362.0</ele><time>2026-05-01T12:06:21.808Z</time></trkpt><trkpt lat="43.962497" lon="10.3292007"><ele>367.1428571428571</ele><time>2026-05-01T12:06:36.807Z</time></trkpt><trkpt lat="43.9625825" lon="10.3292308"><ele>372.2857142857143</ele><time>2026-05-01T12:07:00.808Z</time></trkpt><trkpt lat="43.962663" lon="10.3292054"><ele>377.42857142857144</ele><time>2026-05-01T12:07:19.808Z</time></trkpt><trkpt lat="43.9627029" lon="10.32913"><ele>382.57142857142856</ele><time>2026-05-01T12:07:26.808Z</time></trkpt><trkpt lat="43.9627656" lon="10.3291486"><ele>387.7142857142857</ele><time>2026-05-01T12:07:52.808Z</time></trkpt><trkpt lat="43.9627911" lon="10.3292327"><ele>392.85714285714283</ele><time>2026-05-01T12:08:01.807Z</time></trkpt><trkpt lat="43.9628176" lon="10.3293207"><ele>398.0</ele><time>2026-05-01T12:08:12.808Z</time></trkpt><trkpt lat="43.9628799" lon="10.3293473"><ele>397.99999999999994</ele><time>2026-05-01T12:08:25.808Z</time></trkpt><trkpt lat="43.9629437" lon="10.3293381"><ele>398.0</ele><time>2026-05-01T12:08:34.808Z</time></trkpt><trkpt lat="43.9629581" lon="10.3294432"><ele>398.0</ele><time>2026-05-01T12:08:42.808Z</time></trkpt><trkpt lat="43.963003" lon="10.3295166"><ele>398.0</ele><time>2026-05-01T12:08:52.807Z</time></trkpt><trkpt lat="43.9630676" lon="10.329549"><ele>398.0</ele><time>2026-05-01T12:08:59.807Z</time></trkpt><trkpt lat="43.9631155" lon="10.3296174"><ele>397.99999999999994</ele><time>2026-05-01T12:09:09.808Z</time></trkpt><trkpt lat="43.9631805" lon="10.329648"><ele>398.0</ele><time>2026-05-01T12:09:16.808Z</time></trkpt><trkpt lat="43.9632413" lon="10.3296909"><ele>397.2857142857143</ele><time>2026-05-01T12:09:24.747Z</time></trkpt><trkpt lat="43.963261" lon="10.3297937"><ele>396.57142857142856</ele><time>2026-05-01T12:09:30.808Z</time></trkpt><trkpt lat="43.9633249" lon="10.329856"><ele>395.8571428571429</ele><time>2026-05-01T12:09:35.808Z</time></trkpt><trkpt lat="43.9633777" lon="10.3299253"><ele>395.1428571428571</ele><time>2026-05-01T12:09:40.808Z</time></trkpt><trkpt lat="43.9634099" lon="10.3300079"><ele>394.42857142857144</ele><time>2026-05-01T12:09:45.807Z</time></trkpt><trkpt lat="43.9634445" lon="10.330093"><ele>393.7142857142857</ele><time>2026-05-01T12:09:51.808Z</time></trkpt><trkpt lat="43.9634594" lon="10.3301819"><ele>393.0</ele><time>2026-05-01T12:09:58.808Z</time></trkpt><trkpt lat="43.9635014" lon="10.3302559"><ele>393.00000000000006</ele><time>2026-05-01T12:10:05.798Z</time></trkpt><trkpt lat="43.9635658" lon="10.3302963"><ele>393.0</ele><time>2026-05-01T12:10:13.808Z</time></trkpt><trkpt lat="43.9636328" lon="10.3303184"><ele>393.0</ele><time>2026-05-01T12:10:20.836Z</time></trkpt><trkpt lat="43.9636971" lon="10.3303367"><ele>393.0</ele><time>2026-05-01T12:10:31.808Z</time></trkpt><trkpt lat="43.9637471" lon="10.3304003"><ele>393.0</ele><time>2026-05-01T12:10:41.808Z</time></trkpt><trkpt lat="43.9638071" lon="10.3304423"><ele>393.00000000000006</ele><time>2026-05-01T12:10:49.807Z</time></trkpt><trkpt lat="43.9638727" lon="10.3304181"><ele>393.0</ele><time>2026-05-01T12:10:58.808Z</time></trkpt><trkpt lat="43.9639278" lon="10.3303531"><ele>393.00000000000006</ele><time>2026-05-01T12:11:11.82Z</time></trkpt><trkpt lat="43.9640159" lon="10.3303469"><ele>393.0</ele><time>2026-05-01T12:11:24.808Z</time></trkpt><trkpt lat="43.9640844" lon="10.3303653"><ele>393.0</ele><time>2026-05-01T12:11:30.808Z</time></trkpt><trkpt lat="43.9641512" lon="10.330378"><ele>393.0</ele><time>2026-05-01T12:11:37.828Z</time></trkpt><trkpt lat="43.9642172" lon="10.330374"><ele>393.0</ele><time>2026-05-01T12:11:45.782Z</time></trkpt><trkpt lat="43.9642827" lon="10.3303358"><ele>393.00000000000006</ele><time>2026-05-01T12:11:52.776Z</time></trkpt><trkpt lat="43.9643424" lon="10.3303033"><ele>393.0</ele><time>2026-05-01T12:12:00.808Z</time></trkpt><trkpt lat="43.9644116" lon="10.3302749"><ele>394.42857142857144</ele><time>2026-05-01T12:12:10.662Z</time></trkpt><trkpt lat="43.9644828" lon="10.3303164"><ele>395.8571428571429</ele><time>2026-05-01T12:12:16.808Z</time></trkpt><trkpt lat="43.9645471" lon="10.3303493"><ele>397.28571428571433</ele><time>2026-05-01T12:12:21.808Z</time></trkpt><trkpt lat="43.964613" lon="10.3303811"><ele>398.7142857142857</ele><time>2026-05-01T12:12:26.808Z</time></trkpt><trkpt lat="43.9646764" lon="10.330412"><ele>400.1428571428571</ele><time>2026-05-01T12:12:32.795Z</time></trkpt><trkpt lat="43.9647392" lon="10.3304278"><ele>401.5714285714286</ele><time>2026-05-01T12:12:39.808Z</time></trkpt><trkpt lat="43.9648043" lon="10.3304607"><ele>403.0</ele><time>2026-05-01T12:12:47.74Z</time></trkpt><trkpt lat="43.9648349" lon="10.3305502"><ele>404.2857142857143</ele><time>2026-05-01T12:12:55.807Z</time></trkpt><trkpt lat="43.964851" lon="10.3306426"><ele>405.57142857142856</ele><time>2026-05-01T12:13:02.808Z</time></trkpt><trkpt lat="43.9649185" lon="10.3306479"><ele>406.85714285714283</ele><time>2026-05-01T12:13:12.716Z</time></trkpt><trkpt lat="43.9649826" lon="10.3306136"><ele>408.1428571428571</ele><time>2026-05-01T12:13:18.807Z</time></trkpt><trkpt lat="43.9650548" lon="10.330616"><ele>409.42857142857144</ele><time>2026-05-01T12:13:25.808Z</time></trkpt><trkpt lat="43.9651183" lon="10.3306123"><ele>410.71428571428567</ele><time>2026-05-01T12:13:31.808Z</time></trkpt><trkpt lat="43.9651892" lon="10.3305915"><ele>412.0</ele><time>2026-05-01T12:13:38.808Z</time></trkpt><trkpt lat="43.9652591" lon="10.3306035"><ele>411.99999999999994</ele><time>2026-05-01T12:13:46.808Z</time></trkpt><trkpt lat="43.965324" lon="10.3305882"><ele>412.0</ele><time>2026-05-01T12:13:52.808Z</time></trkpt><trkpt lat="43.965387" lon="10.3305936"><ele>412.0</ele><time>2026-05-01T12:13:59.807Z</time></trkpt><trkpt lat="43.9654407" lon="10.3306407"><ele>412.0</ele><time>2026-05-01T12:14:07.815Z</time></trkpt><trkpt lat="43.9654662" lon="10.3307319"><ele>412.0</ele><time>2026-05-01T12:14:16.816Z</time></trkpt><trkpt lat="43.9654247" lon="10.3308038"><ele>411.99999999999994</ele><time>2026-05-01T12:14:24.807Z</time></trkpt><trkpt lat="43.9653615" lon="10.3308442"><ele>412.0</ele><time>2026-05-01T12:14:32.808Z</time></trkpt><trkpt lat="43.9652972" lon="10.3308976"><ele>411.99999999999994</ele><time>2026-05-01T12:14:40.808Z</time></trkpt><trkpt lat="43.9652299" lon="10.3309774"><ele>412.0</ele><time>2026-05-01T12:15:02.808Z</time></trkpt><trkpt lat="43.9651753" lon="10.3310335"><ele>412.0</ele><time>2026-05-01T12:15:07.808Z</time></trkpt><trkpt lat="43.9651255" lon="10.3310881"><ele>412.0</ele><time>2026-05-01T12:15:14.753Z</time></trkpt><trkpt lat="43.9650878" lon="10.3311694"><ele>412.0</ele><time>2026-05-01T12:15:21.714Z</time></trkpt><trkpt lat="43.965053" lon="10.3312525"><ele>411.99999999999994</ele><time>2026-05-01T12:15:27.808Z</time></trkpt><trkpt lat="43.9650116" lon="10.3313193"><ele>412.0</ele><time>2026-05-01T12:15:32.722Z</time></trkpt><trkpt lat="43.964966" lon="10.3313866"><ele>409.71428571428567</ele><time>2026-05-01T12:15:38.821Z</time></trkpt><trkpt lat="43.9648968" lon="10.3314157"><ele>407.42857142857144</ele><time>2026-05-01T12:15:46.808Z</time></trkpt><trkpt lat="43.9648343" lon="10.3314371"><ele>405.1428571428571</ele><time>2026-05-01T12:15:54.808Z</time></trkpt><trkpt lat="43.9647962" lon="10.3315185"><ele>402.85714285714283</ele><time>2026-05-01T12:16:02.808Z</time></trkpt><trkpt lat="43.9647821" lon="10.3316119"><ele>400.57142857142856</ele><time>2026-05-01T12:16:09.807Z</time></trkpt><trkpt lat="43.9647689" lon="10.3316994"><ele>398.2857142857143</ele><time>2026-05-01T12:16:16.808Z</time></trkpt><trkpt lat="43.9647371" lon="10.3317881"><ele>396.0</ele><time>2026-05-01T12:16:25.818Z</time></trkpt><trkpt lat="43.9646749" lon="10.3318401"><ele>396.0</ele><time>2026-05-01T12:16:33.807Z</time></trkpt><trkpt lat="43.9646184" lon="10.3318804"><ele>396.0</ele><time>2026-05-01T12:16:40.808Z</time></trkpt><trkpt lat="43.9645732" lon="10.3319464"><ele>396.0</ele><time>2026-05-01T12:16:51.807Z</time></trkpt><trkpt lat="43.9645424" lon="10.3320345"><ele>396.0</ele><time>2026-05-01T12:17:03.808Z</time></trkpt><trkpt lat="43.9645047" lon="10.332114"><ele>396.0</ele><time>2026-05-01T12:17:12.808Z</time></trkpt><trkpt lat="43.9644589" lon="10.3321936"><ele>396.0</ele><time>2026-05-01T12:17:20.869Z</time></trkpt><trkpt lat="43.9644075" lon="10.3322679"><ele>396.0</ele><time>2026-05-01T12:17:29.808Z</time></trkpt><trkpt lat="43.9643348" lon="10.3322807"><ele>393.2857142857143</ele><time>2026-05-01T12:17:37.838Z</time></trkpt><trkpt lat="43.9642688" lon="10.3323134"><ele>390.57142857142856</ele><time>2026-05-01T12:17:45.808Z</time></trkpt><trkpt lat="43.9642243" lon="10.3323762"><ele>387.85714285714283</ele><time>2026-05-01T12:17:51.919Z</time></trkpt><trkpt lat="43.9641955" lon="10.3324545"><ele>385.1428571428571</ele><time>2026-05-01T12:17:57.808Z</time></trkpt><trkpt lat="43.9641368" lon="10.3325075"><ele>382.42857142857144</ele><time>2026-05-01T12:18:06.808Z</time></trkpt><trkpt lat="43.9641181" lon="10.3325968"><ele>379.71428571428567</ele><time>2026-05-01T12:18:13.808Z</time></trkpt><trkpt lat="43.9641208" lon="10.3326854"><ele>377.0</ele><time>2026-05-01T12:18:19.808Z</time></trkpt><trkpt lat="43.9640542" lon="10.3327001"><ele>376.99999999999994</ele><time>2026-05-01T12:18:27.808Z</time></trkpt><trkpt lat="43.9640465" lon="10.3327882"><ele>377.0</ele><time>2026-05-01T12:18:35.808Z</time></trkpt><trkpt lat="43.9640869" lon="10.332862"><ele>377.0</ele><time>2026-05-01T12:18:50.808Z</time></trkpt><trkpt lat="43.9640586" lon="10.3329454"><ele>377.0</ele><time>2026-05-01T12:19:11.808Z</time></trkpt><trkpt lat="43.9640578" lon="10.33306"><ele>377.0</ele><time>2026-05-01T12:19:12.808Z</time></trkpt><trkpt lat="43.9640565" lon="10.3331483"><ele>376.99999999999994</ele><time>2026-05-01T12:19:17.808Z</time></trkpt><trkpt lat="43.9640581" lon="10.3332378"><ele>377.0</ele><time>2026-05-01T12:19:32.808Z</time></trkpt><trkpt lat="43.9640618" lon="10.3331487"><ele>376.99999999999994</ele><time>2026-05-01T12:19:42.808Z</time></trkpt><trkpt lat="43.9640629" lon="10.3330612"><ele>377.0</ele><time>2026-05-01T12:19:48.808Z</time></trkpt><trkpt lat="43.9641222" lon="10.3330142"><ele>377.0</ele><time>2026-05-01T12:19:56.808Z</time></trkpt><trkpt lat="43.9641891" lon="10.3330104"><ele>377.0</ele><time>2026-05-01T12:20:03.808Z</time></trkpt><trkpt lat="43.9642242" lon="10.3329283"><ele>377.0</ele><time>2026-05-01T12:20:19.808Z</time></trkpt><trkpt lat="43.9642441" lon="10.332844"><ele>376.99999999999994</ele><time>2026-05-01T12:20:28.808Z</time></trkpt><trkpt lat="43.9642974" lon="10.3327913"><ele>377.0</ele><time>2026-05-01T12:20:39.808Z</time></trkpt><trkpt lat="43.9643008" lon="10.3327002"><ele>384.4285714285714</ele><time>2026-05-01T12:20:44.808Z</time></trkpt><trkpt lat="43.9643332" lon="10.332614"><ele>391.85714285714283</ele><time>2026-05-01T12:20:57.826Z</time></trkpt><trkpt lat="43.9643957" lon="10.3326351"><ele>399.2857142857143</ele><time>2026-05-01T12:21:16.836Z</time></trkpt><trkpt lat="43.9644147" lon="10.3327284"><ele>406.71428571428567</ele><time>2026-05-01T12:21:24.807Z</time></trkpt><trkpt lat="43.964362" lon="10.3327874"><ele>414.14285714285717</ele><time>2026-05-01T12:21:31.808Z</time></trkpt><trkpt lat="43.9643333" lon="10.3328697"><ele>421.57142857142856</ele><time>2026-05-01T12:21:40.815Z</time></trkpt><trkpt lat="43.9643315" lon="10.3329628"><ele>429.0</ele><time>2026-05-01T12:21:51.83Z</time></trkpt><trkpt lat="43.9643584" lon="10.3330469"><ele>431.7142857142857</ele><time>2026-05-01T12:22:04.84Z</time></trkpt><trkpt lat="43.9643447" lon="10.3331345"><ele>434.42857142857144</ele><time>2026-05-01T12:22:18.808Z</time></trkpt><trkpt lat="43.9643464" lon="10.3332303"><ele>437.1428571428571</ele><time>2026-05-01T12:22:33.807Z</time></trkpt><trkpt lat="43.9644104" lon="10.3332735"><ele>439.8571428571429</ele><time>2026-05-01T12:22:39.808Z</time></trkpt><trkpt lat="43.9644325" lon="10.333365"><ele>442.57142857142856</ele><time>2026-05-01T12:22:47.807Z</time></trkpt><trkpt lat="43.964432" lon="10.333465"><ele>445.2857142857143</ele><time>2026-05-01T12:22:55.808Z</time></trkpt><trkpt lat="43.9644028" lon="10.3335469"><ele>448.0</ele><time>2026-05-01T12:23:01.808Z</time></trkpt><trkpt lat="43.96439" lon="10.333639"><ele>448.0</ele><time>2026-05-01T12:23:14.808Z</time></trkpt><trkpt lat="43.9644275" lon="10.3337167"><ele>448.0</ele><time>2026-05-01T12:23:23.808Z</time></trkpt><trkpt lat="43.9644241" lon="10.3338105"><ele>448.0</ele><time>2026-05-01T12:23:34.808Z</time></trkpt><trkpt lat="43.9644233" lon="10.3339029"><ele>448.0</ele><time>2026-05-01T12:23:48.808Z</time></trkpt><trkpt lat="43.9644508" lon="10.3339848"><ele>448.0</ele><time>2026-05-01T12:23:59.808Z</time></trkpt><trkpt lat="43.9644243" lon="10.3340703"><ele>448.0</ele><time>2026-05-01T12:24:08.808Z</time></trkpt><trkpt lat="43.9644365" lon="10.3341577"><ele>448.0</ele><time>2026-05-01T12:24:19.807Z</time></trkpt><trkpt lat="43.9644533" lon="10.3342462"><ele>449.0</ele><time>2026-05-01T12:24:30.808Z</time></trkpt><trkpt lat="43.964442" lon="10.334335"><ele>450.0</ele><time>2026-05-01T12:24:44.808Z</time></trkpt><trkpt lat="43.9644083" lon="10.3344104"><ele>451.0</ele><time>2026-05-01T12:24:54.807Z</time></trkpt><trkpt lat="43.9643863" lon="10.3344952"><ele>452.0</ele><time>2026-05-01T12:25:07.808Z</time></trkpt><trkpt lat="43.9644307" lon="10.3344181"><ele>453.0</ele><time>2026-05-01T12:25:16.818Z</time></trkpt><trkpt lat="43.9644819" lon="10.3343553"><ele>454.0</ele><time>2026-05-01T12:25:32.808Z</time></trkpt><trkpt lat="43.9644433" lon="10.3344398"><ele>455.0</ele><time>2026-05-01T12:26:04.808Z</time></trkpt><trkpt lat="43.9644073" lon="10.3345303"><ele>455.0</ele><time>2026-05-01T12:26:19.808Z</time></trkpt><trkpt lat="43.9644097" lon="10.3346277"><ele>455.0</ele><time>2026-05-01T12:26:25.822Z</time></trkpt><trkpt lat="43.964445" lon="10.3347014"><ele>455.0</ele><time>2026-05-01T12:26:31.808Z</time></trkpt><trkpt lat="43.9644346" lon="10.3347963"><ele>455.0</ele><time>2026-05-01T12:26:38.802Z</time></trkpt><trkpt lat="43.9644079" lon="10.334881"><ele>455.0</ele><time>2026-05-01T12:26:44.805Z</time></trkpt><trkpt lat="43.9644001" lon="10.3349703"><ele>455.0</ele><time>2026-05-01T12:26:53.808Z</time></trkpt><trkpt lat="43.9643436" lon="10.3350204"><ele>455.0</ele><time>2026-05-01T12:27:02.808Z</time></trkpt><trkpt lat="43.9643165" lon="10.3351039"><ele>456.1428571428571</ele><time>2026-05-01T12:27:10.808Z</time></trkpt><trkpt lat="43.9643024" lon="10.3351961"><ele>457.2857142857143</ele><time>2026-05-01T12:27:19.808Z</time></trkpt><trkpt lat="43.9643173" lon="10.3352919"><ele>458.42857142857144</ele><time>2026-05-01T12:27:28.808Z</time></trkpt><trkpt lat="43.9643395" lon="10.3353779"><ele>459.57142857142856</ele><time>2026-05-01T12:27:36.808Z</time></trkpt><trkpt lat="43.9643615" lon="10.3354729"><ele>460.71428571428567</ele><time>2026-05-01T12:27:45.812Z</time></trkpt><trkpt lat="43.9643739" lon="10.3355662"><ele>461.85714285714283</ele><time>2026-05-01T12:27:55.808Z</time></trkpt><trkpt lat="43.9643693" lon="10.3356563"><ele>463.0</ele><time>2026-05-01T12:28:03.833Z</time></trkpt><trkpt lat="43.9643791" lon="10.335752"><ele>463.57142857142856</ele><time>2026-05-01T12:28:10.807Z</time></trkpt><trkpt lat="43.9643887" lon="10.3358433"><ele>464.1428571428571</ele><time>2026-05-01T12:28:17.808Z</time></trkpt><trkpt lat="43.9643945" lon="10.3359324"><ele>464.71428571428567</ele><time>2026-05-01T12:28:24.913Z</time></trkpt><trkpt lat="43.9644015" lon="10.3360197"><ele>465.2857142857142</ele><time>2026-05-01T12:28:32.837Z</time></trkpt><trkpt lat="43.9644188" lon="10.3361079"><ele>465.85714285714283</ele><time>2026-05-01T12:28:40.807Z</time></trkpt><trkpt lat="43.9644248" lon="10.336201"><ele>466.42857142857133</ele><time>2026-05-01T12:28:48.808Z</time></trkpt><trkpt lat="43.9644189" lon="10.3362981"><ele>466.99999999999994</ele><time>2026-05-01T12:28:56.819Z</time></trkpt><trkpt lat="43.964402" lon="10.3363875"><ele>467.2857142857142</ele><time>2026-05-01T12:29:03.808Z</time></trkpt><trkpt lat="43.9643813" lon="10.3364832"><ele>467.57142857142856</ele><time>2026-05-01T12:29:13.808Z</time></trkpt><trkpt lat="43.9643873" lon="10.336574"><ele>467.85714285714283</ele><time>2026-05-01T12:29:20.808Z</time></trkpt><trkpt lat="43.9644055" lon="10.3366635"><ele>468.1428571428571</ele><time>2026-05-01T12:29:27.762Z</time></trkpt><trkpt lat="43.9644183" lon="10.3367508"><ele>468.42857142857144</ele><time>2026-05-01T12:29:36.808Z</time></trkpt><trkpt lat="43.9644231" lon="10.3368413"><ele>468.7142857142857</ele><time>2026-05-01T12:29:43.808Z</time></trkpt><trkpt lat="43.9644216" lon="10.3369355"><ele>469.0</ele><time>2026-05-01T12:29:51.808Z</time></trkpt><trkpt lat="43.9644095" lon="10.3370248"><ele>469.0</ele><time>2026-05-01T12:30:00.808Z</time></trkpt><trkpt lat="43.9644162" lon="10.3371155"><ele>469.0</ele><time>2026-05-01T12:30:08.807Z</time></trkpt><trkpt lat="43.9644567" lon="10.3371836"><ele>469.0</ele><time>2026-05-01T12:30:16.794Z</time></trkpt><trkpt lat="43.9644931" lon="10.3372608"><ele>469.0</ele><time>2026-05-01T12:30:23.717Z</time></trkpt><trkpt lat="43.9645247" lon="10.3373381"><ele>469.0</ele><time>2026-05-01T12:30:30.807Z</time></trkpt><trkpt lat="43.9645311" lon="10.3374394"><ele>469.0</ele><time>2026-05-01T12:30:41.808Z</time></trkpt><trkpt lat="43.9645438" lon="10.3375293"><ele>469.0</ele><time>2026-05-01T12:30:53.818Z</time></trkpt><trkpt lat="43.9645892" lon="10.3376002"><ele>467.2857142857143</ele><time>2026-05-01T12:31:04.807Z</time></trkpt><trkpt lat="43.964646" lon="10.3376487"><ele>465.57142857142856</ele><time>2026-05-01T12:31:15.808Z</time></trkpt><trkpt lat="43.9647077" lon="10.3376729"><ele>463.8571428571429</ele><time>2026-05-01T12:31:29.808Z</time></trkpt><trkpt lat="43.9647629" lon="10.3377185"><ele>462.14285714285717</ele><time>2026-05-01T12:31:40.841Z</time></trkpt><trkpt lat="43.9648151" lon="10.3377726"><ele>460.42857142857144</ele><time>2026-05-01T12:31:48.811Z</time></trkpt><trkpt lat="43.9648463" lon="10.3378499"><ele>458.7142857142858</ele><time>2026-05-01T12:32:00.817Z</time></trkpt><trkpt lat="43.9648729" lon="10.3379374"><ele>457.00000000000006</ele><time>2026-05-01T12:32:12.812Z</time></trkpt><trkpt lat="43.9649035" lon="10.3380165"><ele>454.00000000000006</ele><time>2026-05-01T12:32:21.808Z</time></trkpt><trkpt lat="43.9649401" lon="10.3381185"><ele>451.0</ele><time>2026-05-01T12:32:38.807Z</time></trkpt><trkpt lat="43.9649747" lon="10.3381931"><ele>448.0</ele><time>2026-05-01T12:32:45.808Z</time></trkpt><trkpt lat="43.9650014" lon="10.3382731"><ele>445.0</ele><time>2026-05-01T12:32:54.808Z</time></trkpt><trkpt lat="43.9650185" lon="10.3383594"><ele>442.0</ele><time>2026-05-01T12:33:03.808Z</time></trkpt><trkpt lat="43.9649964" lon="10.3384504"><ele>439.0</ele><time>2026-05-01T12:33:13.83Z</time></trkpt><trkpt lat="43.9649934" lon="10.3385421"><ele>436.0</ele><time>2026-05-01T12:33:20.828Z</time></trkpt><trkpt lat="43.9649849" lon="10.3386346"><ele>436.0</ele><time>2026-05-01T12:33:30.808Z</time></trkpt><trkpt lat="43.9649813" lon="10.3387296"><ele>436.0</ele><time>2026-05-01T12:33:37.808Z</time></trkpt><trkpt lat="43.9649916" lon="10.3388177"><ele>436.0</ele><time>2026-05-01T12:33:44.808Z</time></trkpt><trkpt lat="43.9650089" lon="10.3389084"><ele>436.0</ele><time>2026-05-01T12:33:53.807Z</time></trkpt><trkpt lat="43.9650253" lon="10.3389948"><ele>436.0</ele><time>2026-05-01T12:34:00.822Z</time></trkpt><trkpt lat="43.9650386" lon="10.339081"><ele>436.0</ele><time>2026-05-01T12:34:10.808Z</time></trkpt><trkpt lat="43.9650627" lon="10.3391638"><ele>436.0</ele><time>2026-05-01T12:34:20.816Z</time></trkpt><trkpt lat="43.9650794" lon="10.3392499"><ele>441.0</ele><time>2026-05-01T12:34:26.808Z</time></trkpt><trkpt lat="43.9650804" lon="10.3393444"><ele>446.0</ele><time>2026-05-01T12:34:33.85Z</time></trkpt><trkpt lat="43.9650906" lon="10.3394312"><ele>451.0</ele><time>2026-05-01T12:34:42.808Z</time></trkpt><trkpt lat="43.965134" lon="10.3395176"><ele>456.0</ele><time>2026-05-01T12:34:59.807Z</time></trkpt><trkpt lat="43.9651002" lon="10.3395956"><ele>461.0</ele><time>2026-05-01T12:35:12.808Z</time></trkpt><trkpt lat="43.9651092" lon="10.3397016"><ele>466.00000000000006</ele><time>2026-05-01T12:35:20.807Z</time></trkpt><trkpt lat="43.9651412" lon="10.3397838"><ele>471.00000000000006</ele><time>2026-05-01T12:35:27.808Z</time></trkpt><trkpt lat="43.9651926" lon="10.3398436"><ele>471.00000000000006</ele><time>2026-05-01T12:35:34.721Z</time></trkpt><trkpt lat="43.965191" lon="10.3399403"><ele>471.0</ele><time>2026-05-01T12:35:43.807Z</time></trkpt><trkpt lat="43.9651752" lon="10.3400301"><ele>471.00000000000006</ele><time>2026-05-01T12:35:50.808Z</time></trkpt><trkpt lat="43.9651509" lon="10.3401203"><ele>471.00000000000006</ele><time>2026-05-01T12:35:58.798Z</time></trkpt><trkpt lat="43.9651484" lon="10.340211"><ele>471.0</ele><time>2026-05-01T12:36:06.817Z</time></trkpt><trkpt lat="43.9651676" lon="10.3403099"><ele>471.00000000000006</ele><time>2026-05-01T12:36:14.842Z</time></trkpt><trkpt lat="43.9651888" lon="10.3404003"><ele>471.00000000000006</ele><time>2026-05-01T12:36:21.808Z</time></trkpt><trkpt lat="43.9652238" lon="10.3404909"><ele>469.8571428571429</ele><time>2026-05-01T12:36:28.807Z</time></trkpt><trkpt lat="43.9652534" lon="10.340579"><ele>468.7142857142857</ele><time>2026-05-01T12:36:35.84Z</time></trkpt><trkpt lat="43.9652769" lon="10.3406662"><ele>467.57142857142856</ele><time>2026-05-01T12:36:44.808Z</time></trkpt><trkpt lat="43.9653091" lon="10.340746"><ele>466.42857142857144</ele><time>2026-05-01T12:36:52.808Z</time></trkpt><trkpt lat="43.9653262" lon="10.3408585"><ele>465.2857142857142</ele><time>2026-05-01T12:37:05.808Z</time></trkpt><trkpt lat="43.9653312" lon="10.3409458"><ele>464.1428571428571</ele><time>2026-05-01T12:37:12.739Z</time></trkpt><trkpt lat="43.9652708" lon="10.3409731"><ele>463.0</ele><time>2026-05-01T12:37:24.807Z</time></trkpt><trkpt lat="43.9652201" lon="10.3409168"><ele>463.0</ele><time>2026-05-01T12:37:33.807Z</time></trkpt><trkpt lat="43.9651894" lon="10.3410009"><ele>462.99999999999994</ele><time>2026-05-01T12:37:49.807Z</time></trkpt><trkpt lat="43.9652105" lon="10.3410933"><ele>463.0</ele><time>2026-05-01T12:38:01.821Z</time></trkpt><trkpt lat="43.9652199" lon="10.3411806"><ele>463.0</ele><time>2026-05-01T12:38:14.827Z</time></trkpt><trkpt lat="43.9652162" lon="10.3412686"><ele>462.99999999999994</ele><time>2026-05-01T12:38:24.807Z</time></trkpt><trkpt lat="43.965204" lon="10.3413585"><ele>463.0</ele><time>2026-05-01T12:38:37.808Z</time></trkpt><trkpt lat="43.965174" lon="10.3414384"><ele>463.0</ele><time>2026-05-01T12:38:48.807Z</time></trkpt><trkpt lat="43.9651436" lon="10.3415608"><ele>462.2857142857143</ele><time>2026-05-01T12:39:09.808Z</time></trkpt><trkpt lat="43.9651076" lon="10.3416516"><ele>461.57142857142856</ele><time>2026-05-01T12:39:25.743Z</time></trkpt><trkpt lat="43.9650713" lon="10.3417407"><ele>460.85714285714283</ele><time>2026-05-01T12:39:42.85Z</time></trkpt><trkpt lat="43.9650879" lon="10.3418287"><ele>460.1428571428571</ele><time>2026-05-01T12:40:00.808Z</time></trkpt><trkpt lat="43.9651495" lon="10.3418672"><ele>459.42857142857144</ele><time>2026-05-01T12:40:09.839Z</time></trkpt><trkpt lat="43.9650857" lon="10.3418531"><ele>458.71428571428567</ele><time>2026-05-01T12:40:41.802Z</time></trkpt><trkpt lat="43.9650315" lon="10.3419394"><ele>458.0</ele><time>2026-05-01T12:40:59.808Z</time></trkpt><trkpt lat="43.9650098" lon="10.3420239"><ele>458.0</ele><time>2026-05-01T12:41:10.396Z</time></trkpt><trkpt lat="43.9649929" lon="10.3421101"><ele>458.0</ele><time>2026-05-01T12:41:21.812Z</time></trkpt><trkpt lat="43.9649776" lon="10.3421954"><ele>458.0</ele><time>2026-05-01T12:41:39.808Z</time></trkpt><trkpt lat="43.9649444" lon="10.342276"><ele>458.0</ele><time>2026-05-01T12:41:55.808Z</time></trkpt><trkpt lat="43.9648973" lon="10.3423416"><ele>458.0</ele><time>2026-05-01T12:42:13.807Z</time></trkpt><trkpt lat="43.9648776" lon="10.3424329"><ele>458.0</ele><time>2026-05-01T12:42:27.808Z</time></trkpt><trkpt lat="43.9648964" lon="10.3425168"><ele>458.0</ele><time>2026-05-01T12:42:46.808Z</time></trkpt><trkpt lat="43.9648661" lon="10.3425936"><ele>463.0</ele><time>2026-05-01T12:43:07.808Z</time></trkpt><trkpt lat="43.9648051" lon="10.3426194"><ele>468.0</ele><time>2026-05-01T12:43:37.808Z</time></trkpt><trkpt lat="43.9647752" lon="10.3427163"><ele>473.0</ele><time>2026-05-01T12:44:34.898Z</time></trkpt><trkpt lat="43.9647211" lon="10.3427743"><ele>478.0</ele><time>2026-05-01T12:44:40.696Z</time></trkpt><trkpt lat="43.9646627" lon="10.3428174"><ele>483.0</ele><time>2026-05-01T12:44:47.808Z</time></trkpt><trkpt lat="43.9646027" lon="10.3428447"><ele>488.0</ele><time>2026-05-01T12:44:59.808Z</time></trkpt><trkpt lat="43.9645891" lon="10.3429366"><ele>493.0</ele><time>2026-05-01T12:45:20.808Z</time></trkpt><trkpt lat="43.9646293" lon="10.3430201"><ele>497.2857142857143</ele><time>2026-05-01T12:45:30.808Z</time></trkpt><trkpt lat="43.964647" lon="10.3431057"><ele>501.57142857142856</ele><time>2026-05-01T12:45:42.824Z</time></trkpt><trkpt lat="43.9645948" lon="10.3431563"><ele>505.85714285714283</ele><time>2026-05-01T12:45:54.677Z</time></trkpt><trkpt lat="43.9645523" lon="10.343228"><ele>510.1428571428571</ele><time>2026-05-01T12:46:19.808Z</time></trkpt><trkpt lat="43.9645032" lon="10.3432921"><ele>514.4285714285714</ele><time>2026-05-01T12:46:27.808Z</time></trkpt><trkpt lat="43.9644377" lon="10.3433077"><ele>518.7142857142857</ele><time>2026-05-01T12:46:37.808Z</time></trkpt><trkpt lat="43.9643744" lon="10.3433199"><ele>523.0</ele><time>2026-05-01T12:46:48.814Z</time></trkpt><trkpt lat="43.9643401" lon="10.3433989"><ele>522.9999999999999</ele><time>2026-05-01T12:46:58.808Z</time></trkpt><trkpt lat="43.9643063" lon="10.3434778"><ele>523.0</ele><time>2026-05-01T12:47:09.826Z</time></trkpt><trkpt lat="43.9642668" lon="10.3436226"><ele>523.0</ele><time>2026-05-01T12:47:31.808Z</time></trkpt><trkpt lat="43.964274" lon="10.3437147"><ele>523.0</ele><time>2026-05-01T12:47:37.807Z</time></trkpt><trkpt lat="43.9643069" lon="10.3437945"><ele>523.0</ele><time>2026-05-01T12:47:44.736Z</time></trkpt><trkpt lat="43.9643007" lon="10.3438838"><ele>522.9999999999999</ele><time>2026-05-01T12:47:53.439Z</time></trkpt><trkpt lat="43.9642931" lon="10.3439761"><ele>523.0</ele><time>2026-05-01T12:51:19.807Z</time></trkpt><trkpt lat="43.9643045" lon="10.3440622"><ele>522.5714285714286</ele><time>2026-05-01T12:51:27.759Z</time></trkpt><trkpt lat="43.9643408" lon="10.3441463"><ele>522.1428571428571</ele><time>2026-05-01T12:51:36.766Z</time></trkpt><trkpt lat="43.9642829" lon="10.3441868"><ele>521.7142857142858</ele><time>2026-05-01T12:52:23.808Z</time></trkpt><trkpt lat="43.9642711" lon="10.3442748"><ele>521.2857142857142</ele><time>2026-05-01T12:52:35.807Z</time></trkpt><trkpt lat="43.9642288" lon="10.3443487"><ele>520.8571428571429</ele><time>2026-05-01T12:52:49.808Z</time></trkpt><trkpt lat="43.964165" lon="10.3443328"><ele>520.4285714285714</ele><time>2026-05-01T12:53:10.808Z</time></trkpt><trkpt lat="43.9641031" lon="10.344305"><ele>520.0</ele><time>2026-05-01T12:53:33.83Z</time></trkpt><trkpt lat="43.9640373" lon="10.3442752"><ele>520.0000000000001</ele><time>2026-05-01T12:53:40.807Z</time></trkpt><trkpt lat="43.9639717" lon="10.344281"><ele>520.0</ele><time>2026-05-01T12:53:48.889Z</time></trkpt><trkpt lat="43.9639082" lon="10.3442812"><ele>520.0</ele><time>2026-05-01T12:53:57.808Z</time></trkpt><trkpt lat="43.9638079" lon="10.3443554"><ele>520.0</ele><time>2026-05-01T12:54:22.808Z</time></trkpt><trkpt lat="43.9637575" lon="10.3444283"><ele>520.0</ele><time>2026-05-01T12:54:32.808Z</time></trkpt><trkpt lat="43.9636962" lon="10.3444573"><ele>520.0000000000001</ele><time>2026-05-01T12:55:02.808Z</time></trkpt><trkpt lat="43.9636368" lon="10.3445017"><ele>520.0</ele><time>2026-05-01T12:55:16.808Z</time></trkpt><trkpt lat="43.9636616" lon="10.3445842"><ele>520.0000000000001</ele><time>2026-05-01T12:55:23.808Z</time></trkpt><trkpt lat="43.9636939" lon="10.3446646"><ele>520.0</ele><time>2026-05-01T12:55:27.783Z</time></trkpt><trkpt lat="43.9636254" lon="10.3447442"><ele>520.0</ele><time>2026-05-01T12:56:26.808Z</time></trkpt><trkpt lat="43.9636767" lon="10.3448075"><ele>520.0</ele><time>2026-05-01T12:57:16.808Z</time></trkpt><trkpt lat="43.963763" lon="10.3448255"><ele>520.0</ele><time>2026-05-01T12:57:49.808Z</time></trkpt><trkpt lat="43.9637117" lon="10.3448786"><ele>520.0000000000001</ele><time>2026-05-01T12:59:04.808Z</time></trkpt><trkpt lat="43.9637636" lon="10.3449371"><ele>520.0</ele><time>2026-05-01T12:59:12.815Z</time></trkpt><trkpt lat="43.9638123" lon="10.3450016"><ele>524.8333333333334</ele><time>2026-05-01T12:59:20.816Z</time></trkpt><trkpt lat="43.9638872" lon="10.3450408"><ele>529.6666666666667</ele><time>2026-05-01T12:59:29.807Z</time></trkpt><trkpt lat="43.9639561" lon="10.3450536"><ele>534.5</ele><time>2026-05-01T12:59:38.808Z</time></trkpt><trkpt lat="43.9640646" lon="10.3450943"><ele>539.3333333333334</ele><time>2026-05-01T12:59:56.807Z</time></trkpt><trkpt lat="43.9640038" lon="10.3451294"><ele>544.1666666666666</ele><time>2026-05-01T13:00:28.807Z</time></trkpt><trkpt lat="43.9639348" lon="10.3451365"><ele>549.0</ele><time>2026-05-01T13:00:37.807Z</time></trkpt><trkpt lat="43.9638714" lon="10.3450986"><ele>549.0</ele><time>2026-05-01T13:00:45.807Z</time></trkpt><trkpt lat="43.9638093" lon="10.3451218"><ele>549.0</ele><time>2026-05-01T13:01:13.808Z</time></trkpt><trkpt lat="43.9637513" lon="10.345182"><ele>549.0</ele><time>2026-05-01T13:01:24.808Z</time></trkpt><trkpt lat="43.9637001" lon="10.3452373"><ele>549.0</ele><time>2026-05-01T13:01:32.808Z</time></trkpt><trkpt lat="43.9636884" lon="10.3453249"><ele>549.0</ele><time>2026-05-01T13:01:44.808Z</time></trkpt><trkpt lat="43.9636575" lon="10.3454064"><ele>549.0</ele><time>2026-05-01T13:01:58.807Z</time></trkpt><trkpt lat="43.9636039" lon="10.3454685"><ele>549.0</ele><time>2026-05-01T13:02:07.807Z</time></trkpt><trkpt lat="43.9635817" lon="10.3453858"><ele>549.0</ele><time>2026-05-01T13:02:23.808Z</time></trkpt><trkpt lat="43.9635287" lon="10.3454371"><ele>549.0</ele><time>2026-05-01T13:02:30.808Z</time></trkpt><trkpt lat="43.963491" lon="10.3455087"><ele>549.0</ele><time>2026-05-01T13:02:40.808Z</time></trkpt><trkpt lat="43.963491" lon="10.3456268"><ele>549.0</ele><time>2026-05-01T13:03:53.808Z</time></trkpt><trkpt lat="43.9635535" lon="10.3455959"><ele>549.0</ele><time>2026-05-01T13:04:06.807Z</time></trkpt><trkpt lat="43.9635606" lon="10.3456874"><ele>549.0</ele><time>2026-05-01T13:04:49.808Z</time></trkpt><trkpt lat="43.9635258" lon="10.3457678"><ele>549.0</ele><time>2026-05-01T13:05:06.808Z</time></trkpt><trkpt lat="43.9634878" lon="10.3458416"><ele>553.7142857142857</ele><time>2026-05-01T13:05:20.808Z</time></trkpt><trkpt lat="43.9634423" lon="10.3459048"><ele>558.4285714285714</ele><time>2026-05-01T13:05:35.807Z</time></trkpt><trkpt lat="43.963395" lon="10.3459735"><ele>563.1428571428571</ele><time>2026-05-01T13:05:49.808Z</time></trkpt><trkpt lat="43.963367" lon="10.346058"><ele>567.8571428571429</ele><time>2026-05-01T13:06:02.808Z</time></trkpt><trkpt lat="43.9633435" lon="10.3461418"><ele>572.5714285714286</ele><time>2026-05-01T13:06:16.808Z</time></trkpt><trkpt lat="43.9632889" lon="10.3461955"><ele>577.2857142857142</ele><time>2026-05-01T13:06:30.808Z</time></trkpt><trkpt lat="43.9633829" lon="10.3462367"><ele>582.0</ele><time>2026-05-01T13:07:45.808Z</time></trkpt><trkpt lat="43.9634568" lon="10.3462498"><ele>584.2857142857142</ele><time>2026-05-01T13:07:56.807Z</time></trkpt><trkpt lat="43.9634345" lon="10.34634"><ele>586.5714285714286</ele><time>2026-05-01T13:08:11.808Z</time></trkpt><trkpt lat="43.9633754" lon="10.3463844"><ele>588.8571428571429</ele><time>2026-05-01T13:08:21.808Z</time></trkpt><trkpt lat="43.963338" lon="10.34646"><ele>591.1428571428571</ele><time>2026-05-01T13:08:36.808Z</time></trkpt><trkpt lat="43.9632742" lon="10.3465015"><ele>593.4285714285714</ele><time>2026-05-01T13:08:51.808Z</time></trkpt><trkpt lat="43.9632318" lon="10.346638"><ele>595.7142857142857</ele><time>2026-05-01T13:10:12.808Z</time></trkpt><trkpt lat="43.9631959" lon="10.3467149"><ele>598.0</ele><time>2026-05-01T13:10:17.808Z</time></trkpt><trkpt lat="43.9631843" lon="10.3468023"><ele>601.2857142857142</ele><time>2026-05-01T13:10:25.808Z</time></trkpt><trkpt lat="43.9631454" lon="10.3468757"><ele>604.5714285714286</ele><time>2026-05-01T13:10:52.808Z</time></trkpt><trkpt lat="43.9632071" lon="10.3468506"><ele>607.8571428571429</ele><time>2026-05-01T13:11:09.807Z</time></trkpt><trkpt lat="43.9631562" lon="10.3469078"><ele>611.1428571428571</ele><time>2026-05-01T13:11:20.775Z</time></trkpt><trkpt lat="43.9631288" lon="10.3469926"><ele>614.4285714285714</ele><time>2026-05-01T13:11:29.808Z</time></trkpt><trkpt lat="43.9630808" lon="10.3470531"><ele>617.7142857142857</ele><time>2026-05-01T13:11:54.808Z</time></trkpt><trkpt lat="43.9630387" lon="10.3471213"><ele>621.0</ele><time>2026-05-01T13:12:13.808Z</time></trkpt><trkpt lat="43.9630129" lon="10.3472064"><ele>626.7142857142857</ele><time>2026-05-01T13:12:31.808Z</time></trkpt><trkpt lat="43.9629885" lon="10.3472872"><ele>632.4285714285714</ele><time>2026-05-01T13:12:52.714Z</time></trkpt><trkpt lat="43.9629668" lon="10.3473698"><ele>638.1428571428571</ele><time>2026-05-01T13:13:11.808Z</time></trkpt><trkpt lat="43.9629433" lon="10.3474784"><ele>643.8571428571429</ele><time>2026-05-01T13:13:26.807Z</time></trkpt><trkpt lat="43.9628614" lon="10.3475485"><ele>649.5714285714286</ele><time>2026-05-01T13:14:08.808Z</time></trkpt><trkpt lat="43.9629302" lon="10.34756"><ele>655.2857142857142</ele><time>2026-05-01T13:15:08.808Z</time></trkpt><trkpt lat="43.9628716" lon="10.3475941"><ele>661.0</ele><time>2026-05-01T13:16:11.808Z</time></trkpt><trkpt lat="43.962825" lon="10.3475326"><ele>661.0</ele><time>2026-05-01T13:17:21.808Z</time></trkpt><trkpt lat="43.9627907" lon="10.347608"><ele>661.0</ele><time>2026-05-01T13:23:14.808Z</time></trkpt><trkpt lat="43.9628556" lon="10.3475294"><ele>661.0</ele><time>2026-05-01T13:35:57.807Z</time></trkpt><trkpt lat="43.9629137" lon="10.3474861"><ele>661.0</ele><time>2026-05-01T13:37:53.808Z</time></trkpt><trkpt lat="43.9628715" lon="10.3475656"><ele>661.0</ele><time>2026-05-01T13:38:17.808Z</time></trkpt><trkpt lat="43.9628599" lon="10.3476703"><ele>661.0</ele><time>2026-05-01T13:38:36.808Z</time></trkpt><trkpt lat="43.9628181" lon="10.347786"><ele>661.0</ele><time>2026-05-01T13:39:05.808Z</time></trkpt><trkpt lat="43.9627851" lon="10.3478628"><ele>661.0</ele><time>2026-05-01T13:39:16.808Z</time></trkpt><trkpt lat="43.9627865" lon="10.3479592"><ele>661.0</ele><time>2026-05-01T13:39:22.808Z</time></trkpt><trkpt lat="43.9628384" lon="10.3478661"><ele>661.0</ele><time>2026-05-01T13:39:28.808Z</time></trkpt><trkpt lat="43.9628004" lon="10.3479818"><ele>661.0</ele><time>2026-05-01T13:39:35.807Z</time></trkpt><trkpt lat="43.9627244" lon="10.3480193"><ele>661.0</ele><time>2026-05-01T13:40:28.808Z</time></trkpt><trkpt lat="43.9626949" lon="10.3478819"><ele>661.0</ele><time>2026-05-01T13:41:14.777Z</time></trkpt><trkpt lat="43.9626223" lon="10.3479203"><ele>661.0</ele><time>2026-05-01T13:41:39.808Z</time></trkpt><trkpt lat="43.9625729" lon="10.3480129"><ele>661.0</ele><time>2026-05-01T13:41:43.808Z</time></trkpt><trkpt lat="43.9625245" lon="10.3480835"><ele>661.0</ele><time>2026-05-01T13:41:47.808Z</time></trkpt><trkpt lat="43.9624939" lon="10.3481615"><ele>661.0</ele><time>2026-05-01T13:41:51.807Z</time></trkpt><trkpt lat="43.9624594" lon="10.348369"><ele>661.0</ele><time>2026-05-01T13:41:53.808Z</time></trkpt><trkpt lat="43.9624148" lon="10.3484758"><ele>663.5</ele><time>2026-05-01T13:41:56.807Z</time></trkpt><trkpt lat="43.9623682" lon="10.3485621"><ele>666.0</ele><time>2026-05-01T13:42:00.808Z</time></trkpt><trkpt lat="43.9623645" lon="10.3486657"><ele>668.5</ele><time>2026-05-01T13:42:04.808Z</time></trkpt><trkpt lat="43.9624058" lon="10.3487532"><ele>671.0</ele><time>2026-05-01T13:42:06.808Z</time></trkpt><trkpt lat="43.9623982" lon="10.3488607"><ele>673.5</ele><time>2026-05-01T13:42:10.808Z</time></trkpt><trkpt lat="43.9623741" lon="10.3489601"><ele>676.0</ele><time>2026-05-01T13:42:14.808Z</time></trkpt><trkpt lat="43.9623431" lon="10.3490542"><ele>678.2857142857143</ele><time>2026-05-01T13:42:19.811Z</time></trkpt><trkpt lat="43.962414" lon="10.3490039"><ele>680.5714285714286</ele><time>2026-05-01T13:42:51.808Z</time></trkpt><trkpt lat="43.9623984" lon="10.3490965"><ele>682.8571428571429</ele><time>2026-05-01T13:43:00.808Z</time></trkpt><trkpt lat="43.9623624" lon="10.3491761"><ele>685.1428571428571</ele><time>2026-05-01T13:43:06.808Z</time></trkpt><trkpt lat="43.9623204" lon="10.3492473"><ele>687.4285714285714</ele><time>2026-05-01T13:43:12.808Z</time></trkpt><trkpt lat="43.962283" lon="10.3493212"><ele>689.7142857142857</ele><time>2026-05-01T13:43:19.812Z</time></trkpt><trkpt lat="43.9622613" lon="10.3494047"><ele>692.0</ele><time>2026-05-01T13:43:28.824Z</time></trkpt><trkpt lat="43.9622774" lon="10.3494947"><ele>692.0</ele><time>2026-05-01T13:43:37.808Z</time></trkpt><trkpt lat="43.9622915" lon="10.3495804"><ele>692.0</ele><time>2026-05-01T13:43:45.808Z</time></trkpt><trkpt lat="43.962256" lon="10.3496531"><ele>692.0</ele><time>2026-05-01T13:44:01.691Z</time></trkpt><trkpt lat="43.9623105" lon="10.3497148"><ele>692.0</ele><time>2026-05-01T13:44:11.808Z</time></trkpt><trkpt lat="43.9622598" lon="10.3496592"><ele>692.0</ele><time>2026-05-01T13:44:22.808Z</time></trkpt><trkpt lat="43.962197" lon="10.3496477"><ele>692.0</ele><time>2026-05-01T13:44:26.808Z</time></trkpt><trkpt lat="43.9621366" lon="10.349674"><ele>692.0</ele><time>2026-05-01T13:44:33.797Z</time></trkpt><trkpt lat="43.9621014" lon="10.3497596"><ele>696.0</ele><time>2026-05-01T13:44:42.808Z</time></trkpt><trkpt lat="43.9620672" lon="10.3498346"><ele>700.0</ele><time>2026-05-01T13:44:53.807Z</time></trkpt><trkpt lat="43.9620528" lon="10.3499202"><ele>704.0</ele><time>2026-05-01T13:45:12.808Z</time></trkpt><trkpt lat="43.9620123" lon="10.3499876"><ele>708.0</ele><time>2026-05-01T13:45:18.808Z</time></trkpt><trkpt lat="43.9620417" lon="10.3499048"><ele>712.0</ele><time>2026-05-01T13:45:33.808Z</time></trkpt><trkpt lat="43.9621046" lon="10.3499286"><ele>716.0</ele><time>2026-05-01T13:45:56.807Z</time></trkpt><trkpt lat="43.962029" lon="10.3499328"><ele>720.0</ele><time>2026-05-01T13:46:07.807Z</time></trkpt><trkpt lat="43.9619902" lon="10.3500047"><ele>720.0</ele><time>2026-05-01T13:46:25.807Z</time></trkpt><trkpt lat="43.9619376" lon="10.3500573"><ele>720.0</ele><time>2026-05-01T13:46:31.808Z</time></trkpt><trkpt lat="43.9618939" lon="10.3501264"><ele>720.0</ele><time>2026-05-01T13:46:38.817Z</time></trkpt><trkpt lat="43.9618706" lon="10.3502079"><ele>720.0</ele><time>2026-05-01T13:46:46.736Z</time></trkpt><trkpt lat="43.9618619" lon="10.3502956"><ele>720.0</ele><time>2026-05-01T13:46:53.808Z</time></trkpt><trkpt lat="43.9618953" lon="10.3503773"><ele>720.0</ele><time>2026-05-01T13:47:00.737Z</time></trkpt><trkpt lat="43.9619501" lon="10.3504355"><ele>720.0</ele><time>2026-05-01T13:47:25.678Z</time></trkpt><trkpt lat="43.9619642" lon="10.3505219"><ele>722.2857142857142</ele><time>2026-05-01T13:47:34.807Z</time></trkpt><trkpt lat="43.9619286" lon="10.3506167"><ele>724.5714285714287</ele><time>2026-05-01T13:47:43.807Z</time></trkpt><trkpt lat="43.9618618" lon="10.3506675"><ele>726.8571428571429</ele><time>2026-05-01T13:47:54.808Z</time></trkpt><trkpt lat="43.9617878" lon="10.3507239"><ele>729.1428571428571</ele><time>2026-05-01T13:48:28.808Z</time></trkpt><trkpt lat="43.9617516" lon="10.3508055"><ele>731.4285714285713</ele><time>2026-05-01T13:48:32.808Z</time></trkpt><trkpt lat="43.9616889" lon="10.3508155"><ele>733.7142857142858</ele><time>2026-05-01T13:48:48.756Z</time></trkpt><trkpt lat="43.9616419" lon="10.3508803"><ele>736.0</ele><time>2026-05-01T13:49:05.808Z</time></trkpt><trkpt lat="43.9616124" lon="10.3509606"><ele>736.0</ele><time>2026-05-01T13:49:27.808Z</time></trkpt><trkpt lat="43.9615985" lon="10.351053"><ele>736.0</ele><time>2026-05-01T13:49:44.808Z</time></trkpt><trkpt lat="43.9615584" lon="10.3511279"><ele>736.0</ele><time>2026-05-01T13:49:57.808Z</time></trkpt><trkpt lat="43.9615326" lon="10.3512112"><ele>736.0</ele><time>2026-05-01T13:50:11.808Z</time></trkpt><trkpt lat="43.961502" lon="10.3512908"><ele>736.0</ele><time>2026-05-01T13:50:24.023Z</time></trkpt><trkpt lat="43.96144" lon="10.351321"><ele>736.0</ele><time>2026-05-01T13:51:48.807Z</time></trkpt><trkpt lat="43.9614391" lon="10.3514127"><ele>736.0</ele><time>2026-05-01T13:51:52.847Z</time></trkpt><trkpt lat="43.9613779" lon="10.3513842"><ele>736.0</ele><time>2026-05-01T13:52:13.807Z</time></trkpt><trkpt lat="43.9614223" lon="10.3513128"><ele>736.0</ele><time>2026-05-01T13:52:36.808Z</time></trkpt><trkpt lat="43.9613642" lon="10.3512344"><ele>736.0</ele><time>2026-05-01T13:52:45.808Z</time></trkpt><trkpt lat="43.9613028" lon="10.3511855"><ele>736.0</ele><time>2026-05-01T13:52:50.808Z</time></trkpt><trkpt lat="43.9612373" lon="10.3511685"><ele>736.0</ele><time>2026-05-01T13:52:57.809Z</time></trkpt><trkpt lat="43.9611765" lon="10.3511301"><ele>736.0</ele><time>2026-05-01T13:53:07.808Z</time></trkpt><trkpt lat="43.9611173" lon="10.3510978"><ele>736.0</ele><time>2026-05-01T13:53:15.807Z</time></trkpt><trkpt lat="43.9610465" lon="10.3510853"><ele>736.0</ele><time>2026-05-01T13:54:08.807Z</time></trkpt><trkpt lat="43.9610836" lon="10.3511854"><ele>736.0</ele><time>2026-05-01T13:54:54.808Z</time></trkpt><trkpt lat="43.9611639" lon="10.3511843"><ele>736.0</ele><time>2026-05-01T13:55:01.808Z</time></trkpt><trkpt lat="43.9612319" lon="10.3511721"><ele>736.0</ele><time>2026-05-01T13:55:07.103Z</time></trkpt><trkpt lat="43.9612947" lon="10.3511221"><ele>736.0</ele><time>2026-05-01T13:55:12.807Z</time></trkpt><trkpt lat="43.9612557" lon="10.3510318"><ele>736.0</ele><time>2026-05-01T13:55:17.808Z</time></trkpt><trkpt lat="43.9611816" lon="10.3509847"><ele>736.0</ele><time>2026-05-01T13:55:21.808Z</time></trkpt><trkpt lat="43.9611078" lon="10.3509645"><ele>736.0</ele><time>2026-05-01T13:55:25.877Z</time></trkpt><trkpt lat="43.9610444" lon="10.3509344"><ele>736.0</ele><time>2026-05-01T13:55:29.808Z</time></trkpt><trkpt lat="43.9609872" lon="10.3508936"><ele>736.0</ele><time>2026-05-01T13:55:34.807Z</time></trkpt><trkpt lat="43.9609236" lon="10.3508778"><ele>736.0</ele><time>2026-05-01T13:55:47.808Z</time></trkpt><trkpt lat="43.9608568" lon="10.3508666"><ele>736.0</ele><time>2026-05-01T13:55:56.808Z</time></trkpt><trkpt lat="43.9607957" lon="10.3508412"><ele>736.0</ele><time>2026-05-01T13:56:06.808Z</time></trkpt><trkpt lat="43.9607245" lon="10.3508492"><ele>741.5714285714286</ele><time>2026-05-01T13:56:29.808Z</time></trkpt><trkpt lat="43.9606514" lon="10.3508631"><ele>747.1428571428571</ele><time>2026-05-01T13:56:40.808Z</time></trkpt><trkpt lat="43.9605814" lon="10.350907"><ele>752.7142857142857</ele><time>2026-05-01T13:56:45.808Z</time></trkpt><trkpt lat="43.9605402" lon="10.3509781"><ele>758.2857142857142</ele><time>2026-05-01T13:56:55.808Z</time></trkpt><trkpt lat="43.960495" lon="10.3510442"><ele>763.8571428571429</ele><time>2026-05-01T13:56:59.808Z</time></trkpt><trkpt lat="43.9604514" lon="10.351116"><ele>769.4285714285713</ele><time>2026-05-01T13:57:09.808Z</time></trkpt><trkpt lat="43.9603951" lon="10.3511656"><ele>775.0</ele><time>2026-05-01T13:57:20.807Z</time></trkpt><trkpt lat="43.9603301" lon="10.3511874"><ele>774.9999999999999</ele><time>2026-05-01T13:57:30.808Z</time></trkpt><trkpt lat="43.9602486" lon="10.3511879"><ele>775.0</ele><time>2026-05-01T13:58:21.719Z</time></trkpt><trkpt lat="43.9603033" lon="10.351118"><ele>775.0</ele><time>2026-05-01T13:59:04.807Z</time></trkpt><trkpt lat="43.9603466" lon="10.351043"><ele>775.0</ele><time>2026-05-01T13:59:08.808Z</time></trkpt><trkpt lat="43.96028" lon="10.3509674"><ele>775.0</ele><time>2026-05-01T13:59:30.808Z</time></trkpt><trkpt lat="43.9602763" lon="10.350879"><ele>774.9999999999999</ele><time>2026-05-01T14:00:08.808Z</time></trkpt><trkpt lat="43.9603106" lon="10.3507968"><ele>775.0</ele><time>2026-05-01T14:00:15.765Z</time></trkpt><trkpt lat="43.9603499" lon="10.3507248"><ele>774.9999999999999</ele><time>2026-05-01T14:00:27.821Z</time></trkpt><trkpt lat="43.9604184" lon="10.35068"><ele>775.0</ele><time>2026-05-01T14:00:32.807Z</time></trkpt><trkpt lat="43.9604659" lon="10.3506146"><ele>775.0</ele><time>2026-05-01T14:00:38.807Z</time></trkpt><trkpt lat="43.9605292" lon="10.3505974"><ele>775.0</ele><time>2026-05-01T14:00:45.808Z</time></trkpt><trkpt lat="43.9605924" lon="10.3505672"><ele>775.0</ele><time>2026-05-01T14:00:57.807Z</time></trkpt><trkpt lat="43.960628" lon="10.3506438"><ele>774.9999999999999</ele><time>2026-05-01T14:01:33.808Z</time></trkpt><trkpt lat="43.9606909" lon="10.3506381"><ele>775.0</ele><time>2026-05-01T14:01:41.837Z</time></trkpt><trkpt lat="43.9607459" lon="10.3505277"><ele>776.1428571428571</ele><time>2026-05-01T14:02:02.808Z</time></trkpt><trkpt lat="43.9607986" lon="10.3504591"><ele>777.2857142857142</ele><time>2026-05-01T14:02:09.808Z</time></trkpt><trkpt lat="43.9608479" lon="10.3503878"><ele>778.4285714285713</ele><time>2026-05-01T14:02:15.807Z</time></trkpt><trkpt lat="43.9607831" lon="10.3503754"><ele>779.5714285714286</ele><time>2026-05-01T14:02:26.808Z</time></trkpt><trkpt lat="43.9607243" lon="10.3504144"><ele>780.7142857142858</ele><time>2026-05-01T14:02:32.796Z</time></trkpt><trkpt lat="43.9606583" lon="10.3504136"><ele>781.8571428571428</ele><time>2026-05-01T14:02:37.808Z</time></trkpt><trkpt lat="43.9606477" lon="10.3503144"><ele>783.0</ele><time>2026-05-01T14:02:46.835Z</time></trkpt><trkpt lat="43.9606096" lon="10.3502393"><ele>783.0</ele><time>2026-05-01T14:02:55.828Z</time></trkpt><trkpt lat="43.9605976" lon="10.3501464"><ele>783.0</ele><time>2026-05-01T14:03:01.808Z</time></trkpt><trkpt lat="43.9605863" lon="10.3500485"><ele>783.0</ele><time>2026-05-01T14:03:07.808Z</time></trkpt><trkpt lat="43.9605464" lon="10.3499729"><ele>783.0</ele><time>2026-05-01T14:03:13.808Z</time></trkpt><trkpt lat="43.9605134" lon="10.3498984"><ele>783.0</ele><time>2026-05-01T14:03:19.808Z</time></trkpt><trkpt lat="43.9603881" lon="10.3500544"><ele>783.0</ele><time>2026-05-01T14:03:23.807Z</time></trkpt><trkpt lat="43.9602798" lon="10.3502502"><ele>783.0</ele><time>2026-05-01T14:03:24.808Z</time></trkpt><trkpt lat="43.9602165" lon="10.350362"><ele>783.0</ele><time>2026-05-01T14:03:25.808Z</time></trkpt><trkpt lat="43.9601559" lon="10.3504109"><ele>783.0</ele><time>2026-05-01T14:03:31.8Z</time></trkpt><trkpt lat="43.9600902" lon="10.3504488"><ele>783.0</ele><time>2026-05-01T14:03:39.807Z</time></trkpt><trkpt lat="43.9600352" lon="10.3504011"><ele>783.0</ele><time>2026-05-01T14:03:45.808Z</time></trkpt><trkpt lat="43.9599994" lon="10.3503283"><ele>783.0</ele><time>2026-05-01T14:03:51.807Z</time></trkpt><trkpt lat="43.9599453" lon="10.3502792"><ele>783.0</ele><time>2026-05-01T14:04:00.808Z</time></trkpt><trkpt lat="43.9598845" lon="10.3502548"><ele>786.1428571428571</ele><time>2026-05-01T14:04:20.818Z</time></trkpt><trkpt lat="43.9598296" lon="10.3502029"><ele>789.2857142857143</ele><time>2026-05-01T14:04:32.8Z</time></trkpt><trkpt lat="43.9597869" lon="10.3501359"><ele>792.4285714285714</ele><time>2026-05-01T14:04:37.818Z</time></trkpt><trkpt lat="43.9597225" lon="10.3501402"><ele>795.5714285714286</ele><time>2026-05-01T14:04:45.807Z</time></trkpt><trkpt lat="43.9597476" lon="10.3502228"><ele>798.7142857142858</ele><time>2026-05-01T14:05:02.808Z</time></trkpt><trkpt lat="43.9597999" lon="10.3502725"><ele>801.8571428571429</ele><time>2026-05-01T14:05:07.808Z</time></trkpt><trkpt lat="43.959843" lon="10.350344"><ele>805.0</ele><time>2026-05-01T14:05:15.807Z</time></trkpt><trkpt lat="43.95989" lon="10.3504063"><ele>805.0</ele><time>2026-05-01T14:05:24.808Z</time></trkpt><trkpt lat="43.9599255" lon="10.3503269"><ele>805.0</ele><time>2026-05-01T14:05:40.808Z</time></trkpt><trkpt lat="43.9598622" lon="10.350275"><ele>805.0</ele><time>2026-05-01T14:05:51.808Z</time></trkpt><trkpt lat="43.9598146" lon="10.3502123"><ele>805.0</ele><time>2026-05-01T14:05:55.807Z</time></trkpt><trkpt lat="43.9597508" lon="10.3501861"><ele>805.0</ele><time>2026-05-01T14:06:01.808Z</time></trkpt><trkpt lat="43.9597057" lon="10.3501181"><ele>805.0</ele><time>2026-05-01T14:06:12.808Z</time></trkpt><trkpt lat="43.9596378" lon="10.3501211"><ele>805.0</ele><time>2026-05-01T14:06:24.807Z</time></trkpt><trkpt lat="43.9596033" lon="10.3500425"><ele>805.0</ele><time>2026-05-01T14:06:43.807Z</time></trkpt><trkpt lat="43.9596315" lon="10.349961"><ele>805.0</ele><time>2026-05-01T14:06:49.808Z</time></trkpt><trkpt lat="43.959667" lon="10.3498851"><ele>805.0</ele><time>2026-05-01T14:06:56.807Z</time></trkpt><trkpt lat="43.9596942" lon="10.3497982"><ele>805.0</ele><time>2026-05-01T14:07:03.808Z</time></trkpt><trkpt lat="43.9596389" lon="10.349743"><ele>805.0</ele><time>2026-05-01T14:07:12.808Z</time></trkpt><trkpt lat="43.9595933" lon="10.3498112"><ele>805.0</ele><time>2026-05-01T14:07:20.808Z</time></trkpt><trkpt lat="43.9596248" lon="10.3498882"><ele>805.0</ele><time>2026-05-01T14:07:25.808Z</time></trkpt><trkpt lat="43.959666" lon="10.3498177"><ele>804.9999999999999</ele><time>2026-05-01T14:07:37.808Z</time></trkpt><trkpt lat="43.9596263" lon="10.3497465"><ele>805.0</ele><time>2026-05-01T14:07:42.808Z</time></trkpt><trkpt lat="43.9596236" lon="10.3496558"><ele>805.0</ele><time>2026-05-01T14:07:48.808Z</time></trkpt><trkpt lat="43.9596239" lon="10.3495604"><ele>805.0</ele><time>2026-05-01T14:07:54.807Z</time></trkpt><trkpt lat="43.9596991" lon="10.3494412"><ele>804.9999999999999</ele><time>2026-05-01T14:08:08.808Z</time></trkpt><trkpt lat="43.9596167" lon="10.3494341"><ele>805.0</ele><time>2026-05-01T14:08:12.808Z</time></trkpt><trkpt lat="43.9595708" lon="10.3493548"><ele>804.7142857142857</ele><time>2026-05-01T14:08:19.807Z</time></trkpt><trkpt lat="43.959595" lon="10.3492635"><ele>804.4285714285714</ele><time>2026-05-01T14:08:25.807Z</time></trkpt><trkpt lat="43.9595519" lon="10.3491887"><ele>804.1428571428571</ele><time>2026-05-01T14:08:34.807Z</time></trkpt><trkpt lat="43.9595197" lon="10.3491099"><ele>803.8571428571429</ele><time>2026-05-01T14:08:44.709Z</time></trkpt><trkpt lat="43.9594723" lon="10.349039"><ele>803.5714285714286</ele><time>2026-05-01T14:08:54.808Z</time></trkpt><trkpt lat="43.959418" lon="10.3489886"><ele>803.2857142857142</ele><time>2026-05-01T14:09:02.825Z</time></trkpt><trkpt lat="43.9593539" lon="10.3489578"><ele>803.0</ele><time>2026-05-01T14:09:11.808Z</time></trkpt><trkpt lat="43.9592878" lon="10.348963"><ele>802.9999999999999</ele><time>2026-05-01T14:09:20.807Z</time></trkpt><trkpt lat="43.9592537" lon="10.3488848"><ele>803.0</ele><time>2026-05-01T14:09:32.791Z</time></trkpt><trkpt lat="43.95919" lon="10.3488646"><ele>803.0</ele><time>2026-05-01T14:09:47.822Z</time></trkpt><trkpt lat="43.9591223" lon="10.3488514"><ele>803.0</ele><time>2026-05-01T14:10:00.808Z</time></trkpt><trkpt lat="43.9590557" lon="10.3488228"><ele>803.0</ele><time>2026-05-01T14:10:11.814Z</time></trkpt><trkpt lat="43.959002" lon="10.3487704"><ele>802.9999999999999</ele><time>2026-05-01T14:10:20.735Z</time></trkpt><trkpt lat="43.9589787" lon="10.3486764"><ele>803.0</ele><time>2026-05-01T14:10:27.793Z</time></trkpt><trkpt lat="43.958982" lon="10.3485832"><ele>804.5714285714286</ele><time>2026-05-01T14:11:05.808Z</time></trkpt><trkpt lat="43.9590028" lon="10.3484968"><ele>806.1428571428571</ele><time>2026-05-01T14:11:18.807Z</time></trkpt><trkpt lat="43.9590405" lon="10.3484247"><ele>807.7142857142858</ele><time>2026-05-01T14:11:24.808Z</time></trkpt><trkpt lat="43.9590896" lon="10.3483665"><ele>809.2857142857142</ele><time>2026-05-01T14:11:33.813Z</time></trkpt><trkpt lat="43.9591098" lon="10.3482312"><ele>810.8571428571429</ele><time>2026-05-01T14:11:52.808Z</time></trkpt><trkpt lat="43.9590768" lon="10.3481341"><ele>812.4285714285714</ele><time>2026-05-01T14:12:01.808Z</time></trkpt><trkpt lat="43.9590805" lon="10.3480413"><ele>814.0</ele><time>2026-05-01T14:12:08.73Z</time></trkpt><trkpt lat="43.9590785" lon="10.3479477"><ele>814.0000000000001</ele><time>2026-05-01T14:12:20.808Z</time></trkpt><trkpt lat="43.9590468" lon="10.3478701"><ele>814.0</ele><time>2026-05-01T14:12:31.808Z</time></trkpt><trkpt lat="43.9590156" lon="10.3477899"><ele>814.0</ele><time>2026-05-01T14:12:44.817Z</time></trkpt><trkpt lat="43.9590505" lon="10.3476974"><ele>814.0</ele><time>2026-05-01T14:12:52.808Z</time></trkpt><trkpt lat="43.9589994" lon="10.3477629"><ele>814.0</ele><time>2026-05-01T14:13:12.818Z</time></trkpt><trkpt lat="43.9589864" lon="10.347852"><ele>814.0000000000001</ele><time>2026-05-01T14:13:22.808Z</time></trkpt><trkpt lat="43.9589856" lon="10.3479435"><ele>814.0</ele><time>2026-05-01T14:13:32.808Z</time></trkpt><trkpt lat="43.958992" lon="10.3480385"><ele>813.9999999999999</ele><time>2026-05-01T14:13:44.808Z</time></trkpt><trkpt lat="43.9590172" lon="10.348124"><ele>814.0</ele><time>2026-05-01T14:13:52.808Z</time></trkpt><trkpt lat="43.9590618" lon="10.3481897"><ele>814.0</ele><time>2026-05-01T14:14:01.808Z</time></trkpt><trkpt lat="43.9590714" lon="10.3480899"><ele>814.0</ele><time>2026-05-01T14:14:15.808Z</time></trkpt><trkpt lat="43.9590601" lon="10.3479864"><ele>813.9999999999999</ele><time>2026-05-01T14:14:21.808Z</time></trkpt><trkpt lat="43.9590266" lon="10.3479109"><ele>814.0</ele><time>2026-05-01T14:14:27.807Z</time></trkpt><trkpt lat="43.9590529" lon="10.3477413"><ele>814.0000000000001</ele><time>2026-05-01T14:15:04.787Z</time></trkpt><trkpt lat="43.9590116" lon="10.3476521"><ele>814.0</ele><time>2026-05-01T14:15:23.786Z</time></trkpt><trkpt lat="43.9589986" lon="10.3475532"><ele>814.0</ele><time>2026-05-01T14:15:28.808Z</time></trkpt><trkpt lat="43.958977" lon="10.3474698"><ele>814.0</ele><time>2026-05-01T14:15:34.808Z</time></trkpt><trkpt lat="43.9589972" lon="10.3473868"><ele>814.0</ele><time>2026-05-01T14:15:43.807Z</time></trkpt><trkpt lat="43.9589702" lon="10.3473047"><ele>814.0000000000001</ele><time>2026-05-01T14:16:02.792Z</time></trkpt><trkpt lat="43.9589134" lon="10.3472422"><ele>814.0</ele><time>2026-05-01T14:16:10.808Z</time></trkpt><trkpt lat="43.9588586" lon="10.3471985"><ele>814.1428571428572</ele><time>2026-05-01T14:16:19.808Z</time></trkpt><trkpt lat="43.9588268" lon="10.3471211"><ele>814.2857142857143</ele><time>2026-05-01T14:16:29.778Z</time></trkpt><trkpt lat="43.9588265" lon="10.3470321"><ele>814.4285714285714</ele><time>2026-05-01T14:16:37.808Z</time></trkpt><trkpt lat="43.9587951" lon="10.3469484"><ele>814.5714285714287</ele><time>2026-05-01T14:16:46.808Z</time></trkpt><trkpt lat="43.9587443" lon="10.3468922"><ele>814.7142857142857</ele><time>2026-05-01T14:16:54.808Z</time></trkpt><trkpt lat="43.9587167" lon="10.3468116"><ele>814.8571428571429</ele><time>2026-05-01T14:17:01.808Z</time></trkpt><trkpt lat="43.9587115" lon="10.3467186"><ele>815.0</ele><time>2026-05-01T14:17:09.824Z</time></trkpt><trkpt lat="43.9586569" lon="10.3466747"><ele>815.0</ele><time>2026-05-01T14:17:16.808Z</time></trkpt><trkpt lat="43.9585901" lon="10.3467125"><ele>815.0</ele><time>2026-05-01T14:17:23.808Z</time></trkpt><trkpt lat="43.9585393" lon="10.3467788"><ele>815.0</ele><time>2026-05-01T14:17:30.841Z</time></trkpt><trkpt lat="43.9584748" lon="10.3467521"><ele>815.0</ele><time>2026-05-01T14:17:40.807Z</time></trkpt><trkpt lat="43.9584125" lon="10.3467384"><ele>815.0</ele><time>2026-05-01T14:17:54.821Z</time></trkpt><trkpt lat="43.9583571" lon="10.3467862"><ele>815.0</ele><time>2026-05-01T14:18:04.813Z</time></trkpt><trkpt lat="43.9582961" lon="10.3468079"><ele>815.0</ele><time>2026-05-01T14:18:14.808Z</time></trkpt><trkpt lat="43.9582297" lon="10.3467836"><ele>816.3333333333334</ele><time>2026-05-01T14:18:24.856Z</time></trkpt><trkpt lat="43.9581615" lon="10.3467938"><ele>817.6666666666667</ele><time>2026-05-01T14:18:32.808Z</time></trkpt><trkpt lat="43.9582279" lon="10.34686"><ele>819.0</ele><time>2026-05-01T14:18:56.808Z</time></trkpt><trkpt lat="43.9582611" lon="10.3467832"><ele>820.3333333333333</ele><time>2026-05-01T14:19:10.111Z</time></trkpt><trkpt lat="43.9583584" lon="10.3467207"><ele>821.6666666666666</ele><time>2026-05-01T14:19:29.809Z</time></trkpt><trkpt lat="43.9583143" lon="10.3467861"><ele>823.0</ele><time>2026-05-01T14:19:45.808Z</time></trkpt><trkpt lat="43.958251" lon="10.3468119"><ele>823.0</ele><time>2026-05-01T14:19:54.808Z</time></trkpt><trkpt lat="43.9581821" lon="10.3468102"><ele>823.0</ele><time>2026-05-01T14:20:03.807Z</time></trkpt><trkpt lat="43.9581169" lon="10.3468359"><ele>823.0</ele><time>2026-05-01T14:20:13.808Z</time></trkpt><trkpt lat="43.9580552" lon="10.3468607"><ele>823.0</ele><time>2026-05-01T14:20:20.807Z</time></trkpt><trkpt lat="43.9579922" lon="10.3468806"><ele>823.0</ele><time>2026-05-01T14:20:29.826Z</time></trkpt><trkpt lat="43.957927" lon="10.3468608"><ele>823.0</ele><time>2026-05-01T14:20:38.718Z</time></trkpt><trkpt lat="43.9578576" lon="10.346862"><ele>823.0</ele><time>2026-05-01T14:20:48.808Z</time></trkpt><trkpt lat="43.9577896" lon="10.3468523"><ele>823.0</ele><time>2026-05-01T14:20:56.821Z</time></trkpt><trkpt lat="43.9577323" lon="10.3468072"><ele>823.0</ele><time>2026-05-01T14:21:04.816Z</time></trkpt><trkpt lat="43.957786" lon="10.3468768"><ele>823.0</ele><time>2026-05-01T14:21:11.808Z</time></trkpt><trkpt lat="43.9578447" lon="10.3469232"><ele>823.0</ele><time>2026-05-01T14:21:17.846Z</time></trkpt><trkpt lat="43.9577794" lon="10.3469121"><ele>823.0</ele><time>2026-05-01T14:21:35.719Z</time></trkpt><trkpt lat="43.9577128" lon="10.3469221"><ele>823.0</ele><time>2026-05-01T14:21:41.818Z</time></trkpt><trkpt lat="43.9576439" lon="10.3469026"><ele>823.0</ele><time>2026-05-01T14:21:49.805Z</time></trkpt><trkpt lat="43.9575644" lon="10.3468837"><ele>825.8333333333333</ele><time>2026-05-01T14:22:09.808Z</time></trkpt><trkpt lat="43.9575032" lon="10.34686"><ele>828.6666666666666</ele><time>2026-05-01T14:22:18.818Z</time></trkpt><trkpt lat="43.9574409" lon="10.3468401"><ele>831.5</ele><time>2026-05-01T14:22:27.808Z</time></trkpt><trkpt lat="43.9574639" lon="10.3467441"><ele>834.3333333333333</ele><time>2026-05-01T14:22:56.808Z</time></trkpt><trkpt lat="43.9574725" lon="10.3465878"><ele>837.1666666666666</ele><time>2026-05-01T14:23:24.808Z</time></trkpt><trkpt lat="43.9575082" lon="10.3465151"><ele>840.0</ele><time>2026-05-01T14:23:30.807Z</time></trkpt><trkpt lat="43.9574923" lon="10.3463614"><ele>840.8333333333334</ele><time>2026-05-01T14:23:51.807Z</time></trkpt><trkpt lat="43.9574819" lon="10.3462694"><ele>841.6666666666667</ele><time>2026-05-01T14:23:58.736Z</time></trkpt><trkpt lat="43.9574888" lon="10.3461823"><ele>842.5</ele><time>2026-05-01T14:24:05.808Z</time></trkpt><trkpt lat="43.9575189" lon="10.3460504"><ele>843.3333333333334</ele><time>2026-05-01T14:24:30.808Z</time></trkpt><trkpt lat="43.9575341" lon="10.3459533"><ele>844.1666666666667</ele><time>2026-05-01T14:24:37.808Z</time></trkpt><trkpt lat="43.957451" lon="10.3457944"><ele>845.0</ele><time>2026-05-01T14:25:10.808Z</time></trkpt><trkpt lat="43.9574362" lon="10.3457049"><ele>844.9999999999999</ele><time>2026-05-01T14:25:17.808Z</time></trkpt><trkpt lat="43.9574541" lon="10.3456078"><ele>845.0</ele><time>2026-05-01T14:25:27.807Z</time></trkpt><trkpt lat="43.9574635" lon="10.3455196"><ele>845.0</ele><time>2026-05-01T14:25:34.808Z</time></trkpt><trkpt lat="43.9574896" lon="10.3454383"><ele>845.0</ele><time>2026-05-01T14:25:42.808Z</time></trkpt><trkpt lat="43.9574877" lon="10.3453508"><ele>845.0</ele><time>2026-05-01T14:25:53.808Z</time></trkpt><trkpt lat="43.9574666" lon="10.3452561"><ele>844.9999999999999</ele><time>2026-05-01T14:26:02.808Z</time></trkpt><trkpt lat="43.9574455" lon="10.3451714"><ele>845.0</ele><time>2026-05-01T14:26:09.807Z</time></trkpt><trkpt lat="43.9574198" lon="10.3450833"><ele>844.9999999999999</ele><time>2026-05-01T14:26:18.807Z</time></trkpt><trkpt lat="43.9573949" lon="10.3449849"><ele>845.0</ele><time>2026-05-01T14:26:34.807Z</time></trkpt><trkpt lat="43.9573315" lon="10.344931"><ele>845.0</ele><time>2026-05-01T14:26:40.808Z</time></trkpt><trkpt lat="43.9572678" lon="10.3449242"><ele>845.0</ele><time>2026-05-01T14:26:46.808Z</time></trkpt><trkpt lat="43.9572694" lon="10.3448245"><ele>845.0</ele><time>2026-05-01T14:28:41.808Z</time></trkpt><trkpt lat="43.9572205" lon="10.344769"><ele>844.9999999999999</ele><time>2026-05-01T14:28:53.808Z</time></trkpt><trkpt lat="43.9572025" lon="10.3446785"><ele>845.0</ele><time>2026-05-01T14:28:59.814Z</time></trkpt><trkpt lat="43.9571384" lon="10.3446688"><ele>844.9999999999999</ele><time>2026-05-01T14:29:08.809Z</time></trkpt><trkpt lat="43.9570795" lon="10.3447029"><ele>845.0</ele><time>2026-05-01T14:29:16.807Z</time></trkpt><trkpt lat="43.9570124" lon="10.3447213"><ele>845.0</ele><time>2026-05-01T14:29:38.812Z</time></trkpt><trkpt lat="43.9569759" lon="10.3447974"><ele>845.0</ele><time>2026-05-01T14:29:44.82Z</time></trkpt><trkpt lat="43.9569266" lon="10.3448591"><ele>845.0</ele><time>2026-05-01T14:29:55.808Z</time></trkpt><trkpt lat="43.9568549" lon="10.3448374"><ele>844.9999999999999</ele><time>2026-05-01T14:30:01.808Z</time></trkpt><trkpt lat="43.9568294" lon="10.3447535"><ele>845.0</ele><time>2026-05-01T14:30:06.807Z</time></trkpt><trkpt lat="43.9567696" lon="10.3447099"><ele>844.5714285714286</ele><time>2026-05-01T14:30:12.807Z</time></trkpt><trkpt lat="43.9567094" lon="10.3447556"><ele>844.1428571428571</ele><time>2026-05-01T14:30:19.708Z</time></trkpt><trkpt lat="43.956645" lon="10.3447647"><ele>843.7142857142858</ele><time>2026-05-01T14:30:26.808Z</time></trkpt><trkpt lat="43.9565809" lon="10.3447835"><ele>843.2857142857142</ele><time>2026-05-01T14:30:40.807Z</time></trkpt><trkpt lat="43.9565129" lon="10.3447879"><ele>842.8571428571429</ele><time>2026-05-01T14:30:53.836Z</time></trkpt><trkpt lat="43.9564498" lon="10.3447697"><ele>842.4285714285714</ele><time>2026-05-01T14:31:18.807Z</time></trkpt><trkpt lat="43.9563884" lon="10.3447364"><ele>842.0</ele><time>2026-05-01T14:31:22.885Z</time></trkpt><trkpt lat="43.9563278" lon="10.3446965"><ele>838.8571428571429</ele><time>2026-05-01T14:31:35.808Z</time></trkpt><trkpt lat="43.9562634" lon="10.3447022"><ele>835.7142857142858</ele><time>2026-05-01T14:31:42.753Z</time></trkpt><trkpt lat="43.9562064" lon="10.3446565"><ele>832.5714285714287</ele><time>2026-05-01T14:31:57.808Z</time></trkpt><trkpt lat="43.9561435" lon="10.3446312"><ele>829.4285714285714</ele><time>2026-05-01T14:32:05.814Z</time></trkpt><trkpt lat="43.9561699" lon="10.3445363"><ele>826.2857142857142</ele><time>2026-05-01T14:33:01.858Z</time></trkpt><trkpt lat="43.9561189" lon="10.3444732"><ele>823.1428571428572</ele><time>2026-05-01T14:33:04.808Z</time></trkpt><trkpt lat="43.9560634" lon="10.3444287"><ele>820.0</ele><time>2026-05-01T14:33:12.808Z</time></trkpt><trkpt lat="43.9560814" lon="10.3443367"><ele>820.0</ele><time>2026-05-01T14:33:23.807Z</time></trkpt><trkpt lat="43.9561094" lon="10.3442548"><ele>820.0</ele><time>2026-05-01T14:33:33.055Z</time></trkpt><trkpt lat="43.9560908" lon="10.3443387"><ele>820.0</ele><time>2026-05-01T14:33:42.733Z</time></trkpt><trkpt lat="43.956152" lon="10.3442914"><ele>820.0</ele><time>2026-05-01T14:35:59.808Z</time></trkpt><trkpt lat="43.9561856" lon="10.3442071"><ele>820.0</ele><time>2026-05-01T14:36:05.833Z</time></trkpt><trkpt lat="43.9561376" lon="10.3441302"><ele>820.0</ele><time>2026-05-01T14:36:10.808Z</time></trkpt><trkpt lat="43.9560799" lon="10.3440824"><ele>820.0</ele><time>2026-05-01T14:36:16.73Z</time></trkpt><trkpt lat="43.9560127" lon="10.3440944"><ele>820.0</ele><time>2026-05-01T14:36:20.846Z</time></trkpt><trkpt lat="43.9559943" lon="10.3440071"><ele>820.0</ele><time>2026-05-01T14:36:35.828Z</time></trkpt><trkpt lat="43.9559651" lon="10.343925"><ele>820.0</ele><time>2026-05-01T14:36:47.826Z</time></trkpt><trkpt lat="43.9559092" lon="10.3438737"><ele>820.0</ele><time>2026-05-01T14:36:56.808Z</time></trkpt><trkpt lat="43.9558708" lon="10.3437859"><ele>820.0</ele><time>2026-05-01T14:37:04.739Z</time></trkpt><trkpt lat="43.9558183" lon="10.3437334"><ele>820.0</ele><time>2026-05-01T14:37:10.808Z</time></trkpt><trkpt lat="43.9557509" lon="10.3437416"><ele>820.0</ele><time>2026-05-01T14:37:18.852Z</time></trkpt><trkpt lat="43.9557084" lon="10.3436633"><ele>814.2857142857143</ele><time>2026-05-01T14:37:27.808Z</time></trkpt><trkpt lat="43.9556692" lon="10.3435897"><ele>808.5714285714286</ele><time>2026-05-01T14:37:34.807Z</time></trkpt><trkpt lat="43.9556267" lon="10.3435126"><ele>802.8571428571429</ele><time>2026-05-01T14:37:42.808Z</time></trkpt><trkpt lat="43.9555801" lon="10.3434493"><ele>797.1428571428571</ele><time>2026-05-01T14:37:51.785Z</time></trkpt><trkpt lat="43.9555164" lon="10.3434285"><ele>791.4285714285713</ele><time>2026-05-01T14:37:59.808Z</time></trkpt><trkpt lat="43.9554576" lon="10.34346"><ele>785.7142857142857</ele><time>2026-05-01T14:38:05.808Z</time></trkpt><trkpt lat="43.9553918" lon="10.3434944"><ele>780.0</ele><time>2026-05-01T14:38:12.708Z</time></trkpt><trkpt lat="43.9553334" lon="10.3435289"><ele>780.0</ele><time>2026-05-01T14:38:19.923Z</time></trkpt><trkpt lat="43.9553439" lon="10.3434384"><ele>780.0</ele><time>2026-05-01T14:38:45.766Z</time></trkpt><trkpt lat="43.9553515" lon="10.3433418"><ele>780.0</ele><time>2026-05-01T14:38:54.817Z</time></trkpt><trkpt lat="43.9553644" lon="10.3432487"><ele>780.0</ele><time>2026-05-01T14:39:06.727Z</time></trkpt><trkpt lat="43.9554092" lon="10.3431811"><ele>780.0</ele><time>2026-05-01T14:39:14.752Z</time></trkpt><trkpt lat="43.9553889" lon="10.3430963"><ele>780.0</ele><time>2026-05-01T14:39:21.807Z</time></trkpt><trkpt lat="43.955353" lon="10.3430144"><ele>780.0</ele><time>2026-05-01T14:39:25.751Z</time></trkpt><trkpt lat="43.9552929" lon="10.3429609"><ele>777.5714285714286</ele><time>2026-05-01T14:39:33.808Z</time></trkpt><trkpt lat="43.955247" lon="10.3428848"><ele>775.1428571428571</ele><time>2026-05-01T14:39:42.811Z</time></trkpt><trkpt lat="43.9552719" lon="10.3427824"><ele>772.7142857142858</ele><time>2026-05-01T14:39:47.808Z</time></trkpt><trkpt lat="43.9552627" lon="10.3426837"><ele>770.2857142857142</ele><time>2026-05-01T14:39:53.789Z</time></trkpt><trkpt lat="43.9552323" lon="10.3426007"><ele>767.8571428571429</ele><time>2026-05-01T14:40:00.807Z</time></trkpt><trkpt lat="43.9552283" lon="10.3425075"><ele>765.4285714285714</ele><time>2026-05-01T14:40:07.808Z</time></trkpt><trkpt lat="43.9552228" lon="10.3424168"><ele>763.0</ele><time>2026-05-01T14:40:14.808Z</time></trkpt><trkpt lat="43.9552112" lon="10.3423194"><ele>763.0</ele><time>2026-05-01T14:40:22.712Z</time></trkpt><trkpt lat="43.9551917" lon="10.3422283"><ele>763.0</ele><time>2026-05-01T14:40:31.808Z</time></trkpt><trkpt lat="43.9552164" lon="10.342143"><ele>763.0</ele><time>2026-05-01T14:40:48.808Z</time></trkpt><trkpt lat="43.9552197" lon="10.3420554"><ele>763.0</ele><time>2026-05-01T14:40:54.819Z</time></trkpt><trkpt lat="43.9551964" lon="10.3419652"><ele>763.0</ele><time>2026-05-01T14:41:01.808Z</time></trkpt><trkpt lat="43.9551616" lon="10.3418803"><ele>763.0</ele><time>2026-05-01T14:41:08.807Z</time></trkpt><trkpt lat="43.9551082" lon="10.3418332"><ele>763.0</ele><time>2026-05-01T14:41:14.808Z</time></trkpt><trkpt lat="43.9550424" lon="10.3417702"><ele>761.4285714285714</ele><time>2026-05-01T14:41:21.808Z</time></trkpt><trkpt lat="43.9550141" lon="10.3416859"><ele>759.8571428571429</ele><time>2026-05-01T14:41:30.832Z</time></trkpt><trkpt lat="43.9549722" lon="10.3416042"><ele>758.2857142857142</ele><time>2026-05-01T14:41:42.808Z</time></trkpt><trkpt lat="43.9549285" lon="10.341536"><ele>756.7142857142858</ele><time>2026-05-01T14:41:49.807Z</time></trkpt><trkpt lat="43.9548881" lon="10.3414666"><ele>755.1428571428571</ele><time>2026-05-01T14:41:56.807Z</time></trkpt><trkpt lat="43.9548913" lon="10.3413702"><ele>753.5714285714286</ele><time>2026-05-01T14:42:12.807Z</time></trkpt><trkpt lat="43.954888" lon="10.3412751"><ele>752.0</ele><time>2026-05-01T14:42:16.808Z</time></trkpt><trkpt lat="43.9548836" lon="10.3411803"><ele>749.8571428571429</ele><time>2026-05-01T14:42:22.775Z</time></trkpt><trkpt lat="43.9549146" lon="10.3410933"><ele>747.7142857142857</ele><time>2026-05-01T14:42:28.808Z</time></trkpt><trkpt lat="43.9549342" lon="10.341004"><ele>745.5714285714287</ele><time>2026-05-01T14:42:35.835Z</time></trkpt><trkpt lat="43.9549345" lon="10.3409063"><ele>743.4285714285714</ele><time>2026-05-01T14:42:44.829Z</time></trkpt><trkpt lat="43.9549089" lon="10.3408165"><ele>741.2857142857143</ele><time>2026-05-01T14:42:56.808Z</time></trkpt><trkpt lat="43.9548892" lon="10.3407246"><ele>739.1428571428572</ele><time>2026-05-01T14:43:05.827Z</time></trkpt><trkpt lat="43.954876" lon="10.3406355"><ele>737.0</ele><time>2026-05-01T14:43:11.812Z</time></trkpt><trkpt lat="43.9548512" lon="10.3405516"><ele>735.2857142857143</ele><time>2026-05-01T14:43:20.827Z</time></trkpt><trkpt lat="43.9548369" lon="10.3404634"><ele>733.5714285714286</ele><time>2026-05-01T14:43:27.808Z</time></trkpt><trkpt lat="43.9548248" lon="10.3403751"><ele>731.8571428571429</ele><time>2026-05-01T14:43:35.808Z</time></trkpt><trkpt lat="43.9548279" lon="10.3402788"><ele>730.1428571428571</ele><time>2026-05-01T14:43:44.808Z</time></trkpt><trkpt lat="43.9548334" lon="10.340187"><ele>728.4285714285714</ele><time>2026-05-01T14:43:51.808Z</time></trkpt><trkpt lat="43.9548163" lon="10.3401028"><ele>726.7142857142858</ele><time>2026-05-01T14:43:57.815Z</time></trkpt><trkpt lat="43.9547886" lon="10.340019"><ele>725.0</ele><time>2026-05-01T14:44:03.818Z</time></trkpt><trkpt lat="43.9547406" lon="10.3399533"><ele>725.0</ele><time>2026-05-01T14:44:12.807Z</time></trkpt><trkpt lat="43.9547238" lon="10.3398631"><ele>725.0</ele><time>2026-05-01T14:44:17.83Z</time></trkpt><trkpt lat="43.9547252" lon="10.339772"><ele>725.0</ele><time>2026-05-01T14:44:23.825Z</time></trkpt><trkpt lat="43.9547463" lon="10.3396889"><ele>725.0</ele><time>2026-05-01T14:44:29.175Z</time></trkpt><trkpt lat="43.95477" lon="10.3396038"><ele>725.0</ele><time>2026-05-01T14:44:34.808Z</time></trkpt><trkpt lat="43.9547993" lon="10.339521"><ele>725.0</ele><time>2026-05-01T14:44:39.807Z</time></trkpt><trkpt lat="43.9548229" lon="10.3394392"><ele>725.0</ele><time>2026-05-01T14:44:45.807Z</time></trkpt><trkpt lat="43.9548622" lon="10.3393672"><ele>723.4285714285714</ele><time>2026-05-01T14:44:51.84Z</time></trkpt><trkpt lat="43.9548945" lon="10.3392895"><ele>721.8571428571429</ele><time>2026-05-01T14:44:57.808Z</time></trkpt><trkpt lat="43.954907" lon="10.3391968"><ele>720.2857142857142</ele><time>2026-05-01T14:45:03.808Z</time></trkpt><trkpt lat="43.9548394" lon="10.3391557"><ele>718.7142857142858</ele><time>2026-05-01T14:45:10.825Z</time></trkpt><trkpt lat="43.9547756" lon="10.3391939"><ele>717.1428571428571</ele><time>2026-05-01T14:45:15.808Z</time></trkpt><trkpt lat="43.9547113" lon="10.339247"><ele>715.5714285714286</ele><time>2026-05-01T14:45:20.807Z</time></trkpt><trkpt lat="43.9546837" lon="10.3393419"><ele>714.0</ele><time>2026-05-01T14:45:25.808Z</time></trkpt><trkpt lat="43.954645" lon="10.3394247"><ele>714.0</ele><time>2026-05-01T14:45:31.808Z</time></trkpt><trkpt lat="43.954582" lon="10.3394583"><ele>714.0</ele><time>2026-05-01T14:45:38.808Z</time></trkpt><trkpt lat="43.9545144" lon="10.3394377"><ele>714.0</ele><time>2026-05-01T14:45:46.808Z</time></trkpt><trkpt lat="43.954445" lon="10.3394404"><ele>714.0</ele><time>2026-05-01T14:45:55.808Z</time></trkpt><trkpt lat="43.9544745" lon="10.3393576"><ele>714.0</ele><time>2026-05-01T14:46:14.807Z</time></trkpt><trkpt lat="43.9544186" lon="10.3393136"><ele>714.0</ele><time>2026-05-01T14:46:23.798Z</time></trkpt><trkpt lat="43.9543489" lon="10.3393072"><ele>714.0</ele><time>2026-05-01T14:46:28.808Z</time></trkpt><trkpt lat="43.9542903" lon="10.3392513"><ele>714.0</ele><time>2026-05-01T14:46:35.759Z</time></trkpt><trkpt lat="43.9542218" lon="10.339269"><ele>714.0</ele><time>2026-05-01T14:46:48.807Z</time></trkpt><trkpt lat="43.9541693" lon="10.3392009"><ele>714.0</ele><time>2026-05-01T14:47:11.825Z</time></trkpt><trkpt lat="43.95415" lon="10.339117"><ele>714.0</ele><time>2026-05-01T14:47:19.808Z</time></trkpt><trkpt lat="43.9541316" lon="10.3390311"><ele>714.0</ele><time>2026-05-01T14:47:23.807Z</time></trkpt><trkpt lat="43.9540703" lon="10.3389703"><ele>714.0</ele><time>2026-05-01T14:47:57.808Z</time></trkpt><trkpt lat="43.9540162" lon="10.3389118"><ele>714.0</ele><time>2026-05-01T14:48:05.834Z</time></trkpt><trkpt lat="43.953954" lon="10.3388829"><ele>707.7142857142857</ele><time>2026-05-01T14:48:16.808Z</time></trkpt><trkpt lat="43.9538998" lon="10.3388226"><ele>701.4285714285714</ele><time>2026-05-01T14:48:27.715Z</time></trkpt><trkpt lat="43.9538351" lon="10.3387777"><ele>695.1428571428571</ele><time>2026-05-01T14:48:38.808Z</time></trkpt><trkpt lat="43.9537787" lon="10.3387295"><ele>688.8571428571429</ele><time>2026-05-01T14:48:46.808Z</time></trkpt><trkpt lat="43.9537221" lon="10.3386836"><ele>682.5714285714286</ele><time>2026-05-01T14:48:53.808Z</time></trkpt><trkpt lat="43.9536558" lon="10.3386874"><ele>676.2857142857142</ele><time>2026-05-01T14:49:03.753Z</time></trkpt><trkpt lat="43.9536056" lon="10.3386313"><ele>670.0</ele><time>2026-05-01T14:49:09.808Z</time></trkpt><trkpt lat="43.9535362" lon="10.3386085"><ele>669.9999999999999</ele><time>2026-05-01T14:49:46.808Z</time></trkpt><trkpt lat="43.9534783" lon="10.3385671"><ele>670.0</ele><time>2026-05-01T14:49:51.712Z</time></trkpt><trkpt lat="43.9534855" lon="10.3384637"><ele>670.0</ele><time>2026-05-01T14:50:12.808Z</time></trkpt><trkpt lat="43.9534591" lon="10.3383829"><ele>670.0</ele><time>2026-05-01T14:50:17.716Z</time></trkpt><trkpt lat="43.9534233" lon="10.3383072"><ele>670.0</ele><time>2026-05-01T14:50:25.809Z</time></trkpt><trkpt lat="43.953474" lon="10.3382264"><ele>669.9999999999999</ele><time>2026-05-01T14:50:59.808Z</time></trkpt><trkpt lat="43.9534944" lon="10.3381436"><ele>670.0</ele><time>2026-05-01T14:51:05.807Z</time></trkpt><trkpt lat="43.9535279" lon="10.3380688"><ele>665.9999999999999</ele><time>2026-05-01T14:51:09.796Z</time></trkpt><trkpt lat="43.9535603" lon="10.3379904"><ele>662.0</ele><time>2026-05-01T14:51:14.807Z</time></trkpt><trkpt lat="43.9536051" lon="10.3379179"><ele>658.0</ele><time>2026-05-01T14:51:27.808Z</time></trkpt><trkpt lat="43.9536721" lon="10.3378906"><ele>654.0</ele><time>2026-05-01T14:51:33.808Z</time></trkpt><trkpt lat="43.9537371" lon="10.3379002"><ele>650.0</ele><time>2026-05-01T14:51:41.808Z</time></trkpt><trkpt lat="43.9537908" lon="10.3378386"><ele>645.9999999999999</ele><time>2026-05-01T14:51:49.808Z</time></trkpt><trkpt lat="43.9537723" lon="10.337747"><ele>642.0</ele><time>2026-05-01T14:51:56.808Z</time></trkpt><trkpt lat="43.9537442" lon="10.3376542"><ele>641.9999999999999</ele><time>2026-05-01T14:52:03.791Z</time></trkpt><trkpt lat="43.9536871" lon="10.3376031"><ele>642.0</ele><time>2026-05-01T14:52:12.808Z</time></trkpt><trkpt lat="43.9536784" lon="10.3375155"><ele>642.0</ele><time>2026-05-01T14:52:21.828Z</time></trkpt><trkpt lat="43.9537282" lon="10.3374573"><ele>642.0</ele><time>2026-05-01T14:52:26.835Z</time></trkpt><trkpt lat="43.9537994" lon="10.3374788"><ele>642.0</ele><time>2026-05-01T14:52:33.824Z</time></trkpt><trkpt lat="43.9538484" lon="10.3375396"><ele>641.9999999999999</ele><time>2026-05-01T14:52:38.808Z</time></trkpt><trkpt lat="43.9538301" lon="10.3376422"><ele>642.0</ele><time>2026-05-01T14:54:16.808Z</time></trkpt><trkpt lat="43.9538518" lon="10.3377305"><ele>641.9999999999999</ele><time>2026-05-01T14:54:21.808Z</time></trkpt><trkpt lat="43.9538517" lon="10.3378209"><ele>642.0</ele><time>2026-05-01T14:54:27.828Z</time></trkpt><trkpt lat="43.9538579" lon="10.3379204"><ele>642.0</ele><time>2026-05-01T14:54:34.807Z</time></trkpt><trkpt lat="43.9538979" lon="10.3379964"><ele>642.0</ele><time>2026-05-01T14:54:42.808Z</time></trkpt><trkpt lat="43.9539647" lon="10.3380144"><ele>642.0</ele><time>2026-05-01T14:54:48.807Z</time></trkpt><trkpt lat="43.9540383" lon="10.3379892"><ele>641.9999999999999</ele><time>2026-05-01T14:54:54.808Z</time></trkpt><trkpt lat="43.9540958" lon="10.3379362"><ele>642.0</ele><time>2026-05-01T14:54:59.808Z</time></trkpt><trkpt lat="43.9541574" lon="10.3378992"><ele>643.8571428571428</ele><time>2026-05-01T14:55:04.808Z</time></trkpt><trkpt lat="43.954223" lon="10.3378899"><ele>645.7142857142857</ele><time>2026-05-01T14:55:09.773Z</time></trkpt><trkpt lat="43.9542914" lon="10.3378979"><ele>647.5714285714286</ele><time>2026-05-01T14:55:16.807Z</time></trkpt><trkpt lat="43.9543436" lon="10.3378352"><ele>649.4285714285713</ele><time>2026-05-01T14:55:24.772Z</time></trkpt><trkpt lat="43.9543459" lon="10.3377422"><ele>651.2857142857142</ele><time>2026-05-01T14:55:30.807Z</time></trkpt><trkpt lat="43.9543558" lon="10.3376544"><ele>653.1428571428571</ele><time>2026-05-01T14:55:35.808Z</time></trkpt><trkpt lat="43.9543881" lon="10.3375683"><ele>655.0</ele><time>2026-05-01T14:55:41.808Z</time></trkpt><trkpt lat="43.9544009" lon="10.3374751"><ele>655.0</ele><time>2026-05-01T14:55:48.808Z</time></trkpt><trkpt lat="43.9544154" lon="10.3373833"><ele>655.0</ele><time>2026-05-01T14:55:58.808Z</time></trkpt><trkpt lat="43.9544884" lon="10.3373531"><ele>655.0</ele><time>2026-05-01T14:56:12.809Z</time></trkpt><trkpt lat="43.9545457" lon="10.3373163"><ele>655.0</ele><time>2026-05-01T14:56:18.808Z</time></trkpt><trkpt lat="43.9546016" lon="10.3372411"><ele>655.0</ele><time>2026-05-01T14:56:27.833Z</time></trkpt><trkpt lat="43.9546175" lon="10.3371476"><ele>655.0</ele><time>2026-05-01T14:56:31.808Z</time></trkpt><trkpt lat="43.9546622" lon="10.3370678"><ele>655.0</ele><time>2026-05-01T14:56:40.813Z</time></trkpt><trkpt lat="43.9547126" lon="10.3370046"><ele>650.4285714285714</ele><time>2026-05-01T14:56:48.811Z</time></trkpt><trkpt lat="43.9546989" lon="10.3369077"><ele>645.8571428571429</ele><time>2026-05-01T14:57:07.808Z</time></trkpt><trkpt lat="43.9547421" lon="10.3368342"><ele>641.2857142857142</ele><time>2026-05-01T14:57:14.807Z</time></trkpt><trkpt lat="43.9548069" lon="10.3367797"><ele>636.7142857142858</ele><time>2026-05-01T14:57:26.807Z</time></trkpt><trkpt lat="43.9548623" lon="10.3367284"><ele>632.1428571428571</ele><time>2026-05-01T14:57:32.834Z</time></trkpt><trkpt lat="43.9548936" lon="10.3366406"><ele>627.5714285714286</ele><time>2026-05-01T14:57:45.807Z</time></trkpt><trkpt lat="43.9548204" lon="10.3366003"><ele>623.0</ele><time>2026-05-01T14:57:55.807Z</time></trkpt><trkpt lat="43.9549445" lon="10.3365881"><ele>623.0</ele><time>2026-05-01T14:57:59.808Z</time></trkpt><trkpt lat="43.9550077" lon="10.3365326"><ele>623.0</ele><time>2026-05-01T14:58:01.808Z</time></trkpt><trkpt lat="43.9550118" lon="10.3364284"><ele>623.0</ele><time>2026-05-01T14:58:08.808Z</time></trkpt><trkpt lat="43.955069" lon="10.3363691"><ele>623.0</ele><time>2026-05-01T14:58:23.808Z</time></trkpt><trkpt lat="43.9550882" lon="10.3362802"><ele>623.0</ele><time>2026-05-01T14:58:29.791Z</time></trkpt><trkpt lat="43.9551341" lon="10.3362123"><ele>623.0</ele><time>2026-05-01T14:58:38.816Z</time></trkpt><trkpt lat="43.9551124" lon="10.3361149"><ele>623.0</ele><time>2026-05-01T14:58:48.808Z</time></trkpt><trkpt lat="43.9550521" lon="10.3360728"><ele>618.8571428571429</ele><time>2026-05-01T14:58:59.808Z</time></trkpt><trkpt lat="43.9549785" lon="10.3360568"><ele>614.7142857142858</ele><time>2026-05-01T14:59:05.808Z</time></trkpt><trkpt lat="43.9549185" lon="10.3360927"><ele>610.5714285714286</ele><time>2026-05-01T14:59:11.807Z</time></trkpt><trkpt lat="43.9548513" lon="10.3360627"><ele>606.4285714285714</ele><time>2026-05-01T14:59:32.807Z</time></trkpt><trkpt lat="43.9547948" lon="10.3360125"><ele>602.2857142857143</ele><time>2026-05-01T14:59:40.808Z</time></trkpt><trkpt lat="43.9547452" lon="10.3360711"><ele>598.1428571428571</ele><time>2026-05-01T14:59:45.808Z</time></trkpt><trkpt lat="43.9546741" lon="10.3361"><ele>594.0</ele><time>2026-05-01T14:59:51.758Z</time></trkpt><trkpt lat="43.9546228" lon="10.336163"><ele>594.0</ele><time>2026-05-01T14:59:57.808Z</time></trkpt><trkpt lat="43.9545699" lon="10.336221"><ele>594.0</ele><time>2026-05-01T15:00:04.747Z</time></trkpt><trkpt lat="43.9545282" lon="10.3362982"><ele>594.0</ele><time>2026-05-01T15:00:14.808Z</time></trkpt><trkpt lat="43.9544751" lon="10.3363575"><ele>594.0</ele><time>2026-05-01T15:00:21.808Z</time></trkpt><trkpt lat="43.9544195" lon="10.3364065"><ele>594.0</ele><time>2026-05-01T15:00:28.807Z</time></trkpt><trkpt lat="43.9543616" lon="10.3364451"><ele>594.0</ele><time>2026-05-01T15:00:33.808Z</time></trkpt><trkpt lat="43.9543034" lon="10.3364996"><ele>594.0</ele><time>2026-05-01T15:00:39.811Z</time></trkpt><trkpt lat="43.9542393" lon="10.3365353"><ele>594.0</ele><time>2026-05-01T15:00:46.807Z</time></trkpt><trkpt lat="43.9541964" lon="10.3364562"><ele>594.0</ele><time>2026-05-01T15:00:53.808Z</time></trkpt><trkpt lat="43.9542374" lon="10.3363723"><ele>594.0</ele><time>2026-05-01T15:01:05.809Z</time></trkpt><trkpt lat="43.9542522" lon="10.3362838"><ele>594.0</ele><time>2026-05-01T15:01:08.807Z</time></trkpt><trkpt lat="43.9542562" lon="10.3361867"><ele>594.0</ele><time>2026-05-01T15:01:14.807Z</time></trkpt><trkpt lat="43.9542328" lon="10.3361031"><ele>594.0</ele><time>2026-05-01T15:01:20.757Z</time></trkpt><trkpt lat="43.9541908" lon="10.336034"><ele>594.0</ele><time>2026-05-01T15:01:26.833Z</time></trkpt><trkpt lat="43.9541185" lon="10.3360211"><ele>591.1428571428571</ele><time>2026-05-01T15:01:32.73Z</time></trkpt><trkpt lat="43.9540487" lon="10.3360296"><ele>588.2857142857143</ele><time>2026-05-01T15:01:39.808Z</time></trkpt><trkpt lat="43.9539808" lon="10.3360331"><ele>585.4285714285714</ele><time>2026-05-01T15:01:45.807Z</time></trkpt><trkpt lat="43.9539168" lon="10.3360371"><ele>582.5714285714286</ele><time>2026-05-01T15:01:50.83Z</time></trkpt><trkpt lat="43.9538587" lon="10.3359989"><ele>579.7142857142858</ele><time>2026-05-01T15:01:56.827Z</time></trkpt><trkpt lat="43.9537947" lon="10.335942"><ele>576.8571428571429</ele><time>2026-05-01T15:02:02.814Z</time></trkpt><trkpt lat="43.9537319" lon="10.3359073"><ele>574.0</ele><time>2026-05-01T15:02:09.822Z</time></trkpt><trkpt lat="43.953669" lon="10.3359328"><ele>574.0</ele><time>2026-05-01T15:02:16.77Z</time></trkpt><trkpt lat="43.9536111" lon="10.3359722"><ele>574.0</ele><time>2026-05-01T15:02:22.847Z</time></trkpt><trkpt lat="43.9535519" lon="10.3360106"><ele>574.0</ele><time>2026-05-01T15:02:29.808Z</time></trkpt><trkpt lat="43.9534767" lon="10.3359863"><ele>574.0</ele><time>2026-05-01T15:02:34.827Z</time></trkpt><trkpt lat="43.9534224" lon="10.3359409"><ele>574.0</ele><time>2026-05-01T15:02:39.808Z</time></trkpt><trkpt lat="43.9533849" lon="10.3358443"><ele>574.0</ele><time>2026-05-01T15:02:46.808Z</time></trkpt><trkpt lat="43.9533941" lon="10.335743"><ele>574.0</ele><time>2026-05-01T15:02:54.827Z</time></trkpt><trkpt lat="43.9534181" lon="10.3354927"><ele>571.1428571428571</ele><time>2026-05-01T15:03:21.808Z</time></trkpt><trkpt lat="43.953418" lon="10.3353981"><ele>568.2857142857142</ele><time>2026-05-01T15:03:31.808Z</time></trkpt><trkpt lat="43.9533804" lon="10.3353133"><ele>565.4285714285714</ele><time>2026-05-01T15:03:36.109Z</time></trkpt><trkpt lat="43.95332" lon="10.3352777"><ele>562.5714285714286</ele><time>2026-05-01T15:03:41.354Z</time></trkpt><trkpt lat="43.9532983" lon="10.3351769"><ele>559.7142857142857</ele><time>2026-05-01T15:03:51.817Z</time></trkpt><trkpt lat="43.9532806" lon="10.3350916"><ele>556.8571428571429</ele><time>2026-05-01T15:03:56.808Z</time></trkpt><trkpt lat="43.953211" lon="10.3350566"><ele>554.0</ele><time>2026-05-01T15:04:02.689Z</time></trkpt><trkpt lat="43.9531471" lon="10.3350398"><ele>554.0</ele><time>2026-05-01T15:04:07.811Z</time></trkpt><trkpt lat="43.9530968" lon="10.334978"><ele>554.0</ele><time>2026-05-01T15:04:14.808Z</time></trkpt><trkpt lat="43.9531133" lon="10.3348851"><ele>554.0</ele><time>2026-05-01T15:04:23.808Z</time></trkpt><trkpt lat="43.9531577" lon="10.3348014"><ele>554.0</ele><time>2026-05-01T15:04:30.808Z</time></trkpt><trkpt lat="43.9532214" lon="10.3347765"><ele>554.0</ele><time>2026-05-01T15:04:36.808Z</time></trkpt><trkpt lat="43.9532751" lon="10.3347272"><ele>554.0</ele><time>2026-05-01T15:04:41.778Z</time></trkpt><trkpt lat="43.9532885" lon="10.3346321"><ele>554.0</ele><time>2026-05-01T15:04:47.822Z</time></trkpt><trkpt lat="43.953273" lon="10.3345402"><ele>551.8571428571429</ele><time>2026-05-01T15:04:52.808Z</time></trkpt><trkpt lat="43.9532537" lon="10.3344469"><ele>549.7142857142857</ele><time>2026-05-01T15:05:00.892Z</time></trkpt><trkpt lat="43.9533184" lon="10.3344164"><ele>547.5714285714286</ele><time>2026-05-01T15:05:08.808Z</time></trkpt><trkpt lat="43.9532515" lon="10.334401"><ele>545.4285714285714</ele><time>2026-05-01T15:05:27.808Z</time></trkpt><trkpt lat="43.9532747" lon="10.3343133"><ele>543.2857142857142</ele><time>2026-05-01T15:05:54.833Z</time></trkpt><trkpt lat="43.9533198" lon="10.3343841"><ele>541.1428571428571</ele><time>2026-05-01T15:06:03.817Z</time></trkpt><trkpt lat="43.9533643" lon="10.3344792"><ele>539.0</ele><time>2026-05-01T15:06:08.835Z</time></trkpt><trkpt lat="43.9533724" lon="10.3345745"><ele>539.0</ele><time>2026-05-01T15:06:13.808Z</time></trkpt><trkpt lat="43.9533121" lon="10.3346156"><ele>539.0</ele><time>2026-05-01T15:06:44.826Z</time></trkpt><trkpt lat="43.9533523" lon="10.3345472"><ele>539.0</ele><time>2026-05-01T15:07:28.707Z</time></trkpt><trkpt lat="43.9533554" lon="10.3344592"><ele>539.0</ele><time>2026-05-01T15:07:47.808Z</time></trkpt><trkpt lat="43.9533008" lon="10.3344015"><ele>539.0</ele><time>2026-05-01T15:07:53.808Z</time></trkpt><trkpt lat="43.9532374" lon="10.3343708"><ele>539.0</ele><time>2026-05-01T15:07:59.808Z</time></trkpt><trkpt lat="43.9531889" lon="10.3343085"><ele>539.0</ele><time>2026-05-01T15:08:08.808Z</time></trkpt><trkpt lat="43.9531986" lon="10.3342175"><ele>539.0</ele><time>2026-05-01T15:08:33.808Z</time></trkpt><trkpt lat="43.9531687" lon="10.3341281"><ele>539.0</ele><time>2026-05-01T15:08:43.808Z</time></trkpt><trkpt lat="43.9531413" lon="10.3340465"><ele>539.0</ele><time>2026-05-01T15:08:49.808Z</time></trkpt><trkpt lat="43.9530988" lon="10.33397"><ele>539.0</ele><time>2026-05-01T15:08:58.793Z</time></trkpt><trkpt lat="43.9531099" lon="10.3338706"><ele>539.0</ele><time>2026-05-01T15:09:06.809Z</time></trkpt><trkpt lat="43.95316" lon="10.3337959"><ele>539.0</ele><time>2026-05-01T15:09:11.708Z</time></trkpt><trkpt lat="43.9531705" lon="10.3337036"><ele>539.0</ele><time>2026-05-01T15:09:19.808Z</time></trkpt><trkpt lat="43.9531374" lon="10.3336242"><ele>536.8571428571429</ele><time>2026-05-01T15:09:26.808Z</time></trkpt><trkpt lat="43.9531175" lon="10.333534"><ele>534.7142857142858</ele><time>2026-05-01T15:09:34.808Z</time></trkpt><trkpt lat="43.9530534" lon="10.3334909"><ele>532.5714285714286</ele><time>2026-05-01T15:09:40.813Z</time></trkpt><trkpt lat="43.9530303" lon="10.3333948"><ele>530.4285714285714</ele><time>2026-05-01T15:09:50.827Z</time></trkpt><trkpt lat="43.9529883" lon="10.3333119"><ele>528.2857142857143</ele><time>2026-05-01T15:10:03.808Z</time></trkpt><trkpt lat="43.9529557" lon="10.3332265"><ele>526.1428571428571</ele><time>2026-05-01T15:10:12.808Z</time></trkpt><trkpt lat="43.9529759" lon="10.3331406"><ele>524.0</ele><time>2026-05-01T15:10:19.838Z</time></trkpt><trkpt lat="43.9530259" lon="10.3330854"><ele>522.1428571428571</ele><time>2026-05-01T15:10:26.808Z</time></trkpt><trkpt lat="43.953073" lon="10.333016"><ele>520.2857142857143</ele><time>2026-05-01T15:10:32.815Z</time></trkpt><trkpt lat="43.9530297" lon="10.3329407"><ele>518.4285714285714</ele><time>2026-05-01T15:10:40.761Z</time></trkpt><trkpt lat="43.9530587" lon="10.3328551"><ele>516.5714285714286</ele><time>2026-05-01T15:10:47.808Z</time></trkpt><trkpt lat="43.9531054" lon="10.3327812"><ele>514.7142857142858</ele><time>2026-05-01T15:10:56.768Z</time></trkpt><trkpt lat="43.9530962" lon="10.3326857"><ele>512.8571428571429</ele><time>2026-05-01T15:11:05.794Z</time></trkpt><trkpt lat="43.9530759" lon="10.3326023"><ele>511.0</ele><time>2026-05-01T15:11:14.807Z</time></trkpt><trkpt lat="43.9531138" lon="10.3325272"><ele>511.0</ele><time>2026-05-01T15:11:31.808Z</time></trkpt><trkpt lat="43.9530921" lon="10.3324445"><ele>511.0</ele><time>2026-05-01T15:11:41.808Z</time></trkpt><trkpt lat="43.9530642" lon="10.3323612"><ele>511.0</ele><time>2026-05-01T15:11:49.808Z</time></trkpt><trkpt lat="43.9530936" lon="10.3322748"><ele>511.0</ele><time>2026-05-01T15:11:57.808Z</time></trkpt><trkpt lat="43.9530937" lon="10.3321853"><ele>511.0</ele><time>2026-05-01T15:12:04.639Z</time></trkpt><trkpt lat="43.9531163" lon="10.3320925"><ele>511.0</ele><time>2026-05-01T15:12:13.829Z</time></trkpt><trkpt lat="43.9530762" lon="10.3320107"><ele>511.0</ele><time>2026-05-01T15:12:25.893Z</time></trkpt><trkpt lat="43.9530709" lon="10.3319125"><ele>508.7142857142857</ele><time>2026-05-01T15:12:32.808Z</time></trkpt><trkpt lat="43.9530307" lon="10.3318361"><ele>506.42857142857144</ele><time>2026-05-01T15:12:46.842Z</time></trkpt><trkpt lat="43.9530172" lon="10.3317454"><ele>504.1428571428571</ele><time>2026-05-01T15:12:55.827Z</time></trkpt><trkpt lat="43.9529638" lon="10.3316948"><ele>501.85714285714283</ele><time>2026-05-01T15:13:02.808Z</time></trkpt><trkpt lat="43.9529499" lon="10.3316082"><ele>499.57142857142856</ele><time>2026-05-01T15:13:20.788Z</time></trkpt><trkpt lat="43.9529257" lon="10.3315259"><ele>497.2857142857142</ele><time>2026-05-01T15:13:37.83Z</time></trkpt><trkpt lat="43.9528597" lon="10.331498"><ele>494.99999999999994</ele><time>2026-05-01T15:13:51.808Z</time></trkpt><trkpt lat="43.9528546" lon="10.331409"><ele>494.99999999999994</ele><time>2026-05-01T15:14:06.827Z</time></trkpt><trkpt lat="43.9527919" lon="10.3313946"><ele>495.0</ele><time>2026-05-01T15:14:19.828Z</time></trkpt><trkpt lat="43.9527227" lon="10.3314011"><ele>494.99999999999994</ele><time>2026-05-01T15:14:25.767Z</time></trkpt><trkpt lat="43.9526655" lon="10.3314697"><ele>494.99999999999994</ele><time>2026-05-01T15:14:40.808Z</time></trkpt><trkpt lat="43.9526756" lon="10.3315579"><ele>495.0</ele><time>2026-05-01T15:15:04.807Z</time></trkpt><trkpt lat="43.9527304" lon="10.3316088"><ele>494.99999999999994</ele><time>2026-05-01T15:16:41.807Z</time></trkpt><trkpt lat="43.9527503" lon="10.3317002"><ele>494.99999999999994</ele><time>2026-05-01T15:16:47.808Z</time></trkpt><trkpt lat="43.9527254" lon="10.3317827"><ele>495.0</ele><time>2026-05-01T15:16:52.716Z</time></trkpt><trkpt lat="43.9527176" lon="10.3318772"><ele>495.0</ele><time>2026-05-01T15:16:59.792Z</time></trkpt><trkpt lat="43.95266" lon="10.331926"><ele>495.0</ele><time>2026-05-01T15:17:07.828Z</time></trkpt><trkpt lat="43.952535" lon="10.3318517"><ele>495.0</ele><time>2026-05-01T15:17:35.808Z</time></trkpt><trkpt lat="43.9525422" lon="10.3317041"><ele>495.0</ele><time>2026-05-01T15:18:14.808Z</time></trkpt><trkpt lat="43.952587" lon="10.331631"><ele>495.0</ele><time>2026-05-01T15:18:27.808Z</time></trkpt><trkpt lat="43.9526163" lon="10.3315316"><ele>494.99999999999994</ele><time>2026-05-01T15:18:32.808Z</time></trkpt><trkpt lat="43.9526214" lon="10.3314358"><ele>495.0</ele><time>2026-05-01T15:18:36.808Z</time></trkpt><trkpt lat="43.9526088" lon="10.3313416"><ele>494.99999999999994</ele><time>2026-05-01T15:18:41.808Z</time></trkpt><trkpt lat="43.9525616" lon="10.3312724"><ele>494.99999999999994</ele><time>2026-05-01T15:18:46.811Z</time></trkpt><trkpt lat="43.9524946" lon="10.3312199"><ele>495.0</ele><time>2026-05-01T15:18:51.808Z</time></trkpt><trkpt lat="43.95244" lon="10.3311745"><ele>494.99999999999994</ele><time>2026-05-01T15:18:55.79Z</time></trkpt><trkpt lat="43.952383" lon="10.3311291"><ele>494.99999999999994</ele><time>2026-05-01T15:19:00.807Z</time></trkpt><trkpt lat="43.9524306" lon="10.3310689"><ele>491.42857142857133</ele><time>2026-05-01T15:19:22.808Z</time></trkpt><trkpt lat="43.9524947" lon="10.3310949"><ele>487.85714285714283</ele><time>2026-05-01T15:19:28.808Z</time></trkpt><trkpt lat="43.9525563" lon="10.3310507"><ele>484.2857142857142</ele><time>2026-05-01T15:19:43.808Z</time></trkpt><trkpt lat="43.9525257" lon="10.3309695"><ele>480.71428571428567</ele><time>2026-05-01T15:20:05.808Z</time></trkpt><trkpt lat="43.9525639" lon="10.3308674"><ele>477.1428571428571</ele><time>2026-05-01T15:20:15.807Z</time></trkpt><trkpt lat="43.9525341" lon="10.330789"><ele>473.57142857142856</ele><time>2026-05-01T15:20:20.828Z</time></trkpt><trkpt lat="43.9524887" lon="10.3307245"><ele>470.0</ele><time>2026-05-01T15:20:30.808Z</time></trkpt><trkpt lat="43.9524212" lon="10.3307263"><ele>470.0</ele><time>2026-05-01T15:20:37.808Z</time></trkpt><trkpt lat="43.9524866" lon="10.3307023"><ele>469.99999999999994</ele><time>2026-05-01T15:20:51.808Z</time></trkpt><trkpt lat="43.9525494" lon="10.3307275"><ele>470.0</ele><time>2026-05-01T15:20:58.808Z</time></trkpt><trkpt lat="43.9525862" lon="10.3308062"><ele>470.0</ele><time>2026-05-01T15:21:05.808Z</time></trkpt><trkpt lat="43.9526555" lon="10.3308103"><ele>469.99999999999994</ele><time>2026-05-01T15:21:20.739Z</time></trkpt><trkpt lat="43.9525903" lon="10.3307191"><ele>470.0</ele><time>2026-05-01T15:21:22.808Z</time></trkpt><trkpt lat="43.9525403" lon="10.3306593"><ele>470.0</ele><time>2026-05-01T15:21:23.808Z</time></trkpt><trkpt lat="43.9525956" lon="10.330708"><ele>469.71428571428567</ele><time>2026-05-01T15:21:34.808Z</time></trkpt><trkpt lat="43.9526572" lon="10.3307679"><ele>469.4285714285714</ele><time>2026-05-01T15:21:39.807Z</time></trkpt><trkpt lat="43.9527227" lon="10.3307784"><ele>469.1428571428571</ele><time>2026-05-01T15:21:49.808Z</time></trkpt><trkpt lat="43.9527769" lon="10.3307142"><ele>468.8571428571429</ele><time>2026-05-01T15:22:19.807Z</time></trkpt><trkpt lat="43.9527166" lon="10.3306798"><ele>468.5714285714286</ele><time>2026-05-01T15:22:26.808Z</time></trkpt><trkpt lat="43.9527893" lon="10.3306782"><ele>468.28571428571433</ele><time>2026-05-01T15:23:03.81Z</time></trkpt><trkpt lat="43.9528527" lon="10.3306532"><ele>468.0</ele><time>2026-05-01T15:23:09.807Z</time></trkpt><trkpt lat="43.9529169" lon="10.3306864"><ele>468.0</ele><time>2026-05-01T15:23:18.808Z</time></trkpt><trkpt lat="43.9529803" lon="10.3307144"><ele>468.00000000000006</ele><time>2026-05-01T15:23:36.808Z</time></trkpt><trkpt lat="43.9530286" lon="10.3306469"><ele>468.0</ele><time>2026-05-01T15:23:45.712Z</time></trkpt><trkpt lat="43.9529655" lon="10.330614"><ele>468.0</ele><time>2026-05-01T15:23:57.809Z</time></trkpt><trkpt lat="43.9529333" lon="10.3305294"><ele>468.00000000000006</ele><time>2026-05-01T15:24:09.808Z</time></trkpt><trkpt lat="43.952901" lon="10.3304488"><ele>468.0</ele><time>2026-05-01T15:24:21.72Z</time></trkpt><trkpt lat="43.9529637" lon="10.3304141"><ele>468.0</ele><time>2026-05-01T15:24:27.808Z</time></trkpt><trkpt lat="43.953019" lon="10.3303688"><ele>462.7142857142857</ele><time>2026-05-01T15:24:38.808Z</time></trkpt><trkpt lat="43.9529616" lon="10.330315"><ele>457.42857142857144</ele><time>2026-05-01T15:25:02.808Z</time></trkpt><trkpt lat="43.9529553" lon="10.3302266"><ele>452.14285714285717</ele><time>2026-05-01T15:25:11.811Z</time></trkpt><trkpt lat="43.952893" lon="10.3301633"><ele>446.8571428571429</ele><time>2026-05-01T15:25:22.807Z</time></trkpt><trkpt lat="43.9528177" lon="10.3301459"><ele>441.57142857142856</ele><time>2026-05-01T15:26:15.808Z</time></trkpt><trkpt lat="43.9527592" lon="10.330081"><ele>436.28571428571433</ele><time>2026-05-01T15:26:21.816Z</time></trkpt><trkpt lat="43.9526912" lon="10.3300421"><ele>431.0</ele><time>2026-05-01T15:26:28.812Z</time></trkpt><trkpt lat="43.9526535" lon="10.3299646"><ele>431.0</ele><time>2026-05-01T15:26:34.808Z</time></trkpt><trkpt lat="43.9525913" lon="10.3299189"><ele>431.0</ele><time>2026-05-01T15:26:40.807Z</time></trkpt><trkpt lat="43.9525334" lon="10.3298743"><ele>431.0</ele><time>2026-05-01T15:26:46.795Z</time></trkpt><trkpt lat="43.9524684" lon="10.3298872"><ele>431.0</ele><time>2026-05-01T15:26:54.808Z</time></trkpt><trkpt lat="43.9524342" lon="10.3298083"><ele>431.0</ele><time>2026-05-01T15:27:03.808Z</time></trkpt><trkpt lat="43.9523672" lon="10.3298069"><ele>431.0</ele><time>2026-05-01T15:27:11.808Z</time></trkpt><trkpt lat="43.9523103" lon="10.3298618"><ele>431.0</ele><time>2026-05-01T15:27:19.808Z</time></trkpt><trkpt lat="43.9522766" lon="10.329944"><ele>430.8571428571429</ele><time>2026-05-01T15:27:23.808Z</time></trkpt><trkpt lat="43.9522578" lon="10.3300458"><ele>430.71428571428567</ele><time>2026-05-01T15:27:27.808Z</time></trkpt><trkpt lat="43.9522573" lon="10.3299525"><ele>430.57142857142856</ele><time>2026-05-01T15:27:42.808Z</time></trkpt><trkpt lat="43.9523139" lon="10.3299008"><ele>430.42857142857144</ele><time>2026-05-01T15:27:47.808Z</time></trkpt><trkpt lat="43.9523719" lon="10.3298454"><ele>430.28571428571433</ele><time>2026-05-01T15:27:53.808Z</time></trkpt><trkpt lat="43.9524345" lon="10.3298313"><ele>430.1428571428571</ele><time>2026-05-01T15:27:58.807Z</time></trkpt><trkpt lat="43.9524901" lon="10.3297771"><ele>430.0</ele><time>2026-05-01T15:28:03.808Z</time></trkpt><trkpt lat="43.9525366" lon="10.3296963"><ele>424.7142857142857</ele><time>2026-05-01T15:28:09.808Z</time></trkpt><trkpt lat="43.9525573" lon="10.3296102"><ele>419.42857142857144</ele><time>2026-05-01T15:28:15.808Z</time></trkpt><trkpt lat="43.9525925" lon="10.3295304"><ele>414.14285714285717</ele><time>2026-05-01T15:28:21.771Z</time></trkpt><trkpt lat="43.9526546" lon="10.3294795"><ele>408.8571428571429</ele><time>2026-05-01T15:28:27.808Z</time></trkpt><trkpt lat="43.9527191" lon="10.3294518"><ele>403.57142857142856</ele><time>2026-05-01T15:28:32.775Z</time></trkpt><trkpt lat="43.9527849" lon="10.3295018"><ele>398.28571428571433</ele><time>2026-05-01T15:28:38.808Z</time></trkpt><trkpt lat="43.9528359" lon="10.3295661"><ele>393.0</ele><time>2026-05-01T15:28:45.808Z</time></trkpt><trkpt lat="43.9528952" lon="10.3295995"><ele>393.00000000000006</ele><time>2026-05-01T15:28:53.807Z</time></trkpt><trkpt lat="43.9529606" lon="10.3296152"><ele>393.0</ele><time>2026-05-01T15:28:59.808Z</time></trkpt><trkpt lat="43.9530074" lon="10.3296849"><ele>393.0</ele><time>2026-05-01T15:29:08.808Z</time></trkpt><trkpt lat="43.9530695" lon="10.3297232"><ele>393.0</ele><time>2026-05-01T15:29:13.808Z</time></trkpt><trkpt lat="43.9531272" lon="10.3297629"><ele>393.0</ele><time>2026-05-01T15:29:23.808Z</time></trkpt><trkpt lat="43.9531902" lon="10.3297829"><ele>393.00000000000006</ele><time>2026-05-01T15:29:28.723Z</time></trkpt><trkpt lat="43.9532579" lon="10.3297911"><ele>393.0</ele><time>2026-05-01T15:29:34.812Z</time></trkpt><trkpt lat="43.9533237" lon="10.3297915"><ele>393.00000000000006</ele><time>2026-05-01T15:29:41.71Z</time></trkpt><trkpt lat="43.9533848" lon="10.3298502"><ele>393.0</ele><time>2026-05-01T15:29:48.808Z</time></trkpt><trkpt lat="43.9534539" lon="10.3298267"><ele>393.0</ele><time>2026-05-01T15:29:57.808Z</time></trkpt><trkpt lat="43.9534295" lon="10.3297399"><ele>393.0</ele><time>2026-05-01T15:30:06.808Z</time></trkpt><trkpt lat="43.9533679" lon="10.3296906"><ele>393.0</ele><time>2026-05-01T15:30:12.808Z</time></trkpt><trkpt lat="43.9533099" lon="10.3296313"><ele>393.00000000000006</ele><time>2026-05-01T15:30:19.775Z</time></trkpt><trkpt lat="43.9532514" lon="10.3295916"><ele>393.0</ele><time>2026-05-01T15:30:26.808Z</time></trkpt><trkpt lat="43.9531973" lon="10.3295215"><ele>393.00000000000006</ele><time>2026-05-01T15:30:37.807Z</time></trkpt><trkpt lat="43.9531483" lon="10.3294518"><ele>393.0</ele><time>2026-05-01T15:30:43.807Z</time></trkpt><trkpt lat="43.9531158" lon="10.3293595"><ele>393.0</ele><time>2026-05-01T15:30:49.808Z</time></trkpt><trkpt lat="43.95309" lon="10.329277"><ele>393.0</ele><time>2026-05-01T15:31:01.808Z</time></trkpt><trkpt lat="43.9531027" lon="10.3293629"><ele>393.0</ele><time>2026-05-01T15:31:09.808Z</time></trkpt><trkpt lat="43.9531413" lon="10.329434"><ele>393.00000000000006</ele><time>2026-05-01T15:31:15.756Z</time></trkpt><trkpt lat="43.9530564" lon="10.3293989"><ele>393.0</ele><time>2026-05-01T15:31:16.818Z</time></trkpt><trkpt lat="43.9529722" lon="10.3293381"><ele>393.00000000000006</ele><time>2026-05-01T15:31:17.808Z</time></trkpt><trkpt lat="43.9529178" lon="10.329291"><ele>393.0</ele><time>2026-05-01T15:31:21.807Z</time></trkpt><trkpt lat="43.952898" lon="10.3292057"><ele>393.0</ele><time>2026-05-01T15:31:26.808Z</time></trkpt><trkpt lat="43.9528982" lon="10.3291074"><ele>393.0</ele><time>2026-05-01T15:31:32.836Z</time></trkpt><trkpt lat="43.9528847" lon="10.3290069"><ele>393.0</ele><time>2026-05-01T15:31:42.808Z</time></trkpt><trkpt lat="43.9528433" lon="10.3289406"><ele>393.00000000000006</ele><time>2026-05-01T15:31:48.808Z</time></trkpt><trkpt lat="43.9527745" lon="10.3289347"><ele>393.0</ele><time>2026-05-01T15:31:54.808Z</time></trkpt><trkpt lat="43.9527133" lon="10.3289131"><ele>389.42857142857144</ele><time>2026-05-01T15:32:02.808Z</time></trkpt><trkpt lat="43.9526737" lon="10.328844"><ele>385.8571428571429</ele><time>2026-05-01T15:32:10.722Z</time></trkpt><trkpt lat="43.9526689" lon="10.328752"><ele>382.28571428571433</ele><time>2026-05-01T15:32:19.814Z</time></trkpt><trkpt lat="43.9527058" lon="10.3286759"><ele>378.7142857142857</ele><time>2026-05-01T15:32:25.915Z</time></trkpt><trkpt lat="43.9526814" lon="10.3285738"><ele>375.1428571428571</ele><time>2026-05-01T15:32:32.823Z</time></trkpt><trkpt lat="43.9526368" lon="10.3284972"><ele>371.5714285714286</ele><time>2026-05-01T15:32:39.807Z</time></trkpt><trkpt lat="43.9526157" lon="10.3284059"><ele>368.0</ele><time>2026-05-01T15:32:46.753Z</time></trkpt><trkpt lat="43.9526287" lon="10.3283157"><ele>368.0</ele><time>2026-05-01T15:32:55.762Z</time></trkpt><trkpt lat="43.9526444" lon="10.3282285"><ele>368.0</ele><time>2026-05-01T15:33:02.814Z</time></trkpt><trkpt lat="43.9526445" lon="10.3281322"><ele>368.0</ele><time>2026-05-01T15:33:10.812Z</time></trkpt><trkpt lat="43.9526551" lon="10.3280454"><ele>368.0</ele><time>2026-05-01T15:33:17.811Z</time></trkpt><trkpt lat="43.9526378" lon="10.3279473"><ele>368.0</ele><time>2026-05-01T15:33:24.832Z</time></trkpt><trkpt lat="43.9526364" lon="10.3278565"><ele>368.0</ele><time>2026-05-01T15:33:32.883Z</time></trkpt><trkpt lat="43.9526792" lon="10.327939"><ele>368.0</ele><time>2026-05-01T15:33:38.807Z</time></trkpt><trkpt lat="43.9526943" lon="10.3278422"><ele>365.42857142857144</ele><time>2026-05-01T15:33:41.737Z</time></trkpt><trkpt lat="43.9527489" lon="10.3277853"><ele>362.85714285714283</ele><time>2026-05-01T15:33:46.808Z</time></trkpt><trkpt lat="43.9527629" lon="10.3276966"><ele>360.2857142857143</ele><time>2026-05-01T15:33:53.81Z</time></trkpt><trkpt lat="43.9527027" lon="10.3276454"><ele>357.7142857142857</ele><time>2026-05-01T15:34:04.813Z</time></trkpt><trkpt lat="43.9526384" lon="10.3276394"><ele>355.1428571428571</ele><time>2026-05-01T15:34:39.808Z</time></trkpt><trkpt lat="43.9526738" lon="10.3277182"><ele>352.57142857142856</ele><time>2026-05-01T15:34:59.832Z</time></trkpt><trkpt lat="43.9526097" lon="10.3277237"><ele>350.0</ele><time>2026-05-01T15:35:18.81Z</time></trkpt><trkpt lat="43.9525902" lon="10.3276337"><ele>352.85714285714283</ele><time>2026-05-01T15:35:24.807Z</time></trkpt><trkpt lat="43.9525271" lon="10.3276167"><ele>355.7142857142857</ele><time>2026-05-01T15:37:46.808Z</time></trkpt><trkpt lat="43.9524489" lon="10.3276078"><ele>358.57142857142856</ele><time>2026-05-01T15:37:50.83Z</time></trkpt><trkpt lat="43.9524843" lon="10.3276952"><ele>361.42857142857144</ele><time>2026-05-01T15:37:56.808Z</time></trkpt><trkpt lat="43.9524548" lon="10.3277769"><ele>364.2857142857143</ele><time>2026-05-01T15:38:02.808Z</time></trkpt><trkpt lat="43.9523915" lon="10.3278047"><ele>367.1428571428571</ele><time>2026-05-01T15:38:08.835Z</time></trkpt><trkpt lat="43.952347" lon="10.327728"><ele>370.0</ele><time>2026-05-01T15:38:11.808Z</time></trkpt><trkpt lat="43.9523683" lon="10.3276412"><ele>369.99999999999994</ele><time>2026-05-01T15:38:14.807Z</time></trkpt><trkpt lat="43.9524251" lon="10.3275855"><ele>370.0</ele><time>2026-05-01T15:38:19.807Z</time></trkpt><trkpt lat="43.9524275" lon="10.3274802"><ele>370.0</ele><time>2026-05-01T15:38:23.808Z</time></trkpt><trkpt lat="43.9524272" lon="10.3273766"><ele>370.0</ele><time>2026-05-01T15:38:27.808Z</time></trkpt><trkpt lat="43.9523985" lon="10.3272878"><ele>370.0</ele><time>2026-05-01T15:38:33.793Z</time></trkpt><trkpt lat="43.9524563" lon="10.3273282"><ele>369.99999999999994</ele><time>2026-05-01T15:38:50.808Z</time></trkpt><trkpt lat="43.9524929" lon="10.3272471"><ele>370.0</ele><time>2026-05-01T15:38:57.807Z</time></trkpt><trkpt lat="43.9525642" lon="10.3272167"><ele>365.99999999999994</ele><time>2026-05-01T15:39:05.807Z</time></trkpt><trkpt lat="43.9526052" lon="10.3271452"><ele>362.0</ele><time>2026-05-01T15:39:10.808Z</time></trkpt><trkpt lat="43.9526418" lon="10.3270607"><ele>358.0</ele><time>2026-05-01T15:39:25.808Z</time></trkpt><trkpt lat="43.952708" lon="10.3270599"><ele>354.0</ele><time>2026-05-01T15:39:32.807Z</time></trkpt><trkpt lat="43.9527786" lon="10.3270711"><ele>350.0</ele><time>2026-05-01T15:39:49.808Z</time></trkpt><trkpt lat="43.9528476" lon="10.3270413"><ele>345.99999999999994</ele><time>2026-05-01T15:39:55.788Z</time></trkpt><trkpt lat="43.9528982" lon="10.3269696"><ele>342.0</ele><time>2026-05-01T15:40:01.808Z</time></trkpt><trkpt lat="43.9529275" lon="10.3268912"><ele>341.99999999999994</ele><time>2026-05-01T15:40:07.83Z</time></trkpt><trkpt lat="43.9529683" lon="10.3268174"><ele>342.0</ele><time>2026-05-01T15:40:15.828Z</time></trkpt><trkpt lat="43.9530346" lon="10.3268564"><ele>342.0</ele><time>2026-05-01T15:40:20.515Z</time></trkpt><trkpt lat="43.9530605" lon="10.3267541"><ele>342.0</ele><time>2026-05-01T15:40:33.808Z</time></trkpt><trkpt lat="43.9530411" lon="10.3266597"><ele>342.0</ele><time>2026-05-01T15:40:37.808Z</time></trkpt><trkpt lat="43.9529724" lon="10.3266264"><ele>341.99999999999994</ele><time>2026-05-01T15:40:44.808Z</time></trkpt><trkpt lat="43.9529393" lon="10.3265484"><ele>342.0</ele><time>2026-05-01T15:40:50.808Z</time></trkpt><trkpt lat="43.9529742" lon="10.3264749"><ele>341.99999999999994</ele><time>2026-05-01T15:40:55.82Z</time></trkpt><trkpt lat="43.9530357" lon="10.3264943"><ele>342.0</ele><time>2026-05-01T15:40:59.808Z</time></trkpt><trkpt lat="43.953098" lon="10.3265478"><ele>342.0</ele><time>2026-05-01T15:41:04.808Z</time></trkpt><trkpt lat="43.9531438" lon="10.3266219"><ele>342.0</ele><time>2026-05-01T15:41:09.808Z</time></trkpt><trkpt lat="43.9532043" lon="10.3265903"><ele>342.0</ele><time>2026-05-01T15:41:14.808Z</time></trkpt><trkpt lat="43.9532669" lon="10.3265545"><ele>341.99999999999994</ele><time>2026-05-01T15:41:20.807Z</time></trkpt><trkpt lat="43.9533314" lon="10.3265108"><ele>342.0</ele><time>2026-05-01T15:41:27.813Z</time></trkpt><trkpt lat="43.9533883" lon="10.3264637"><ele>338.71428571428567</ele><time>2026-05-01T15:41:34.808Z</time></trkpt><trkpt lat="43.9534557" lon="10.3264511"><ele>335.42857142857144</ele><time>2026-05-01T15:41:45.817Z</time></trkpt><trkpt lat="43.9535144" lon="10.3264149"><ele>332.1428571428571</ele><time>2026-05-01T15:41:58.854Z</time></trkpt><trkpt lat="43.9535679" lon="10.326358"><ele>328.85714285714283</ele><time>2026-05-01T15:42:09.808Z</time></trkpt><trkpt lat="43.9536191" lon="10.3263031"><ele>325.57142857142856</ele><time>2026-05-01T15:42:20.814Z</time></trkpt><trkpt lat="43.9536884" lon="10.3262781"><ele>322.2857142857143</ele><time>2026-05-01T15:42:29.808Z</time></trkpt><trkpt lat="43.953749" lon="10.3263096"><ele>319.0</ele><time>2026-05-01T15:42:38.823Z</time></trkpt><trkpt lat="43.9538148" lon="10.3263089"><ele>319.0</ele><time>2026-05-01T15:42:52.851Z</time></trkpt><trkpt lat="43.9538816" lon="10.3263235"><ele>319.0</ele><time>2026-05-01T15:42:59.073Z</time></trkpt><trkpt lat="43.9539274" lon="10.3262527"><ele>319.0</ele><time>2026-05-01T15:43:06.796Z</time></trkpt><trkpt lat="43.9539485" lon="10.3261654"><ele>319.0</ele><time>2026-05-01T15:43:12.808Z</time></trkpt><trkpt lat="43.9539948" lon="10.326099"><ele>319.0</ele><time>2026-05-01T15:43:19.83Z</time></trkpt><trkpt lat="43.9540335" lon="10.3260198"><ele>319.0</ele><time>2026-05-01T15:43:31.815Z</time></trkpt><trkpt lat="43.9541044" lon="10.3259888"><ele>319.0</ele><time>2026-05-01T15:43:44.773Z</time></trkpt><trkpt lat="43.9541505" lon="10.3259182"><ele>319.0</ele><time>2026-05-01T15:43:51.807Z</time></trkpt><trkpt lat="43.9541386" lon="10.3258152"><ele>319.0</ele><time>2026-05-01T15:44:04.814Z</time></trkpt><trkpt lat="43.9541463" lon="10.3257224"><ele>319.0</ele><time>2026-05-01T15:44:10.807Z</time></trkpt><trkpt lat="43.9541629" lon="10.3256289"><ele>319.0</ele><time>2026-05-01T15:44:21.808Z</time></trkpt><trkpt lat="43.9541462" lon="10.3255349"><ele>319.0</ele><time>2026-05-01T15:44:28.765Z</time></trkpt><trkpt lat="43.9540747" lon="10.3254928"><ele>319.0</ele><time>2026-05-01T15:44:34.807Z</time></trkpt><trkpt lat="43.9540061" lon="10.3254904"><ele>319.0</ele><time>2026-05-01T15:44:39.814Z</time></trkpt><trkpt lat="43.9539429" lon="10.3255101"><ele>315.0</ele><time>2026-05-01T15:44:46.808Z</time></trkpt><trkpt lat="43.9538764" lon="10.3255247"><ele>311.0</ele><time>2026-05-01T15:44:56.808Z</time></trkpt><trkpt lat="43.9538111" lon="10.3255033"><ele>307.0</ele><time>2026-05-01T15:45:06.807Z</time></trkpt><trkpt lat="43.9537737" lon="10.3254328"><ele>303.0</ele><time>2026-05-01T15:45:14.808Z</time></trkpt><trkpt lat="43.9537067" lon="10.3254097"><ele>299.0</ele><time>2026-05-01T15:45:22.489Z</time></trkpt><trkpt lat="43.9536503" lon="10.3253624"><ele>295.0</ele><time>2026-05-01T15:45:30.715Z</time></trkpt><trkpt lat="43.9536132" lon="10.3252854"><ele>291.0</ele><time>2026-05-01T15:45:44.838Z</time></trkpt><trkpt lat="43.9535552" lon="10.3253354"><ele>291.0</ele><time>2026-05-01T15:45:55.808Z</time></trkpt><trkpt lat="43.9535048" lon="10.3254122"><ele>291.0</ele><time>2026-05-01T15:46:06.808Z</time></trkpt><trkpt lat="43.9535356" lon="10.3254955"><ele>291.0</ele><time>2026-05-01T15:46:17.808Z</time></trkpt><trkpt lat="43.9535996" lon="10.3255252"><ele>291.0</ele><time>2026-05-01T15:46:23.808Z</time></trkpt><trkpt lat="43.9535377" lon="10.3254969"><ele>291.0</ele><time>2026-05-01T15:46:42.808Z</time></trkpt><trkpt lat="43.9534741" lon="10.3254791"><ele>291.0</ele><time>2026-05-01T15:46:50.807Z</time></trkpt><trkpt lat="43.953399" lon="10.3255002"><ele>291.0</ele><time>2026-05-01T15:46:56.807Z</time></trkpt><trkpt lat="43.9533567" lon="10.3254192"><ele>288.57142857142856</ele><time>2026-05-01T15:47:01.815Z</time></trkpt><trkpt lat="43.9533117" lon="10.3253493"><ele>286.1428571428571</ele><time>2026-05-01T15:47:05.731Z</time></trkpt><trkpt lat="43.9532455" lon="10.3253067"><ele>283.7142857142857</ele><time>2026-05-01T15:47:10.813Z</time></trkpt><trkpt lat="43.9531864" lon="10.3252738"><ele>281.2857142857143</ele><time>2026-05-01T15:47:15.808Z</time></trkpt><trkpt lat="43.9531241" lon="10.3252516"><ele>278.8571428571429</ele><time>2026-05-01T15:47:22.808Z</time></trkpt><trkpt lat="43.9531787" lon="10.3252987"><ele>276.42857142857144</ele><time>2026-05-01T15:47:44.726Z</time></trkpt><trkpt lat="43.9531745" lon="10.3253871"><ele>274.0</ele><time>2026-05-01T15:47:55.807Z</time></trkpt><trkpt lat="43.9532108" lon="10.3254587"><ele>274.00000000000006</ele><time>2026-05-01T15:48:10.808Z</time></trkpt><trkpt lat="43.9532672" lon="10.3255045"><ele>274.0</ele><time>2026-05-01T15:48:45.808Z</time></trkpt><trkpt lat="43.9533346" lon="10.3254701"><ele>274.0</ele><time>2026-05-01T15:48:52.808Z</time></trkpt><trkpt lat="43.9533971" lon="10.3254027"><ele>274.0</ele><time>2026-05-01T15:48:57.648Z</time></trkpt><trkpt lat="43.9534042" lon="10.3253116"><ele>274.0</ele><time>2026-05-01T15:49:00.831Z</time></trkpt><trkpt lat="43.9533644" lon="10.3252145"><ele>274.00000000000006</ele><time>2026-05-01T15:49:04.808Z</time></trkpt><trkpt lat="43.9532884" lon="10.3251788"><ele>274.0</ele><time>2026-05-01T15:49:08.808Z</time></trkpt><trkpt lat="43.953218" lon="10.3251573"><ele>274.00000000000006</ele><time>2026-05-01T15:49:12.847Z</time></trkpt><trkpt lat="43.9532199" lon="10.3252505"><ele>274.0</ele><time>2026-05-01T15:50:23.808Z</time></trkpt><trkpt lat="43.9532357" lon="10.3251547"><ele>274.0</ele><time>2026-05-01T15:51:35.808Z</time></trkpt><trkpt lat="43.9533074" lon="10.3251236"><ele>274.0</ele><time>2026-05-01T15:52:10.807Z</time></trkpt><trkpt lat="43.9532415" lon="10.3251552"><ele>274.0</ele><time>2026-05-01T15:52:24.808Z</time></trkpt><trkpt lat="43.9531979" lon="10.3252201"><ele>274.00000000000006</ele><time>2026-05-01T15:54:14.808Z</time></trkpt><trkpt lat="43.9531656" lon="10.3253028"><ele>274.0</ele><time>2026-05-01T15:57:46.834Z</time></trkpt><trkpt lat="43.953106" lon="10.3252036"><ele>274.00000000000006</ele><time>2026-05-01T15:57:49.808Z</time></trkpt><trkpt lat="43.9531832" lon="10.3252264"><ele>274.0</ele><time>2026-05-01T16:00:27.807Z</time></trkpt><trkpt lat="43.9531302" lon="10.3251538"><ele>274.0</ele><time>2026-05-01T16:01:08.808Z</time></trkpt><trkpt lat="43.9531039" lon="10.3250742"><ele>274.0</ele><time>2026-05-01T16:01:14.833Z</time></trkpt><trkpt lat="43.9530451" lon="10.3250182"><ele>274.0</ele><time>2026-05-01T16:01:23.747Z</time></trkpt><trkpt lat="43.9529804" lon="10.3249917"><ele>274.00000000000006</ele><time>2026-05-01T16:01:29.828Z</time></trkpt><trkpt lat="43.9529095" lon="10.3249843"><ele>274.0</ele><time>2026-05-01T16:01:35.786Z</time></trkpt><trkpt lat="43.952839" lon="10.3250093"><ele>274.00000000000006</ele><time>2026-05-01T16:01:42.808Z</time></trkpt><trkpt lat="43.9527771" lon="10.3250282"><ele>274.0</ele><time>2026-05-01T16:01:48.808Z</time></trkpt><trkpt lat="43.952707" lon="10.3250647"><ele>274.0</ele><time>2026-05-01T16:01:55.831Z</time></trkpt><trkpt lat="43.9526475" lon="10.325111"><ele>274.0</ele><time>2026-05-01T16:02:01.807Z</time></trkpt><trkpt lat="43.9525958" lon="10.3251631"><ele>274.0</ele><time>2026-05-01T16:02:06.807Z</time></trkpt><trkpt lat="43.9525275" lon="10.3251977"><ele>274.00000000000006</ele><time>2026-05-01T16:02:13.69Z</time></trkpt><trkpt lat="43.9524634" lon="10.3251812"><ele>274.0</ele><time>2026-05-01T16:02:20.808Z</time></trkpt><trkpt lat="43.9524031" lon="10.3251383"><ele>273.5714285714286</ele><time>2026-05-01T16:02:28.814Z</time></trkpt><trkpt lat="43.9523488" lon="10.3250807"><ele>273.14285714285717</ele><time>2026-05-01T16:02:41.808Z</time></trkpt><trkpt lat="43.9523154" lon="10.3249966"><ele>272.7142857142857</ele><time>2026-05-01T16:02:49.824Z</time></trkpt><trkpt lat="43.9522552" lon="10.3249549"><ele>272.28571428571433</ele><time>2026-05-01T16:03:02.791Z</time></trkpt><trkpt lat="43.9521978" lon="10.3249121"><ele>271.8571428571429</ele><time>2026-05-01T16:03:28.807Z</time></trkpt><trkpt lat="43.9522428" lon="10.3248408"><ele>271.42857142857144</ele><time>2026-05-01T16:03:36.807Z</time></trkpt><trkpt lat="43.9522062" lon="10.3247556"><ele>271.0</ele><time>2026-05-01T16:03:42.808Z</time></trkpt><trkpt lat="43.9521422" lon="10.3247195"><ele>271.0</ele><time>2026-05-01T16:03:47.784Z</time></trkpt><trkpt lat="43.952072" lon="10.3247253"><ele>271.0</ele><time>2026-05-01T16:03:52.808Z</time></trkpt><trkpt lat="43.9520125" lon="10.3247796"><ele>271.0</ele><time>2026-05-01T16:03:57.808Z</time></trkpt><trkpt lat="43.9519733" lon="10.3248526"><ele>271.0</ele><time>2026-05-01T16:04:02.748Z</time></trkpt><trkpt lat="43.951952" lon="10.3249365"><ele>271.0</ele><time>2026-05-01T16:04:07.752Z</time></trkpt><trkpt lat="43.9519012" lon="10.3249989"><ele>271.0</ele><time>2026-05-01T16:04:13.807Z</time></trkpt><trkpt lat="43.9518382" lon="10.3250358"><ele>271.0</ele><time>2026-05-01T16:04:20.808Z</time></trkpt><trkpt lat="43.9517872" lon="10.3250949"><ele>271.0</ele><time>2026-05-01T16:04:26.817Z</time></trkpt><trkpt lat="43.9517203" lon="10.3250855"><ele>271.0</ele><time>2026-05-01T16:04:32.808Z</time></trkpt><trkpt lat="43.9516716" lon="10.325021"><ele>271.0</ele><time>2026-05-01T16:04:37.702Z</time></trkpt><trkpt lat="43.9516367" lon="10.3249456"><ele>271.0</ele><time>2026-05-01T16:04:43.808Z</time></trkpt><trkpt lat="43.9515924" lon="10.3248655"><ele>271.0</ele><time>2026-05-01T16:04:54.811Z</time></trkpt><trkpt lat="43.9515705" lon="10.3247785"><ele>271.0</ele><time>2026-05-01T16:05:00.807Z</time></trkpt><trkpt lat="43.9515428" lon="10.3246883"><ele>271.0</ele><time>2026-05-01T16:05:06.807Z</time></trkpt><trkpt lat="43.9514967" lon="10.3246224"><ele>269.0</ele><time>2026-05-01T16:05:12.807Z</time></trkpt><trkpt lat="43.9514573" lon="10.3245427"><ele>267.0</ele><time>2026-05-01T16:05:19.807Z</time></trkpt><trkpt lat="43.9514362" lon="10.3244559"><ele>265.0</ele><time>2026-05-01T16:05:25.744Z</time></trkpt><trkpt lat="43.9514281" lon="10.3243626"><ele>263.0</ele><time>2026-05-01T16:05:31.808Z</time></trkpt><trkpt lat="43.9514256" lon="10.3242653"><ele>261.0</ele><time>2026-05-01T16:05:37.808Z</time></trkpt><trkpt lat="43.9514109" lon="10.3241786"><ele>259.0</ele><time>2026-05-01T16:05:43.808Z</time></trkpt><trkpt lat="43.9514747" lon="10.3241712"><ele>257.0</ele><time>2026-05-01T16:05:50.808Z</time></trkpt><trkpt lat="43.9515421" lon="10.3241573"><ele>257.0</ele><time>2026-05-01T16:05:56.807Z</time></trkpt><trkpt lat="43.9516002" lon="10.3242082"><ele>257.0</ele><time>2026-05-01T16:06:01.811Z</time></trkpt><trkpt lat="43.9516347" lon="10.3241325"><ele>257.0</ele><time>2026-05-01T16:06:08.807Z</time></trkpt><trkpt lat="43.9516057" lon="10.3240145"><ele>257.0</ele><time>2026-05-01T16:06:23.808Z</time></trkpt><trkpt lat="43.9515807" lon="10.3239302"><ele>257.0</ele><time>2026-05-01T16:06:30.808Z</time></trkpt><trkpt lat="43.9516298" lon="10.3238719"><ele>257.0</ele><time>2026-05-01T16:06:37.829Z</time></trkpt><trkpt lat="43.9517011" lon="10.3238616"><ele>257.0</ele><time>2026-05-01T16:06:44.833Z</time></trkpt><trkpt lat="43.9517223" lon="10.3239602"><ele>257.0</ele><time>2026-05-01T16:06:47.808Z</time></trkpt><trkpt lat="43.9517359" lon="10.3240566"><ele>257.0</ele><time>2026-05-01T16:06:52.798Z</time></trkpt><trkpt lat="43.9517241" lon="10.3241452"><ele>257.0</ele><time>2026-05-01T16:06:56.737Z</time></trkpt><trkpt lat="43.9517197" lon="10.3242367"><ele>257.0</ele><time>2026-05-01T16:07:02.826Z</time></trkpt><trkpt lat="43.9517001" lon="10.3243316"><ele>257.0</ele><time>2026-05-01T16:07:09.807Z</time></trkpt><trkpt lat="43.9516964" lon="10.3244255"><ele>257.0</ele><time>2026-05-01T16:07:20.709Z</time></trkpt><trkpt lat="43.95177" lon="10.3244384"><ele>257.0</ele><time>2026-05-01T16:07:32.808Z</time></trkpt><trkpt lat="43.9518342" lon="10.3244211"><ele>255.0</ele><time>2026-05-01T16:07:37.827Z</time></trkpt><trkpt lat="43.9518791" lon="10.324359"><ele>253.0</ele><time>2026-05-01T16:07:40.753Z</time></trkpt><trkpt lat="43.9519427" lon="10.3243214"><ele>251.0</ele><time>2026-05-01T16:07:45.807Z</time></trkpt><trkpt lat="43.9519769" lon="10.3242386"><ele>249.0</ele><time>2026-05-01T16:07:50.773Z</time></trkpt><trkpt lat="43.9520188" lon="10.3241655"><ele>247.0</ele><time>2026-05-01T16:07:56.846Z</time></trkpt><trkpt lat="43.952055" lon="10.3240926"><ele>245.0</ele><time>2026-05-01T16:08:04.764Z</time></trkpt><trkpt lat="43.9521198" lon="10.324075"><ele>243.0</ele><time>2026-05-01T16:08:12.719Z</time></trkpt><trkpt lat="43.9521809" lon="10.3240332"><ele>243.0</ele><time>2026-05-01T16:08:20.822Z</time></trkpt><trkpt lat="43.9522395" lon="10.3239872"><ele>243.0</ele><time>2026-05-01T16:08:28.808Z</time></trkpt><trkpt lat="43.9522868" lon="10.3239271"><ele>243.0</ele><time>2026-05-01T16:08:34.808Z</time></trkpt><trkpt lat="43.9523278" lon="10.323854"><ele>243.0</ele><time>2026-05-01T16:08:42.807Z</time></trkpt><trkpt lat="43.9523812" lon="10.3237953"><ele>243.0</ele><time>2026-05-01T16:08:46.851Z</time></trkpt><trkpt lat="43.9524175" lon="10.3237155"><ele>243.0</ele><time>2026-05-01T16:08:56.811Z</time></trkpt><trkpt lat="43.9524699" lon="10.3236573"><ele>243.0</ele><time>2026-05-01T16:09:00.808Z</time></trkpt><trkpt lat="43.9525286" lon="10.3236041"><ele>236.83333333333334</ele><time>2026-05-01T16:09:05.86Z</time></trkpt><trkpt lat="43.9525958" lon="10.323601"><ele>230.66666666666669</ele><time>2026-05-01T16:09:10.809Z</time></trkpt><trkpt lat="43.9526589" lon="10.3235993"><ele>224.5</ele><time>2026-05-01T16:09:19.808Z</time></trkpt><trkpt lat="43.952627" lon="10.3235167"><ele>218.33333333333334</ele><time>2026-05-01T16:09:37.807Z</time></trkpt><trkpt lat="43.9526563" lon="10.3234335"><ele>212.16666666666669</ele><time>2026-05-01T16:09:41.811Z</time></trkpt><trkpt lat="43.9527173" lon="10.3233939"><ele>206.0</ele><time>2026-05-01T16:09:45.808Z</time></trkpt><trkpt lat="43.952738" lon="10.3232044"><ele>205.99999999999997</ele><time>2026-05-01T16:09:48.748Z</time></trkpt><trkpt lat="43.9527697" lon="10.3231222"><ele>206.0</ele><time>2026-05-01T16:09:51.712Z</time></trkpt><trkpt lat="43.9527144" lon="10.3231842"><ele>206.0</ele><time>2026-05-01T16:10:18.796Z</time></trkpt><trkpt lat="43.9526671" lon="10.3232507"><ele>206.0</ele><time>2026-05-01T16:10:26.795Z</time></trkpt><trkpt lat="43.9526443" lon="10.3233451"><ele>206.0</ele><time>2026-05-01T16:10:34.808Z</time></trkpt><trkpt lat="43.9525914" lon="10.3234052"><ele>205.99999999999997</ele><time>2026-05-01T16:10:43.808Z</time></trkpt><trkpt lat="43.9525705" lon="10.3234883"><ele>206.0</ele><time>2026-05-01T16:10:50.807Z</time></trkpt><trkpt lat="43.9525408" lon="10.3235751"><ele>205.99999999999997</ele><time>2026-05-01T16:10:57.816Z</time></trkpt><trkpt lat="43.9525052" lon="10.3236559"><ele>206.0</ele><time>2026-05-01T16:11:09.807Z</time></trkpt><trkpt lat="43.9524596" lon="10.3237326"><ele>206.0</ele><time>2026-05-01T16:11:16.807Z</time></trkpt><trkpt lat="43.9524931" lon="10.3238262"><ele>206.0</ele><time>2026-05-01T16:11:23.807Z</time></trkpt><trkpt lat="43.9525467" lon="10.3238862"><ele>206.0</ele><time>2026-05-01T16:11:28.808Z</time></trkpt><trkpt lat="43.9526166" lon="10.3238827"><ele>205.99999999999997</ele><time>2026-05-01T16:11:33.808Z</time></trkpt><trkpt lat="43.9526801" lon="10.3238331"><ele>206.0</ele><time>2026-05-01T16:11:38.808Z</time></trkpt><trkpt lat="43.9527421" lon="10.323783"><ele>205.99999999999997</ele><time>2026-05-01T16:11:45.762Z</time></trkpt><trkpt lat="43.9527676" lon="10.3236864"><ele>206.0</ele><time>2026-05-01T16:11:57.819Z</time></trkpt><trkpt lat="43.9528364" lon="10.3236766"><ele>206.0</ele><time>2026-05-01T16:12:03.713Z</time></trkpt><trkpt lat="43.9529012" lon="10.3236526"><ele>206.0</ele><time>2026-05-01T16:12:08.834Z</time></trkpt><trkpt lat="43.952941" lon="10.3235664"><ele>206.0</ele><time>2026-05-01T16:12:15.825Z</time></trkpt><trkpt lat="43.9529603" lon="10.3234746"><ele>205.99999999999997</ele><time>2026-05-01T16:12:25.863Z</time></trkpt><trkpt lat="43.953007" lon="10.3234126"><ele>206.0</ele><time>2026-05-01T16:12:30.652Z</time></trkpt><trkpt lat="43.9530662" lon="10.3233687"><ele>205.99999999999997</ele><time>2026-05-01T16:12:38.606Z</time></trkpt><trkpt lat="43.9531251" lon="10.3233127"><ele>206.0</ele><time>2026-05-01T16:12:50.831Z</time></trkpt><trkpt lat="43.9531931" lon="10.3233221"><ele>206.0</ele><time>2026-05-01T16:12:56.806Z</time></trkpt><trkpt lat="43.9532641" lon="10.3233392"><ele>206.0</ele><time>2026-05-01T16:13:03.834Z</time></trkpt><trkpt lat="43.9533286" lon="10.3233575"><ele>206.0</ele><time>2026-05-01T16:13:10.827Z</time></trkpt><trkpt lat="43.9534019" lon="10.3233574"><ele>205.99999999999997</ele><time>2026-05-01T16:13:18.824Z</time></trkpt><trkpt lat="43.9534639" lon="10.3233394"><ele>206.0</ele><time>2026-05-01T16:13:26.808Z</time></trkpt><trkpt lat="43.9535347" lon="10.3233213"><ele>204.42857142857142</ele><time>2026-05-01T16:13:33.707Z</time></trkpt><trkpt lat="43.9536007" lon="10.3233067"><ele>202.85714285714286</ele><time>2026-05-01T16:13:40.788Z</time></trkpt><trkpt lat="43.9536719" lon="10.3232812"><ele>201.28571428571428</ele><time>2026-05-01T16:13:48.708Z</time></trkpt><trkpt lat="43.9537375" lon="10.3232718"><ele>199.71428571428572</ele><time>2026-05-01T16:13:55.807Z</time></trkpt><trkpt lat="43.9538013" lon="10.323245"><ele>198.14285714285714</ele><time>2026-05-01T16:14:02.808Z</time></trkpt><trkpt lat="43.9538638" lon="10.3232287"><ele>196.57142857142856</ele><time>2026-05-01T16:14:09.745Z</time></trkpt><trkpt lat="43.9539366" lon="10.3231968"><ele>195.0</ele><time>2026-05-01T16:14:16.821Z</time></trkpt><trkpt lat="43.9540067" lon="10.3231733"><ele>195.0</ele><time>2026-05-01T16:14:23.807Z</time></trkpt><trkpt lat="43.9540687" lon="10.3231399"><ele>195.0</ele><time>2026-05-01T16:14:29.712Z</time></trkpt><trkpt lat="43.9541297" lon="10.3231148"><ele>195.0</ele><time>2026-05-01T16:14:36.807Z</time></trkpt><trkpt lat="43.9541951" lon="10.3230883"><ele>195.0</ele><time>2026-05-01T16:14:42.807Z</time></trkpt><trkpt lat="43.9542565" lon="10.3230663"><ele>195.0</ele><time>2026-05-01T16:14:49.811Z</time></trkpt><trkpt lat="43.9543144" lon="10.3230266"><ele>195.0</ele><time>2026-05-01T16:14:53.744Z</time></trkpt><trkpt lat="43.9543762" lon="10.3229999"><ele>195.0</ele><time>2026-05-01T16:14:59.818Z</time></trkpt><trkpt lat="43.9544411" lon="10.3229691"><ele>193.14285714285714</ele><time>2026-05-01T16:15:07.808Z</time></trkpt><trkpt lat="43.9545072" lon="10.322973"><ele>191.28571428571428</ele><time>2026-05-01T16:15:13.807Z</time></trkpt><trkpt lat="43.9545798" lon="10.3229824"><ele>189.42857142857144</ele><time>2026-05-01T16:15:20.807Z</time></trkpt><trkpt lat="43.9546114" lon="10.3230938"><ele>187.57142857142856</ele><time>2026-05-01T16:15:34.807Z</time></trkpt><trkpt lat="43.9546749" lon="10.3231348"><ele>185.71428571428572</ele><time>2026-05-01T16:15:39.812Z</time></trkpt><trkpt lat="43.9547099" lon="10.323214"><ele>183.85714285714286</ele><time>2026-05-01T16:15:43.833Z</time></trkpt><trkpt lat="43.9547831" lon="10.3232297"><ele>182.0</ele><time>2026-05-01T16:15:47.731Z</time></trkpt><trkpt lat="43.9548453" lon="10.3232069"><ele>182.0</ele><time>2026-05-01T16:15:52.807Z</time></trkpt><trkpt lat="43.9549064" lon="10.3232685"><ele>182.0</ele><time>2026-05-01T16:16:00.808Z</time></trkpt><trkpt lat="43.9549561" lon="10.3233289"><ele>182.0</ele><time>2026-05-01T16:16:05.808Z</time></trkpt><trkpt lat="43.9550184" lon="10.3233533"><ele>182.0</ele><time>2026-05-01T16:16:14.852Z</time></trkpt><trkpt lat="43.9550809" lon="10.3233702"><ele>182.0</ele><time>2026-05-01T16:16:22.807Z</time></trkpt><trkpt lat="43.9551477" lon="10.3233549"><ele>182.0</ele><time>2026-05-01T16:16:31.817Z</time></trkpt><trkpt lat="43.955213" lon="10.3233568"><ele>182.0</ele><time>2026-05-01T16:16:37.808Z</time></trkpt><trkpt lat="43.9552639" lon="10.3232804"><ele>178.85714285714286</ele><time>2026-05-01T16:16:46.217Z</time></trkpt><trkpt lat="43.9553313" lon="10.3232862"><ele>175.71428571428572</ele><time>2026-05-01T16:16:54.827Z</time></trkpt><trkpt lat="43.955389" lon="10.3233445"><ele>172.57142857142856</ele><time>2026-05-01T16:17:01.845Z</time></trkpt><trkpt lat="43.9554658" lon="10.3233693"><ele>169.42857142857144</ele><time>2026-05-01T16:17:22.808Z</time></trkpt><trkpt lat="43.9555177" lon="10.3232928"><ele>166.28571428571428</ele><time>2026-05-01T16:17:31.808Z</time></trkpt><trkpt lat="43.9555565" lon="10.3232187"><ele>163.14285714285714</ele><time>2026-05-01T16:17:42.788Z</time></trkpt><trkpt lat="43.955527" lon="10.3231139"><ele>160.0</ele><time>2026-05-01T16:17:48.833Z</time></trkpt><trkpt lat="43.9555454" lon="10.3229802"><ele>157.57142857142856</ele><time>2026-05-01T16:18:21.808Z</time></trkpt><trkpt lat="43.9555325" lon="10.3228903"><ele>155.14285714285714</ele><time>2026-05-01T16:18:24.808Z</time></trkpt><trkpt lat="43.9555303" lon="10.3227976"><ele>152.71428571428572</ele><time>2026-05-01T16:18:30.812Z</time></trkpt><trkpt lat="43.9554936" lon="10.3227203"><ele>150.28571428571428</ele><time>2026-05-01T16:18:35.808Z</time></trkpt><trkpt lat="43.9554235" lon="10.3226774"><ele>147.85714285714286</ele><time>2026-05-01T16:18:39.768Z</time></trkpt><trkpt lat="43.9553627" lon="10.3226404"><ele>145.42857142857142</ele><time>2026-05-01T16:18:43.725Z</time></trkpt><trkpt lat="43.9552949" lon="10.3226108"><ele>143.0</ele><time>2026-05-01T16:18:48.77Z</time></trkpt><trkpt lat="43.9552257" lon="10.3225845"><ele>142.99999999999997</ele><time>2026-05-01T16:18:55.807Z</time></trkpt><trkpt lat="43.9552193" lon="10.3224902"><ele>143.0</ele><time>2026-05-01T16:19:03.808Z</time></trkpt><trkpt lat="43.9551743" lon="10.3224238"><ele>143.0</ele><time>2026-05-01T16:19:11.709Z</time></trkpt><trkpt lat="43.9551073" lon="10.3224418"><ele>143.0</ele><time>2026-05-01T16:19:18.81Z</time></trkpt><trkpt lat="43.9550382" lon="10.3224363"><ele>143.0</ele><time>2026-05-01T16:19:26.609Z</time></trkpt><trkpt lat="43.9549818" lon="10.3223812"><ele>142.99999999999997</ele><time>2026-05-01T16:19:34.808Z</time></trkpt><trkpt lat="43.9549174" lon="10.3223455"><ele>143.0</ele><time>2026-05-01T16:19:41.816Z</time></trkpt><trkpt lat="43.9549086" lon="10.3222517"><ele>141.99999999999997</ele><time>2026-05-01T16:19:50.779Z</time></trkpt><trkpt lat="43.9549003" lon="10.322162"><ele>141.0</ele><time>2026-05-01T16:19:58.807Z</time></trkpt><trkpt lat="43.9548351" lon="10.322167"><ele>140.0</ele><time>2026-05-01T16:20:04.808Z</time></trkpt><trkpt lat="43.9547643" lon="10.3221399"><ele>139.0</ele><time>2026-05-01T16:20:12.827Z</time></trkpt><trkpt lat="43.9548176" lon="10.3220698"><ele>138.0</ele><time>2026-05-01T16:20:24.744Z</time></trkpt><trkpt lat="43.9548867" lon="10.3220554"><ele>136.99999999999997</ele><time>2026-05-01T16:20:29.807Z</time></trkpt><trkpt lat="43.9549197" lon="10.3219673"><ele>136.0</ele><time>2026-05-01T16:20:35.807Z</time></trkpt><trkpt lat="43.9548836" lon="10.3218818"><ele>135.99999999999997</ele><time>2026-05-01T16:20:41.804Z</time></trkpt><trkpt lat="43.9548097" lon="10.3218412"><ele>136.0</ele><time>2026-05-01T16:20:46.808Z</time></trkpt><trkpt lat="43.9547607" lon="10.3217689"><ele>136.0</ele><time>2026-05-01T16:20:52.774Z</time></trkpt><trkpt lat="43.9547901" lon="10.3216873"><ele>136.0</ele><time>2026-05-01T16:20:57.808Z</time></trkpt><trkpt lat="43.954721" lon="10.3216721"><ele>136.0</ele><time>2026-05-01T16:21:06.808Z</time></trkpt><trkpt lat="43.9546481" lon="10.3216841"><ele>135.99999999999997</ele><time>2026-05-01T16:21:12.833Z</time></trkpt><trkpt lat="43.9545948" lon="10.3217541"><ele>136.0</ele><time>2026-05-01T16:21:18.808Z</time></trkpt><trkpt lat="43.9545743" lon="10.3218411"><ele>135.99999999999997</ele><time>2026-05-01T16:21:24.71Z</time></trkpt><trkpt lat="43.9545556" lon="10.3219252"><ele>136.0</ele><time>2026-05-01T16:21:30.793Z</time></trkpt><trkpt lat="43.9545176" lon="10.3220015"><ele>136.0</ele><time>2026-05-01T16:21:37.814Z</time></trkpt><trkpt lat="43.9544502" lon="10.3220315"><ele>136.0</ele><time>2026-05-01T16:21:45.808Z</time></trkpt><trkpt lat="43.9543789" lon="10.3220506"><ele>136.0</ele><time>2026-05-01T16:21:52.808Z</time></trkpt><trkpt lat="43.9543114" lon="10.3220045"><ele>135.99999999999997</ele><time>2026-05-01T16:21:58.807Z</time></trkpt><trkpt lat="43.9542748" lon="10.3219174"><ele>136.0</ele><time>2026-05-01T16:22:03.807Z</time></trkpt><trkpt lat="43.9542454" lon="10.3218333"><ele>135.99999999999997</ele><time>2026-05-01T16:22:09.747Z</time></trkpt><trkpt lat="43.9542427" lon="10.3217416"><ele>136.0</ele><time>2026-05-01T16:22:14.734Z</time></trkpt><trkpt lat="43.9542172" lon="10.3216596"><ele>136.0</ele><time>2026-05-01T16:22:21.808Z</time></trkpt><trkpt lat="43.9542457" lon="10.321565"><ele>136.0</ele><time>2026-05-01T16:22:27.808Z</time></trkpt><trkpt lat="43.9543145" lon="10.3215436"><ele>136.0</ele><time>2026-05-01T16:22:31.808Z</time></trkpt><trkpt lat="43.9543724" lon="10.3215056"><ele>135.99999999999997</ele><time>2026-05-01T16:22:37.808Z</time></trkpt><trkpt lat="43.9543153" lon="10.3214175"><ele>136.0</ele><time>2026-05-01T16:22:42.807Z</time></trkpt><trkpt lat="43.9542558" lon="10.3214702"><ele>135.14285714285714</ele><time>2026-05-01T16:23:12.807Z</time></trkpt><trkpt lat="43.9542005" lon="10.3214088"><ele>134.28571428571428</ele><time>2026-05-01T16:23:19.808Z</time></trkpt><trkpt lat="43.9541616" lon="10.3213381"><ele>133.42857142857144</ele><time>2026-05-01T16:23:25.808Z</time></trkpt><trkpt lat="43.9541371" lon="10.3212463"><ele>132.57142857142856</ele><time>2026-05-01T16:23:32.807Z</time></trkpt><trkpt lat="43.9541232" lon="10.3211526"><ele>131.71428571428572</ele><time>2026-05-01T16:23:39.808Z</time></trkpt><trkpt lat="43.9541243" lon="10.3210609"><ele>130.85714285714286</ele><time>2026-05-01T16:23:46.708Z</time></trkpt><trkpt lat="43.9541378" lon="10.3209679"><ele>130.0</ele><time>2026-05-01T16:23:53.808Z</time></trkpt><trkpt lat="43.9541871" lon="10.320899"><ele>129.71428571428572</ele><time>2026-05-01T16:24:01.808Z</time></trkpt><trkpt lat="43.9541957" lon="10.3207747"><ele>129.42857142857144</ele><time>2026-05-01T16:24:17.805Z</time></trkpt><trkpt lat="43.9542201" lon="10.3206932"><ele>129.14285714285714</ele><time>2026-05-01T16:24:21.809Z</time></trkpt><trkpt lat="43.9541941" lon="10.3205998"><ele>128.85714285714286</ele><time>2026-05-01T16:24:28.808Z</time></trkpt><trkpt lat="43.9542054" lon="10.3204992"><ele>128.57142857142856</ele><time>2026-05-01T16:24:34.808Z</time></trkpt><trkpt lat="43.9541938" lon="10.3204105"><ele>128.28571428571428</ele><time>2026-05-01T16:24:41.808Z</time></trkpt><trkpt lat="43.9541708" lon="10.320313"><ele>128.0</ele><time>2026-05-01T16:24:49.808Z</time></trkpt><trkpt lat="43.9541471" lon="10.3202243"><ele>129.71428571428572</ele><time>2026-05-01T16:24:56.844Z</time></trkpt><trkpt lat="43.9541132" lon="10.3201447"><ele>131.42857142857142</ele><time>2026-05-01T16:25:02.75Z</time></trkpt><trkpt lat="43.9540785" lon="10.3200568"><ele>133.14285714285714</ele><time>2026-05-01T16:25:10.571Z</time></trkpt><trkpt lat="43.9540451" lon="10.3199302"><ele>134.85714285714286</ele><time>2026-05-01T16:25:28.813Z</time></trkpt><trkpt lat="43.9540096" lon="10.3198509"><ele>136.57142857142856</ele><time>2026-05-01T16:25:33.842Z</time></trkpt><trkpt lat="43.9539631" lon="10.3197823"><ele>138.28571428571428</ele><time>2026-05-01T16:25:40.827Z</time></trkpt><trkpt lat="43.9539253" lon="10.3197099"><ele>140.0</ele><time>2026-05-01T16:25:46.826Z</time></trkpt><trkpt lat="43.9538973" lon="10.319626"><ele>143.57142857142858</ele><time>2026-05-01T16:25:53.808Z</time></trkpt><trkpt lat="43.9538701" lon="10.319541"><ele>147.14285714285714</ele><time>2026-05-01T16:26:00.808Z</time></trkpt><trkpt lat="43.9538472" lon="10.3194532"><ele>150.71428571428572</ele><time>2026-05-01T16:26:06.807Z</time></trkpt><trkpt lat="43.9538313" lon="10.3193601"><ele>154.28571428571428</ele><time>2026-05-01T16:26:14.808Z</time></trkpt><trkpt lat="43.9538144" lon="10.3192698"><ele>157.85714285714286</ele><time>2026-05-01T16:26:19.807Z</time></trkpt><trkpt lat="43.9537859" lon="10.3191768"><ele>161.42857142857144</ele><time>2026-05-01T16:26:25.807Z</time></trkpt><trkpt lat="43.9537602" lon="10.3190909"><ele>165.0</ele><time>2026-05-01T16:26:31.834Z</time></trkpt><trkpt lat="43.9537301" lon="10.3190098"><ele>165.0</ele><time>2026-05-01T16:26:37.817Z</time></trkpt><trkpt lat="43.9537102" lon="10.3189155"><ele>165.0</ele><time>2026-05-01T16:26:43.823Z</time></trkpt><trkpt lat="43.9536961" lon="10.3188185"><ele>189.0</ele><time>2026-05-01T16:26:49.814Z</time></trkpt><trkpt lat="43.9536854" lon="10.3187262"><ele>189.0</ele><time>2026-05-01T16:26:55.711Z</time></trkpt><trkpt lat="43.9536275" lon="10.3186896"><ele>189.0</ele><time>2026-05-01T16:27:07.808Z</time></trkpt><trkpt lat="43.953556" lon="10.318785"><ele>189.0</ele><time>2026-05-01T16:29:51.808Z</time></trkpt><trkpt lat="43.9535514" lon="10.3186872"><ele>189.0</ele><time>2026-05-01T16:30:39.808Z</time></trkpt></trkseg></trk></gpx>